Provisional Data: Conodoguinet Creek near Schlusser, PA


Please select a monitoring station.
Please select start date.
Please select start date.

Toggle Unit: C/F Toggle Unit: C/F
Sample Time Temperature (C) Temperature (F) Specific Conductivity (mS/cm) pH   Turbidity (NTU+) DO (mg/L)
1/12/2021 12:00:00 AM 3.8 38.84 0.383 7 160.8 0.29
1/12/2021 12:15:00 AM 3.8 38.84 0.384 7.01 103.6 0.25
1/12/2021 12:30:00 AM 3.79 38.822 0.383 7.01 99.51 0.27
1/12/2021 12:45:00 AM 3.8 38.84 0.382 7 138.1 0.24
1/12/2021 1:00:00 AM 3.7 38.66 0.385 7 119.9 0.3
1/12/2021 1:15:00 AM 3.65 38.57 0.38 7 118 0.3
1/12/2021 1:30:00 AM 3.62 38.516 0.38 6.99 125.9 0.27
1/12/2021 1:45:00 AM 3.66 38.588 0.382 7 169.9 0.3
1/12/2021 2:00:00 AM 3.63 38.534 0.383 7 111.2 0.41
1/12/2021 2:15:00 AM 3.59 38.462 0.383 7.01 153 0.42
1/12/2021 2:30:00 AM 3.61 38.498 0.382 7.02 95.01 0.38
1/12/2021 2:45:00 AM 3.7 38.66 0.389 7.01 128.8 0.36
1/12/2021 3:00:00 AM 3.63 38.534 0.384 7 116.6 0.34
1/12/2021 3:15:00 AM 3.68 38.624 0.383 7.01 159.3 0.31
1/12/2021 3:30:00 AM 3.72 38.696 0.383 7.02 108.7 0.25
1/12/2021 3:45:00 AM 3.72 38.696 0.382 7.02 162.3 0.21
1/12/2021 4:00:00 AM 3.73 38.714 0.382 7.02 134.2 0.24
1/12/2021 4:15:00 AM 3.61 38.498 0.382 7.02 126 0.3
1/12/2021 4:30:00 AM 3.63 38.534 0.388 7.02 161.3 0.29
1/12/2021 4:45:00 AM 3.66 38.588 0.391 7.01 183.4 0.68
1/12/2021 5:00:00 AM 3.6 38.48 0.385 7.01 169.5 0.93
1/12/2021 5:15:00 AM 3.68 38.624 0.39 7 143.6 1.09
1/12/2021 5:30:00 AM 3.61 38.498 0.388 7 119.7 1.06
1/12/2021 5:45:00 AM 3.49 38.282 0.387 6.99 122.3 1.06
1/12/2021 6:00:00 AM 3.51 38.318 0.383 7 135.8 0.78
1/12/2021 6:15:00 AM 3.59 38.462 0.387 7.01 129.3 0.44
1/12/2021 6:30:00 AM 3.58 38.444 0.392 7 203.9 0.43
1/12/2021 6:45:00 AM 3.47 38.246 0.386 7 172.1 0.55
1/12/2021 7:00:00 AM 3.46 38.228 0.396 7 165.1 0.7
1/12/2021 7:15:00 AM 3.44 38.192 0.384 7.01 186.1 0.52
1/12/2021 7:30:00 AM 3.41 38.138 0.381 7.01 199.3 0.45
1/12/2021 7:45:00 AM 3.33 37.994 0.382 7.01 94.34 0.55
1/12/2021 8:00:00 AM 3.27 37.886 0.384 7.02 145.1 0.59
1/12/2021 8:15:00 AM 3.31 37.958 0.387 7.03 141.3 0.81
1/12/2021 8:30:00 AM 3.4 38.12 0.39 7.03 164.1 0.69
1/12/2021 8:45:00 AM 3.39 38.102 0.385 7.04 138.9 0.98
1/12/2021 9:00:00 AM 3.35 38.03 0.384 7.05 143.1 0.79
1/12/2021 9:15:00 AM 3.27 37.886 0.384 7.05 161.7 0.89
1/12/2021 9:30:00 AM 3.29 37.922 0.384 7.05 196.9 0.67
1/12/2021 9:45:00 AM 3.2 37.76 0.383 7.06 169.2 0.7
1/12/2021 10:00:00 AM 3.29 37.922 0.385 7.06 181.5 0.83
1/12/2021 10:15:00 AM 3.3 37.94 0.384 7.07 189.1 0.8
1/12/2021 10:30:00 AM 3.33 37.994 0.384 7.07 146.9 0.65
1/12/2021 10:45:00 AM 3.31 37.958 0.385 7.08 209.1 0.61
1/12/2021 11:00:00 AM 3.29 37.922 0.385 7.08 180.9 0.69
1/12/2021 11:15:00 AM 3.21 37.778 0.383 7.08 120 0.65
1/12/2021 11:30:00 AM 3.32 37.976 0.392 7.07 129.8 0.76
1/12/2021 11:45:00 AM 3.29 37.922 0.386 7.08 186.6 0.65
1/12/2021 12:00:00 PM 3.28 37.904 0.389 7.07 226.4 0.93
1/12/2021 12:15:00 PM 3.27 37.886 0.384 7.07 211.7 0.99
1/12/2021 12:30:00 PM 3.27 37.886 0.385 7.08 180.1 0.93
1/12/2021 12:45:00 PM 3.32 37.976 0.387 7.09 135 0.82
1/12/2021 1:00:00 PM 3.35 38.03 0.385 7.08 141.4 0.87
1/12/2021 1:15:00 PM 3.3 37.94 0.386 7.1 187.3 0.68
1/12/2021 1:30:00 PM 3.32 37.976 0.385 7.1 127.2 0.66
1/12/2021 1:45:00 PM 3.36 38.048 0.386 7.1 149.2 0.76
1/12/2021 2:00:00 PM 3.38 38.084 0.392 7.1 287.6 0.93
1/12/2021 2:15:00 PM 3.33 37.994 0.388 7.09 189.5 0.77
1/12/2021 2:30:00 PM 3.38 38.084 0.389 7.1 225.1 0.73
1/12/2021 2:45:00 PM 3.35 38.03 0.387 7.1 156.9 0.81
1/12/2021 3:00:00 PM 3.37 38.066 0.385 7.11 184.7 0.58
1/12/2021 3:15:00 PM 3.44 38.192 0.383 7.12 206.8 0.81
1/12/2021 3:30:00 PM 3.42 38.156 0.387 7.13 171.5 0.78
1/12/2021 3:45:00 PM 3.42 38.156 0.386 7.12 198.1 0.72
1/12/2021 4:00:00 PM 3.47 38.246 0.391 7.12 163.5 0.59
1/12/2021 4:15:00 PM 3.4 38.12 0.387 7.12 158.4 0.64
1/12/2021 4:30:00 PM 3.43 38.174 0.386 7.13 154.3 1.05
1/12/2021 4:45:00 PM 3.41 38.138 0.387 7.13 172.5 1.23
1/12/2021 5:00:00 PM 3.44 38.192 0.383 7.12 203.5 1.03
1/12/2021 5:15:00 PM 3.45 38.21 0.386 7.12 193.9 0.76
1/12/2021 5:30:00 PM 3.43 38.174 0.388 7.12 184.1 0.71
1/12/2021 5:45:00 PM 3.45 38.21 0.389 7.11 180 0.6
1/12/2021 6:00:00 PM 3.44 38.192 0.387 7.12 242.4 0.74
1/12/2021 6:15:00 PM 3.38 38.084 0.391 7.12 237.4 0.67
1/12/2021 6:30:00 PM 3.43 38.174 0.388 7.12 222 0.68
1/12/2021 6:45:00 PM 3.39 38.102 0.388 7.12 185 0.75
1/12/2021 7:00:00 PM 3.44 38.192 0.388 7.11 220.7 0.79
1/12/2021 7:15:00 PM 3.41 38.138 0.39 7.09 279.5 0.69
1/12/2021 7:30:00 PM 3.37 38.066 0.391 7.09 327.5 0.93
1/12/2021 7:45:00 PM 3.34 38.012 0.39 7.1 292.2 0.8
1/12/2021 8:00:00 PM 3.41 38.138 0.404 7.11 256.8 0.77
1/12/2021 8:15:00 PM 3.37 38.066 0.395 7.09 203.5 0.68
1/12/2021 8:30:00 PM 3.43 38.174 0.389 7.09 229.9 0.75
1/12/2021 8:45:00 PM 3.42 38.156 0.394 7.09 314.4 0.85
1/12/2021 9:00:00 PM 3.33 37.994 0.384 7.09 437.6 0.88
1/12/2021 9:15:00 PM 3.33 37.994 0.386 7.1 496.3 1.33
1/12/2021 9:30:00 PM 3.34 38.012 0.383 7.1 281.1 0.97
1/12/2021 9:45:00 PM 3.35 38.03 0.385 7.39 387.7 0.7
1/12/2021 10:00:00 PM 3.37 38.066 0.384 7.29 299.3 0.85
1/12/2021 10:15:00 PM 3.39 38.102 0.383 7.27 233.9 0.89
1/12/2021 10:30:00 PM 3.34 38.012 0.383 7.26 249.8 0.77
1/12/2021 10:45:00 PM 3.41 38.138 0.387 7.24 218.7 0.58
1/12/2021 11:00:00 PM 3.4 38.12 0.386 7.15 291.2 0.86
1/12/2021 11:15:00 PM 3.41 38.138 0.386 7.21 275.2 0.71
1/12/2021 11:30:00 PM 3.43 38.174 0.387 7.18 404.8 0.79
1/12/2021 11:45:00 PM 3.4 38.12 0.387 7.15 505.1 0.67
1/13/2021 12:00:00 AM 3.41 38.138 0.385 7.17 280.8 0.97
1/13/2021 12:15:00 AM 3.45 38.21 0.386 7.16 225.1 0.85
1/13/2021 12:30:00 AM 3.43 38.174 0.39 7.15 304.4 0.81
1/13/2021 12:45:00 AM 3.52 38.336 0.393 7.14 357.8 0.89
1/13/2021 1:00:00 AM 3.48 38.264 0.395 7.14 284.4 1
1/13/2021 1:15:00 AM 3.46 38.228 0.387 7.13 233.3 1.21
1/13/2021 1:30:00 AM 3.43 38.174 0.389 7.15 345.4 1.15
1/13/2021 1:45:00 AM 3.43 38.174 0.39 7.13 341.9 1.31
1/13/2021 2:00:00 AM 3.41 38.138 0.391 7.13 330.7 1.41
1/13/2021 2:15:00 AM 3.44 38.192 0.388 7.13 283.9 1.34
1/13/2021 2:30:00 AM 3.42 38.156 0.388 7.13 304.8 1.22
1/13/2021 2:45:00 AM 3.48 38.264 0.389 7.13 292.4 1.08
1/13/2021 3:00:00 AM 3.43 38.174 0.39 7.13 485.7 0.86
1/13/2021 3:15:00 AM 3.45 38.21 0.39 7.13 259.3 1.03
1/13/2021 3:30:00 AM 3.44 38.192 0.389 7.14 188.8 1.17
1/13/2021 3:45:00 AM 3.45 38.21 0.39 7.14 349.8 0.94
1/13/2021 4:00:00 AM 3.42 38.156 0.388 7.12 428.2 1.07
1/13/2021 4:15:00 AM 3.4 38.12 0.389 7.14 279.8 0.86
1/13/2021 4:30:00 AM 3.43 38.174 0.391 7.14 327.4 1.08
1/13/2021 4:45:00 AM 3.4 38.12 0.388 7.13 285.1 0.99
1/13/2021 5:00:00 AM 3.4 38.12 0.387 7.14 254 0.95
1/13/2021 5:15:00 AM 3.37 38.066 0.389 7.15 313.9 1.27
1/13/2021 5:30:00 AM 3.35 38.03 0.389 7.15 147.6 1.5
1/13/2021 5:45:00 AM 3.39 38.102 0.387 7.15 494 1.06
1/13/2021 6:00:00 AM 3.35 38.03 0.389 7.16 229.4 0.98
1/13/2021 6:15:00 AM 3.38 38.084 0.388 7.14 339.4 0.87
1/13/2021 6:30:00 AM 3.36 38.048 0.391 7.15 429.6 1.08
1/13/2021 6:45:00 AM 3.36 38.048 0.392 7.14 266.5 1.2
1/13/2021 7:00:00 AM 3.39 38.102 0.39 7.14 268.5 1.16
1/13/2021 7:15:00 AM 3.35 38.03 0.39 7.13 272.5 0.86
1/13/2021 7:30:00 AM 3.4 38.12 0.389 7.13 267.7 0.87
1/13/2021 7:45:00 AM 3.32 37.976 0.39 7.13 386 0.89
1/13/2021 8:00:00 AM 3.35 38.03 0.389 7.12 421.6 0.75
1/13/2021 8:15:00 AM 3.34 38.012 0.389 7.12 357.8 1.05
1/13/2021 8:30:00 AM 3.35 38.03 0.39 7.13 489.7 0.87
1/13/2021 8:45:00 AM 3.33 37.994 0.391 7.13 494.7 1.13
1/13/2021 9:00:00 AM 3.38 38.084 0.389 7.13 251.8 0.92
1/13/2021 9:15:00 AM 3.37 38.066 0.39 7.12 307.2 0.77
1/13/2021 9:30:00 AM 3.35 38.03 0.392 7.13 259.6 1.15
1/13/2021 9:45:00 AM 3.34 38.012 0.39 7.12 367.2 1.13
1/13/2021 10:00:00 AM 3.32 37.976 0.391 7.13 396.1 1.27
1/13/2021 10:15:00 AM 3.32 37.976 0.389 7.13 265 0.84
1/13/2021 10:30:00 AM 3.3 37.94 0.393 7.13 349.7 1.16
1/13/2021 10:45:00 AM 3.32 37.976 0.389 7.13 410.2 1.41
1/13/2021 11:00:00 AM 3.32 37.976 0.389 7.13 535.1 1.2
1/13/2021 11:15:00 AM 3.36 38.048 0.392 7.14 235.9 0.95
1/13/2021 11:30:00 AM 3.27 37.886 0.392 7.14 171.6 1.05
1/13/2021 11:45:00 AM 3.36 38.048 0.395 7.14 223 0.31
1/13/2021 12:00:00 PM 3.38 38.084 0.392 7.14 233.6 0.61
1/13/2021 12:15:00 PM 3.4 38.12 0.394 7.14 325.1 1.6
1/13/2021 12:30:00 PM 3.4 38.12 0.393 7.12 316.9 1.12
1/13/2021 12:45:00 PM 3.39 38.102 0.392 7.13 282.9 0.82
1/13/2021 1:00:00 PM 3.45 38.21 0.392 7.14 273.7 1.01
1/13/2021 1:15:00 PM 3.4 38.12 0.391 7.15 280.3 1.31
1/13/2021 1:30:00 PM 3.43 38.174 0.391 7.15 222.4 1.53
1/13/2021 1:45:00 PM 3.46 38.228 0.391 7.15 207.3 1.37
1/13/2021 2:00:00 PM 3.47 38.246 0.392 7.16 476.4 1.08
1/13/2021 2:15:00 PM 3.52 38.336 0.394 7.16 175.1 0.97
1/13/2021 2:30:00 PM 3.46 38.228 0.397 7.15 143.9 0.73
1/13/2021 2:45:00 PM 3.47 38.246 0.394 7.15 108.4 0.4
1/13/2021 3:00:00 PM 3.52 38.336 0.394 7.14 82.64 0.22
1/13/2021 3:15:00 PM 3.61 38.498 0.394 7.14 178.4 0.93
1/13/2021 3:30:00 PM 3.62 38.516 0.396 7.15 206.9 2.37
1/13/2021 3:45:00 PM 3.6 38.48 0.395 7.14 368.2 1.41
1/13/2021 4:00:00 PM 3.61 38.498 0.398 7.14 256.9 2.3
1/13/2021 4:15:00 PM 3.54 38.372 0.394 7.15 209.8 1.74
1/13/2021 4:30:00 PM 3.56 38.408 0.395 7.14 216 1.54
1/13/2021 4:45:00 PM 3.55 38.39 0.397 7.14 220.7 0.84
1/13/2021 5:00:00 PM 3.56 38.408 0.396 7.14 224.8 0.46
1/13/2021 5:15:00 PM 3.56 38.408 0.396 7.14 229.7 0.24
1/13/2021 5:30:00 PM 3.62 38.516 0.398 7.13 232.4 0.13
1/13/2021 5:45:00 PM 3.59 38.462 0.399 7.13 237 0.08
1/13/2021 6:00:00 PM 3.57 38.426 0.397 7.13 240.9 0.07
1/13/2021 6:15:00 PM 3.58 38.444 0.397 7.12 244.1 0.07
1/13/2021 6:30:00 PM 3.59 38.462 0.399 7.12 247.9 0.07
1/13/2021 6:45:00 PM 3.56 38.408 0.398 7.12 250.8 0.07
1/13/2021 7:00:00 PM 3.57 38.426 0.396 7.12 254.2 0.07
1/13/2021 7:15:00 PM 3.58 38.444 0.398 7.11 256.8 0.07
1/13/2021 7:30:00 PM 3.53 38.354 0.4 7.11 258.4 0.07
1/13/2021 7:45:00 PM 3.55 38.39 0.397 7.1 259.4 0.07
1/13/2021 8:00:00 PM 3.55 38.39 0.397 7.11 260.5 0.07
1/13/2021 8:15:00 PM 3.55 38.39 0.398 7.1 261.2 0.07
1/13/2021 8:30:00 PM 3.57 38.426 0.397 7.1 262.1 0.07
1/13/2021 8:45:00 PM 3.58 38.444 0.397 7.1 263.4 0.07
1/13/2021 9:00:00 PM 3.55 38.39 0.398 7.1 264.7 0.07
1/13/2021 9:15:00 PM 3.56 38.408 0.396 7.1 265.4 0.07
1/13/2021 9:30:00 PM 3.55 38.39 0.396 7.09 266.3 0.07
1/13/2021 9:45:00 PM 3.55 38.39 0.396 7.1 267 0.07
1/13/2021 10:00:00 PM 3.58 38.444 0.396 7.1 267.4 0.07
1/13/2021 10:15:00 PM 3.59 38.462 0.395 7.1 267.8 0.07
1/13/2021 10:30:00 PM 3.59 38.462 0.399 7.1 268.6 0.07
1/13/2021 10:45:00 PM 3.57 38.426 0.399 7.09 269 0.07
1/13/2021 11:00:00 PM 3.57 38.426 0.396 7.09 268.5 0.07
1/13/2021 11:15:00 PM 3.6 38.48 0.396 7.11 268.6 0.07
1/13/2021 11:30:00 PM 3.6 38.48 0.396 7.11 262.1 0.07
1/13/2021 11:45:00 PM 3.6 38.48 0.397 7.1 264.9 0.07
1/14/2021 12:00:00 AM 3.62 38.516 0.395 7.11 265.7 0.07
1/14/2021 12:15:00 AM 3.62 38.516 0.395 7.1 266.1 0.07
1/14/2021 12:30:00 AM 3.63 38.534 0.396 7.11 266 0.07
1/14/2021 12:45:00 AM 3.67 38.606 0.4 7.11 266.1 0.07
1/14/2021 1:00:00 AM 3.68 38.624 0.4 7.09 265.9 0.07
1/14/2021 1:15:00 AM 3.69 38.642 0.399 7.1 265.7 0.07
1/14/2021 1:30:00 AM 3.67 38.606 0.399 7.1 265.5 0.07
1/14/2021 1:45:00 AM 3.69 38.642 0.397 7.09 265.2 0.07
1/14/2021 2:00:00 AM 3.69 38.642 0.398 7.1 264.6 0.07
1/14/2021 2:15:00 AM 3.7 38.66 0.4 7.1 264.5 0.07
1/14/2021 2:30:00 AM 3.7 38.66 0.4 7.09 264 0.07
1/14/2021 2:45:00 AM 3.71 38.678 0.397 7.1 263.9 0.07
1/14/2021 3:00:00 AM 3.73 38.714 0.396 7.1 263.5 0.07
1/14/2021 3:15:00 AM 3.76 38.768 0.398 7.09 263.4 0.07
1/14/2021 3:30:00 AM 3.78 38.804 0.399 7.09 263.2 0.07
1/14/2021 3:45:00 AM 3.74 38.732 0.403 7.09 262.1 0.07
1/14/2021 4:00:00 AM 3.75 38.75 0.405 7.08 262.4 0.07
1/14/2021 4:15:00 AM 3.73 38.714 0.403 7.08 262.4 0.07
1/14/2021 4:30:00 AM 3.75 38.75 0.403 7.09 262.3 0.07
1/14/2021 4:45:00 AM 3.74 38.732 0.404 7.07 266.1 0.07
1/14/2021 5:00:00 AM 3.76 38.768 0.401 7.08 268.4 0.07
1/14/2021 5:15:00 AM 3.78 38.804 0.403 7.09 273.8 0.07
1/14/2021 5:30:00 AM 3.74 38.732 0.401 7.08 271.5 0.07
1/14/2021 5:45:00 AM 3.78 38.804 0.4 7.09 271.6 0.07
1/14/2021 6:00:00 AM 3.75 38.75 0.401 7.08 270.4 0.07
1/14/2021 6:15:00 AM 3.76 38.768 0.4 7.08 269.5 0.06
1/14/2021 6:30:00 AM 3.76 38.768 0.401 7.08 263.6 0.07
1/14/2021 6:45:00 AM 3.78 38.804 0.404 7.07 267.1 0.06
1/14/2021 7:00:00 AM 3.72 38.696 0.404 7.07 263.7 0.07
1/14/2021 7:15:00 AM 3.71 38.678 0.402 7.08 266.7 0.06
1/14/2021 7:30:00 AM 3.72 38.696 0.402 7.08 266.3 0.07
1/14/2021 7:45:00 AM 3.74 38.732 0.404 7.07 266.2 0.07
1/14/2021 8:00:00 AM 3.72 38.696 0.405 7.08 266.6 0.07
1/14/2021 8:15:00 AM 3.74 38.732 0.405 7.08 266.4 0.07
1/14/2021 8:30:00 AM 3.78 38.804 0.409 7.08 266.7 0.07
1/14/2021 8:45:00 AM 3.77 38.786 0.409 7.08 267.6 0.07
1/14/2021 9:00:00 AM 3.77 38.786 0.407 7.09 268.1 0.07
1/14/2021 9:15:00 AM 3.75 38.75 0.406 7.08 267.8 0.07
1/14/2021 9:30:00 AM 3.74 38.732 0.404 7.09 268 0.07
1/14/2021 9:45:00 AM 3.73 38.714 0.405 7.09 268.1 0.07
1/14/2021 10:00:00 AM 3.74 38.732 0.403 7.1 268.4 0.06
1/14/2021 10:15:00 AM 3.73 38.714 0.405 7.1 268.1 0.07
1/14/2021 10:30:00 AM 3.74 38.732 0.403 7.1 267.3 0.07
1/14/2021 10:45:00 AM 3.75 38.75 0.401 7.1 266.9 0.07
1/14/2021 11:00:00 AM 3.76 38.768 0.403 7.09 266.5 0.07
1/14/2021 11:15:00 AM 3.76 38.768 0.405 7.1 270.9 0.07
1/14/2021 11:30:00 AM 3.78 38.804 0.405 7.1 271.7 0.06
1/14/2021 11:45:00 AM 3.78 38.804 0.404 7.09 271 0.07
1/14/2021 12:00:00 PM 3.79 38.822 0.405 7.09 271 0.06
1/14/2021 12:15:00 PM 3.8 38.84 0.403 7.09 270.4 0.07
1/14/2021 12:30:00 PM 3.77 38.786 0.4 7.1 269.9 0.07
1/14/2021 12:45:00 PM 3.8 38.84 0.402 7.1 269.4 0.07
1/14/2021 1:00:00 PM 3.83 38.894 0.401 7.1 269.3 0.07
1/14/2021 1:15:00 PM 3.88 38.984 0.406 7.1 270.3 0.07
1/14/2021 1:30:00 PM 3.88 38.984 0.406 7.09 272.4 0.07
1/14/2021 1:45:00 PM 3.9 39.02 0.403 7.11 270.3 0.07
1/14/2021 2:00:00 PM 3.92 39.056 0.404 7.11 271.1 0.06
1/14/2021 2:15:00 PM 3.94 39.092 0.403 7.11 270.5 0.07
1/14/2021 2:30:00 PM 3.96 39.128 0.402 7.11 269.7 0.06
1/14/2021 2:45:00 PM 3.98 39.164 0.401 7.12 268.8 0.06
1/14/2021 3:00:00 PM 3.99 39.182 0.4 7.12 268.3 0.07
1/14/2021 3:15:00 PM 4 39.2 0.401 7.12 266.3 0.06
1/14/2021 3:30:00 PM 4.02 39.236 0.4 7.12 265.1 0.06
1/14/2021 3:45:00 PM 4.03 39.254 0.401 7.11 264 0.06
1/14/2021 4:00:00 PM 4.04 39.272 0.402 7.1 263.3 0.06
1/14/2021 4:15:00 PM 4.05 39.29 0.401 7.1 263.5 0.07
1/14/2021 4:30:00 PM 4.05 39.29 0.401 7.1 263.6 0.06
1/14/2021 4:45:00 PM 4.07 39.326 0.4 7.11 263.8 0.06
1/14/2021 5:00:00 PM 4.07 39.326 0.401 7.11 263.4 0.07
1/14/2021 5:15:00 PM 4.07 39.326 0.4 7.11 263.8 0.06
1/14/2021 5:30:00 PM 4.08 39.344 0.401 7.09 263.3 0.07
1/14/2021 5:45:00 PM 4.09 39.362 0.401 7.08 262.7 0.06
1/14/2021 6:00:00 PM 4.09 39.362 0.401 7.09 261.9 0.07
1/14/2021 6:15:00 PM 4.09 39.362 0.401 7.1 261.7 0.07
1/14/2021 6:30:00 PM 4.08 39.344 0.402 7.09 260.1 0.07
1/14/2021 6:45:00 PM 4.09 39.362 0.402 7.09 260.9 0.06
1/14/2021 7:00:00 PM 4.08 39.344 0.403 7.07 260.9 0.07
1/14/2021 7:15:00 PM 4.08 39.344 0.402 7.07 260.3 0.07
1/14/2021 7:30:00 PM 4.08 39.344 0.402 7.07 261 0.06
1/14/2021 7:45:00 PM 4.1 39.38 0.402 7.07 260.9 0.06
1/14/2021 8:00:00 PM 4.09 39.362 0.403 7.07 260.6 0.06
1/14/2021 8:15:00 PM 4.1 39.38 0.403 7.07 260.3 0.06
1/14/2021 8:30:00 PM 4.1 39.38 0.404 7.07 262.1 0.06
1/14/2021 8:45:00 PM 4.11 39.398 0.403 7.07 259.3 0.06
1/14/2021 9:00:00 PM 4.11 39.398 0.404 7.07 259.6 0.07
1/14/2021 9:15:00 PM 4.13 39.434 0.404 7.08 260 0.07
1/14/2021 9:30:00 PM 4.12 39.416 0.405 7.09 259.4 0.06
1/14/2021 9:45:00 PM 4.12 39.416 0.371 7.09 260.1 0.06
1/14/2021 10:00:00 PM 4.13 39.434 0.402 7.07 269.4 0.06
1/14/2021 10:15:00 PM 4.14 39.452 0.404 7.08 263.6 0.06
1/14/2021 10:30:00 PM 4.15 39.47 0.402 7.09 262.9 0.07
1/14/2021 10:45:00 PM 4.16 39.488 0.402 7.08 262.6 0.06
1/14/2021 11:00:00 PM 4.16 39.488 0.402 7.09 263.5 0.07
1/14/2021 11:15:00 PM 4.17 39.506 0.403 7.09 262 0.06
1/14/2021 11:30:00 PM 4.2 39.56 0.402 7.08 262.8 0.06
1/14/2021 11:45:00 PM 4.21 39.578 0.4 7.09 262.1 0.06
1/15/2021 12:00:00 AM 4.21 39.578 0.401 7.1 262.4 0.06
1/15/2021 12:15:00 AM 4.23 39.614 0.401 7.12 262.1 0.06
1/15/2021 12:30:00 AM 4.24 39.632 0.401 7.11 263.5 0.07
1/15/2021 12:45:00 AM 4.25 39.65 0.401 7.11 262.7 0.06
1/15/2021 1:00:00 AM 4.26 39.668 0.401 7.11 262.9 0.06
1/15/2021 1:15:00 AM 4.27 39.686 0.401 7.12 261.9 0.07
1/15/2021 1:30:00 AM 4.27 39.686 0.401 7.11 262.2 0.06
1/15/2021 1:45:00 AM 4.27 39.686 0.402 7.1 261.9 0.06
1/15/2021 2:00:00 AM 4.28 39.704 0.402 7.11 261.7 0.06
1/15/2021 2:15:00 AM 4.28 39.704 0.403 7.1 261 0.06
1/15/2021 2:30:00 AM 4.28 39.704 0.402 7.09 261.6 0.06
1/15/2021 2:45:00 AM 4.28 39.704 0.402 7.1 261.9 0.06
1/15/2021 3:00:00 AM 4.31 39.758 0.402 7.1 261.8 0.06
1/15/2021 3:15:00 AM 4.31 39.758 0.406 7.09 261.6 0.06
1/15/2021 3:30:00 AM 4.29 39.722 0.405 7.08 261.6 0.06
1/15/2021 3:45:00 AM 4.3 39.74 0.403 7.09 261.8 0.06
1/15/2021 4:00:00 AM 4.3 39.74 0.405 7.08 261.2 0.06
1/15/2021 4:15:00 AM 4.34 39.812 0.407 7.08 261.3 0.06
1/15/2021 4:30:00 AM 4.31 39.758 0.407 7.07 260.6 0.06
1/15/2021 4:45:00 AM 4.31 39.758 0.402 7.06 260.7 0.06
1/15/2021 5:00:00 AM 4.31 39.758 0.403 7.07 260.4 0.06
1/15/2021 5:15:00 AM 4.3 39.74 0.401 7.07 261.4 0.06
1/15/2021 5:30:00 AM 4.28 39.704 0.401 7.07 260.2 0.06
1/15/2021 5:45:00 AM 4.28 39.704 0.401 7.07 261.3 0.07
1/15/2021 6:00:00 AM 4.28 39.704 0.401 7.07 261.8 0.06
1/15/2021 6:15:00 AM 4.29 39.722 0.403 7.06 261.9 0.06
1/15/2021 6:30:00 AM 4.27 39.686 0.404 7.07 261.5 0.06
1/15/2021 6:45:00 AM 4.26 39.668 0.406 7.07 261.7 0.06
1/15/2021 7:00:00 AM 4.23 39.614 0.403 7.07 261.9 0.06
1/15/2021 7:15:00 AM 4.24 39.632 0.401 7.07 263.1 0.07
1/15/2021 7:30:00 AM 4.22 39.596 0.403 7.08 263.4 0.06
1/15/2021 7:45:00 AM 4.24 39.632 0.403 7.08 263.5 0.06
1/15/2021 8:00:00 AM 4.23 39.614 0.403 7.05 263.3 0.06
1/15/2021 8:15:00 AM 4.22 39.596 0.403 7.05 265.3 0.06
1/15/2021 8:30:00 AM 4.2 39.56 0.401 7.06 265.6 0.06
1/15/2021 8:45:00 AM 4.22 39.596 0.403 7.07 265.4 0.06
1/15/2021 9:00:00 AM 4.23 39.614 0.403 7.05 266.1 0.06
1/15/2021 9:15:00 AM 4.2 39.56 0.402 7.05 265.7 0.07
1/15/2021 9:30:00 AM 4.19 39.542 0.402 7.06 268 0.06
1/15/2021 9:45:00 AM 4.18 39.524 0.403 7.05 266.3 0.06
1/15/2021 10:00:00 AM 4.18 39.524 0.401 7.05 266.4 0.06
1/15/2021 10:15:00 AM 4.18 39.524 0.402 7.06 265.4 0.06
1/15/2021 10:30:00 AM 4.18 39.524 0.402 7.07 267.3 0.06
1/15/2021 10:45:00 AM 4.19 39.542 0.403 7.04 269.9 0.06
1/15/2021 11:00:00 AM 3.9 39.02 0.002 6.91 350.7 3.29
1/15/2021 11:15:00 AM -100000 -179968 -100000 -100000 -100000 -100000
1/15/2021 11:45:00 AM 4.22 39.596 0.409 6.65 187.4 12
1/15/2021 12:00:00 PM 4.08 39.344 0.399 6.93 104.5 8.57
1/15/2021 12:15:00 PM 4.08 39.344 0.399 7.06 90.13 9.5
1/15/2021 12:30:00 PM 4.09 39.362 0.399 7.11 55.14 10.41
1/15/2021 12:45:00 PM 4.08 39.344 0.4 7.13 5.07 11.06
1/15/2021 1:00:00 PM 4.1 39.38 0.399 7.15 5.68 11.34
1/15/2021 1:15:00 PM 4.11 39.398 0.397 7.19 13.5 10.93
1/15/2021 1:30:00 PM 4.13 39.434 0.399 7.22 6.73 11.73
1/15/2021 1:45:00 PM 4.14 39.452 0.4 7.23 3.57 11.61
1/15/2021 2:00:00 PM 4.16 39.488 0.398 7.23 4.8 11.86
1/15/2021 2:15:00 PM 4.16 39.488 0.397 7.24 5.16 11.49
1/15/2021 2:30:00 PM 4.16 39.488 0.396 7.25 4.06 11.21
1/15/2021 2:45:00 PM 4.17 39.506 0.396 7.25 3.61 11.18
1/15/2021 3:00:00 PM 4.17 39.506 0.397 7.26 2.98 11.27
1/15/2021 3:15:00 PM 4.15 39.47 0.397 7.27 3.04 11.3
1/15/2021 3:30:00 PM 4.16 39.488 0.384 7.3 2.64 11.58
1/15/2021 3:45:00 PM 4.15 39.47 0.377 7.31 2.73 11.57
1/15/2021 4:00:00 PM 4.16 39.488 0.398 7.33 2.6 11.16
1/15/2021 4:15:00 PM 4.15 39.47 0.397 7.3 3.02 11.07
1/15/2021 4:30:00 PM 4.17 39.506 0.396 7.32 2.13 10.08
1/15/2021 4:45:00 PM 4.16 39.488 0.398 7.34 3.09 11.15
1/15/2021 5:00:00 PM 4.18 39.524 0.403 7.33 2.7 10.31
1/15/2021 5:15:00 PM 4.16 39.488 0.39 7.33 4.02 10.21
1/15/2021 5:30:00 PM 4.16 39.488 0.396 7.33 2.35 10.94
1/15/2021 5:45:00 PM 4.18 39.524 0.396 7.34 3.02 10.13
1/15/2021 6:00:00 PM 4.2 39.56 0.397 7.33 2.49 9.52
1/15/2021 6:15:00 PM 4.24 39.632 0.397 7.34 2.65 10.47
1/15/2021 6:30:00 PM 4.24 39.632 0.396 7.35 3.27 9.55
1/15/2021 6:45:00 PM 4.21 39.578 0.396 7.35 1.62 9.94
1/15/2021 7:00:00 PM 4.27 39.686 0.398 7.36 1.74 9.32
1/15/2021 7:15:00 PM 4.24 39.632 0.395 7.35 1.72 7.33
1/15/2021 7:30:00 PM 4.28 39.704 0.396 7.36 1.96 7.7
1/15/2021 7:45:00 PM 4.28 39.704 0.395 7.35 1.75 7.04
1/15/2021 8:00:00 PM 4.28 39.704 0.395 7.36 1.46 7.14
1/15/2021 8:15:00 PM 4.3 39.74 0.38 7.37 1.66 7.83
1/15/2021 8:30:00 PM 4.31 39.758 0.39 7.36 1.25 7.55
1/15/2021 8:45:00 PM 4.33 39.794 0.392 7.36 1.29 6.61
1/15/2021 9:00:00 PM 4.34 39.812 0.395 7.35 1.48 5.87
1/15/2021 9:15:00 PM 4.37 39.866 0.395 7.35 1.28 6.11
1/15/2021 9:30:00 PM 4.36 39.848 0.393 7.35 1.21 6.28
1/15/2021 9:45:00 PM 4.38 39.884 0.382 7.34 1.52 5.92
1/15/2021 10:00:00 PM 4.39 39.902 0.386 7.33 1.46 6.5
1/15/2021 10:15:00 PM 4.4 39.92 0.374 7.35 1.5 6.23
1/15/2021 10:30:00 PM 4.42 39.956 0.385 7.35 1.95 6.01
1/15/2021 10:45:00 PM 4.43 39.974 0.389 7.34 1.54 6.59
1/15/2021 11:00:00 PM 4.44 39.992 0.359 7.35 1.7 6.01
1/15/2021 11:15:00 PM 4.46 40.028 0.396 7.35 1.36 7.04
1/15/2021 11:30:00 PM 4.48 40.064 0.385 7.35 1.3 5.78
1/15/2021 11:45:00 PM 4.48 40.064 0.395 7.35 2.09 5.07
1/16/2021 12:00:00 AM 4.5 40.1 0.39 7.35 1.22 5.2
1/16/2021 12:15:00 AM 4.51 40.118 0.395 7.34 1.31 4.96
1/16/2021 12:30:00 AM 4.52 40.136 0.395 7.35 1.2 5.08
1/16/2021 12:45:00 AM 4.53 40.154 0.393 7.35 1.82 6.5
1/16/2021 1:00:00 AM 4.55 40.19 0.378 7.33 1.47 6.12
1/16/2021 1:15:00 AM 4.56 40.208 0.386 7.34 1.24 5.55
1/16/2021 1:30:00 AM 4.57 40.226 0.378 7.35 1.41 5.02
1/16/2021 1:45:00 AM 4.57 40.226 0.366 7.36 1.21 5.1
1/16/2021 2:00:00 AM 4.58 40.244 0.349 7.35 1.59 4.33
1/16/2021 2:15:00 AM 4.59 40.262 0.39 7.36 1.66 5.24
1/16/2021 2:30:00 AM 4.6 40.28 0.394 7.37 1.23 5.09
1/16/2021 2:45:00 AM 4.6 40.28 0.396 7.37 1.25 5.24
1/16/2021 3:00:00 AM 4.6 40.28 0.394 7.36 1.38 4.65
1/16/2021 3:15:00 AM 4.61 40.298 0.392 7.36 1.1 4.31
1/16/2021 3:30:00 AM 4.61 40.298 0.395 7.37 1.33 4.11
1/16/2021 3:45:00 AM 4.61 40.298 0.39 7.36 1.26 5.02
1/16/2021 4:00:00 AM 4.6 40.28 0.389 7.36 1.52 4.77
1/16/2021 4:15:00 AM 4.6 40.28 0.388 7.36 1.3 5.2
1/16/2021 4:30:00 AM 4.59 40.262 0.389 7.37 1.12 4.68
1/16/2021 4:45:00 AM 4.58 40.244 0.379 7.36 1.35 4.32
1/16/2021 5:00:00 AM 4.58 40.244 0.385 7.38 1.29 4.36
1/16/2021 5:15:00 AM 4.57 40.226 0.386 7.37 2.48 4.18
1/16/2021 5:30:00 AM 4.55 40.19 0.383 7.36 1.04 4.6
1/16/2021 5:45:00 AM 4.56 40.208 0.392 7.38 1.14 3.79
1/16/2021 6:00:00 AM 4.55 40.19 0.393 7.38 1.23 4.3
1/16/2021 6:15:00 AM 4.53 40.154 0.395 7.4 1.5 3.75
1/16/2021 6:30:00 AM 4.53 40.154 0.395 7.38 1.07 4.53
1/16/2021 6:45:00 AM 4.51 40.118 0.396 7.38 1.04 4.68
1/16/2021 7:00:00 AM 4.51 40.118 0.396 7.38 1.31 4.67
1/16/2021 7:15:00 AM 4.51 40.118 0.392 7.38 1.38 4.48
1/16/2021 7:30:00 AM 4.54 40.172 0.392 7.38 1.48 4.17
1/16/2021 7:45:00 AM 4.5 40.1 0.394 7.38 2.04 4.16
1/16/2021 8:00:00 AM 4.5 40.1 0.39 7.37 2.71 4.49
1/16/2021 8:15:00 AM 4.5 40.1 0.393 7.39 3.04 5.36
1/16/2021 8:30:00 AM 4.52 40.136 0.392 7.39 1.47 4.36
1/16/2021 8:45:00 AM 4.51 40.118 0.392 7.39 1.7 3.81
1/16/2021 9:00:00 AM 4.52 40.136 0.393 7.39 1.4 4.22
1/16/2021 9:15:00 AM 4.53 40.154 0.393 7.39 1.3 4.22
1/16/2021 9:30:00 AM 4.54 40.172 0.392 7.38 1.6 3.82
1/16/2021 9:45:00 AM 4.58 40.244 0.392 7.38 1.31 3.46
1/16/2021 10:00:00 AM 4.58 40.244 0.395 7.37 3.56 3.81
1/16/2021 10:15:00 AM 4.61 40.298 0.393 7.38 1.68 4.24
1/16/2021 10:30:00 AM 4.64 40.352 0.392 7.39 1.13 2.56
1/16/2021 10:45:00 AM 4.64 40.352 0.394 7.39 1.63 4.26
1/16/2021 11:00:00 AM 4.66 40.388 0.396 7.38 1.47 4.16
1/16/2021 11:15:00 AM 4.69 40.442 0.395 7.4 1.58 3.29
1/16/2021 11:30:00 AM 4.72 40.496 0.396 7.39 1.41 4.71
1/16/2021 11:45:00 AM 4.76 40.568 0.395 7.39 1.19 3.9
1/16/2021 12:00:00 PM 4.8 40.64 0.391 7.4 1.76 3.26
1/16/2021 12:15:00 PM 4.85 40.73 0.395 7.4 1.07 3.2
1/16/2021 12:30:00 PM 4.92 40.856 0.395 7.4 1.08 3.29
1/16/2021 12:45:00 PM 4.95 40.91 0.396 7.4 1.12 3.75
1/16/2021 1:00:00 PM 4.97 40.946 0.397 7.37 1.12 3.9
1/16/2021 1:15:00 PM 4.99 40.982 0.393 7.36 1.1 3.33
1/16/2021 1:30:00 PM 5.09 41.162 0.392 7.38 1.28 4.61
1/16/2021 1:45:00 PM 5.14 41.252 0.392 7.39 1.28 4.98
1/16/2021 2:00:00 PM 5.14 41.252 0.392 7.37 1.03 4.35
1/16/2021 2:15:00 PM 5.15 41.27 0.392 7.39 1.36 3.84
1/16/2021 2:30:00 PM 5.14 41.252 0.393 7.4 1.15 3.98
1/16/2021 2:45:00 PM 5.11 41.198 0.394 7.38 1.47 3.08
1/16/2021 3:00:00 PM 5.08 41.144 0.39 7.38 1.39 4.28
1/16/2021 3:15:00 PM 5.07 41.126 0.391 7.4 1.07 3.78
1/16/2021 3:30:00 PM 5.04 41.072 0.389 7.42 1.28 3.49
1/16/2021 3:45:00 PM 5.03 41.054 0.388 7.41 1.42 3.45
1/16/2021 4:00:00 PM 5.01 41.018 0.396 7.41 1.16 3.21
1/16/2021 4:15:00 PM 4.99 40.982 0.395 7.41 1.28 3.54
1/16/2021 4:30:00 PM 4.98 40.964 0.369 7.43 1.02 2.79
1/16/2021 4:45:00 PM 4.96 40.928 0.395 7.43 1.22 2.43
1/16/2021 5:00:00 PM 4.95 40.91 0.394 7.42 1.15 2.42
1/16/2021 5:15:00 PM 4.94 40.892 0.389 7.42 1.32 3.37
1/16/2021 5:30:00 PM 4.92 40.856 0.391 7.42 1.14 4.01
1/16/2021 5:45:00 PM 4.92 40.856 0.389 7.42 1.68 3.87
1/16/2021 6:00:00 PM 4.91 40.838 0.382 7.42 1.21 3.71
1/16/2021 6:15:00 PM 4.91 40.838 0.385 7.42 1.31 3.5
1/16/2021 6:30:00 PM 4.9 40.82 0.384 7.42 1.5 4.13
1/16/2021 6:45:00 PM 4.9 40.82 0.387 7.41 1.47 4.28
1/16/2021 7:00:00 PM 4.9 40.82 0.382 7.42 1.09 4.27
1/16/2021 7:15:00 PM 4.91 40.838 0.384 7.41 1.13 3.89
1/16/2021 7:30:00 PM 4.91 40.838 0.39 7.39 1.4 4.19
1/16/2021 7:45:00 PM 4.92 40.856 0.386 7.4 1.14 4.1
1/16/2021 8:00:00 PM 4.94 40.892 0.383 7.4 2.76 3.93
1/16/2021 8:15:00 PM 4.94 40.892 0.38 7.4 1.77 4.34
1/16/2021 8:30:00 PM 4.94 40.892 0.339 7.4 1.35 3.9
1/16/2021 8:45:00 PM 4.93 40.874 0.335 7.41 1.12 3.93
1/16/2021 9:00:00 PM 4.94 40.892 0.358 7.42 1.18 3.5
1/16/2021 9:15:00 PM 4.94 40.892 0.342 7.41 1.2 3.46
1/16/2021 9:30:00 PM 4.95 40.91 0.388 7.42 1.55 3.55
1/16/2021 9:45:00 PM 4.96 40.928 0.353 7.43 1.65 3.11
1/16/2021 10:00:00 PM 4.97 40.946 0.343 7.43 1.2 2.45
1/16/2021 10:15:00 PM 4.97 40.946 0.417 7.43 1.17 3.67
1/16/2021 10:30:00 PM 4.97 40.946 0.362 7.44 2.53 3.71
1/16/2021 10:45:00 PM 4.98 40.964 0.331 7.45 1.35 3.12
1/16/2021 11:00:00 PM 4.99 40.982 0.373 7.45 1.31 4.05
1/16/2021 11:15:00 PM 5.01 41.018 0.373 7.46 1.04 4.45
1/16/2021 11:30:00 PM 4.99 40.982 0.361 7.46 1.14 4.03
1/16/2021 11:45:00 PM 4.99 40.982 0.344 7.47 0.96 4.08
1/17/2021 12:00:00 AM 4.99 40.982 0.336 7.48 1.3 3.97
1/17/2021 12:15:00 AM 4.99 40.982 0.331 7.48 0.92 3.62
1/17/2021 12:30:00 AM 4.97 40.946 0.38 7.47 1.17 3.79
1/17/2021 12:45:00 AM 4.96 40.928 0.387 7.47 1.24 3.65
1/17/2021 1:00:00 AM 4.95 40.91 0.388 7.47 1.48 4.64
1/17/2021 1:15:00 AM 4.96 40.928 0.381 7.47 1.26 3.34
1/17/2021 1:30:00 AM 4.94 40.892 0.388 7.46 1.06 4.31
1/17/2021 1:45:00 AM 4.94 40.892 0.393 7.46 1.25 2.69
1/17/2021 2:00:00 AM 4.94 40.892 0.385 7.47 1.28 2.36
1/17/2021 2:15:00 AM 4.95 40.91 0.365 7.45 1.27 2.83
1/17/2021 2:30:00 AM 4.96 40.928 0.339 7.45 1.36 2.3
1/17/2021 2:45:00 AM 4.93 40.874 0.374 7.45 1.18 2.5
1/17/2021 3:00:00 AM 4.9 40.82 0.357 7.45 1.19 3.1
1/17/2021 3:15:00 AM 4.94 40.892 0.386 7.45 1.6 3.05
1/17/2021 3:30:00 AM 4.89 40.802 0.342 7.45 1.48 4.02
1/17/2021 3:45:00 AM 4.88 40.784 0.359 7.45 1.32 5.57
1/17/2021 4:00:00 AM 4.9 40.82 0.364 7.47 1.55 3.95
1/17/2021 4:15:00 AM 4.87 40.766 0.358 7.47 1.7 4.03
1/17/2021 4:30:00 AM 4.91 40.838 0.39 7.47 1.56 4.54
1/17/2021 4:45:00 AM 4.92 40.856 0.345 7.48 1.51 3.58
1/17/2021 5:00:00 AM 4.87 40.766 0.337 7.47 1.24 2.9
1/17/2021 5:15:00 AM 4.88 40.784 0.397 7.47 1.64 1.94
1/17/2021 5:30:00 AM 4.88 40.784 0.396 7.47 1.66 1.87
1/17/2021 5:45:00 AM 4.88 40.784 0.396 7.46 1.49 2.14
1/17/2021 6:00:00 AM 4.87 40.766 0.397 7.45 1.56 1.41
1/17/2021 6:15:00 AM 4.87 40.766 0.396 7.46 1.57 1.33
1/17/2021 6:30:00 AM 4.87 40.766 0.397 7.46 1.54 1.02
1/17/2021 6:45:00 AM 4.85 40.73 0.397 7.46 2.59 0.92
1/17/2021 7:00:00 AM 4.83 40.694 0.396 7.45 1.75 1.29
1/17/2021 7:15:00 AM 4.82 40.676 0.397 7.46 1.58 1.76
1/17/2021 7:30:00 AM 4.83 40.694 0.396 7.47 1.84 1.34
1/17/2021 7:45:00 AM 4.82 40.676 0.396 7.46 1.29 0.98
1/17/2021 8:00:00 AM 4.84 40.712 0.397 7.46 1.53 1.03
1/17/2021 8:15:00 AM 4.84 40.712 0.396 7.44 1.53 0.78
1/17/2021 8:30:00 AM 4.86 40.748 0.398 7.44 1.67 0.64
1/17/2021 8:45:00 AM 4.86 40.748 0.4 7.4 1.66 0.36
1/17/2021 9:00:00 AM 4.86 40.748 0.4 7.37 1.85 0.33
1/17/2021 9:15:00 AM 4.85 40.73 0.399 7.34 1.55 0.44
1/17/2021 9:30:00 AM 4.83 40.694 0.4 7.32 2.27 0.46
1/17/2021 9:45:00 AM 4.86 40.748 0.398 7.31 1.73 0.44
1/17/2021 10:00:00 AM 4.87 40.766 0.397 7.28 2.1 0.45
1/17/2021 10:15:00 AM 4.83 40.694 0.394 7.32 2.36 1.43
1/17/2021 10:30:00 AM 4.83 40.694 0.393 7.36 1.63 1
1/17/2021 10:45:00 AM 4.85 40.73 0.393 7.38 1.69 0.95
1/17/2021 11:00:00 AM 4.85 40.73 0.394 7.4 1.94 1.13
1/17/2021 11:15:00 AM 4.86 40.748 0.393 7.42 1.66 1.85
1/17/2021 11:30:00 AM 4.84 40.712 0.394 7.42 1.7 1.25
1/17/2021 11:45:00 AM 4.86 40.748 0.393 7.44 1.71 2.92
1/17/2021 12:00:00 PM 4.87 40.766 0.393 7.44 1.82 2.46
1/17/2021 12:15:00 PM 4.85 40.73 0.393 7.44 1.6 1.62
1/17/2021 12:30:00 PM 4.86 40.748 0.392 7.45 1.69 1.4
1/17/2021 12:45:00 PM 4.86 40.748 0.392 7.47 1.4 1.1
1/17/2021 1:00:00 PM 4.87 40.766 0.392 7.47 1.66 2.09
1/17/2021 1:15:00 PM 4.86 40.748 0.392 7.46 1.44 2.63
1/17/2021 1:30:00 PM 4.87 40.766 0.392 7.47 1.65 2.34
1/17/2021 1:45:00 PM 4.87 40.766 0.392 7.49 1.35 2.23
1/17/2021 2:00:00 PM 4.88 40.784 0.392 7.48 1.58 1.65
1/17/2021 2:15:00 PM 4.88 40.784 0.392 7.48 1.35 2.13
1/17/2021 2:30:00 PM 4.89 40.802 0.392 7.49 1.33 1.73
1/17/2021 2:45:00 PM 4.89 40.802 0.392 7.48 1.66 1.75
1/17/2021 3:00:00 PM 4.9 40.82 0.392 7.49 1.39 1.8
1/17/2021 3:15:00 PM 4.89 40.802 0.392 7.49 1.4 2.77
1/17/2021 3:30:00 PM 4.93 40.874 0.392 7.49 1.48 2.91
1/17/2021 3:45:00 PM 4.92 40.856 0.392 7.49 1.72 3.02
1/17/2021 4:00:00 PM 4.95 40.91 0.391 7.5 1.38 1.15
1/17/2021 4:15:00 PM 4.93 40.874 0.391 7.51 1.87 0.94
1/17/2021 4:30:00 PM 4.93 40.874 0.391 7.51 1.54 1.58
1/17/2021 4:45:00 PM 4.91 40.838 0.391 7.5 1.69 0.85
1/17/2021 5:00:00 PM 4.92 40.856 0.391 7.49 1.4 1.22
1/17/2021 5:15:00 PM 4.93 40.874 0.39 7.49 1.29 1.15
1/17/2021 5:30:00 PM 4.91 40.838 0.39 7.5 1.58 1.33
1/17/2021 5:45:00 PM 4.89 40.802 0.39 7.5 1.86 1.62
1/17/2021 6:00:00 PM 4.88 40.784 0.39 7.5 1.81 1.44
1/17/2021 6:15:00 PM 4.87 40.766 0.39 7.5 1.61 1.5
1/17/2021 6:30:00 PM 4.85 40.73 0.39 7.5 1.82 1.59
1/17/2021 6:45:00 PM 4.88 40.784 0.391 7.49 1.69 1.74
1/17/2021 7:00:00 PM 4.89 40.802 0.391 7.49 2.43 0.96
1/17/2021 7:15:00 PM 4.87 40.766 0.392 7.48 1.57 0.75
1/17/2021 7:30:00 PM 4.89 40.802 0.391 7.47 1.53 0.71
1/17/2021 7:45:00 PM 4.89 40.802 0.392 7.45 1.97 0.85
1/17/2021 8:00:00 PM 4.89 40.802 0.39 7.46 1.45 0.78
1/17/2021 8:15:00 PM 4.9 40.82 0.393 7.44 1.65 0.7
1/17/2021 8:30:00 PM 4.88 40.784 0.393 7.43 1.72 1.09
1/17/2021 8:45:00 PM 4.89 40.802 0.393 7.43 1.42 0.76
1/17/2021 9:00:00 PM 4.91 40.838 0.392 7.43 1.53 1.07
1/17/2021 9:15:00 PM 4.9 40.82 0.393 7.44 1.52 0.75
1/17/2021 9:30:00 PM 4.9 40.82 0.395 7.39 1.25 0.47
1/17/2021 9:45:00 PM 4.91 40.838 0.38 7.4 1.52 0.43
1/17/2021 10:00:00 PM 4.93 40.874 0.393 7.41 1.26 0.46
1/17/2021 10:15:00 PM 4.94 40.892 0.393 7.41 1.45 0.42
1/17/2021 10:30:00 PM 4.92 40.856 0.393 7.4 1.48 0.44
1/17/2021 10:45:00 PM 4.93 40.874 0.395 7.39 1.61 0.31
1/17/2021 11:00:00 PM 4.93 40.874 0.394 7.39 1.53 0.31
1/17/2021 11:15:00 PM 4.93 40.874 0.394 7.4 1.52 0.33
1/17/2021 11:30:00 PM 4.93 40.874 0.393 7.41 2.53 0.35
1/17/2021 11:45:00 PM 4.93 40.874 0.393 7.42 1.82 0.37
1/18/2021 12:00:00 AM 4.92 40.856 0.397 7.4 1.46 0.45
1/18/2021 12:15:00 AM 4.93 40.874 0.394 7.39 1.55 0.97
1/18/2021 12:30:00 AM 4.9 40.82 0.393 7.41 1.61 0.62
1/18/2021 12:45:00 AM 4.91 40.838 0.393 7.43 1.58 1.06
1/18/2021 1:00:00 AM 4.91 40.838 0.394 7.42 1.42 1.13
1/18/2021 1:15:00 AM 4.93 40.874 0.393 7.44 1.47 1.4
1/18/2021 1:30:00 AM 4.93 40.874 0.393 7.45 1.39 2.02
1/18/2021 1:45:00 AM 4.91 40.838 0.393 7.47 1.4 1.38
1/18/2021 2:00:00 AM 4.92 40.856 0.393 7.48 1.36 0.95
1/18/2021 2:15:00 AM 4.93 40.874 0.393 7.48 1.6 1.52
1/18/2021 2:30:00 AM 4.93 40.874 0.394 7.44 1.77 1.3
1/18/2021 2:45:00 AM 4.93 40.874 0.393 7.45 2.83 1.13
1/18/2021 3:00:00 AM 4.9 40.82 0.393 7.48 2.51 1.46
1/18/2021 3:15:00 AM 4.92 40.856 0.393 7.5 2.29 1.89
1/18/2021 3:30:00 AM 4.88 40.784 0.393 7.51 1.73 1.4
1/18/2021 3:45:00 AM 4.89 40.802 0.393 7.52 1.53 1.91
1/18/2021 4:00:00 AM 4.86 40.748 0.393 7.53 3.37 2.68
1/18/2021 4:15:00 AM 4.88 40.784 0.392 7.55 1.74 2.19
1/18/2021 4:30:00 AM 4.82 40.676 0.392 7.54 1.83 2.74
1/18/2021 4:45:00 AM 4.78 40.604 0.393 7.55 1.52 1.99
1/18/2021 5:00:00 AM 4.84 40.712 0.392 7.55 1.45 2.26
1/18/2021 5:15:00 AM 4.8 40.64 0.392 7.55 1.34 2.54
1/18/2021 5:30:00 AM 4.77 40.586 0.392 7.55 1.31 2.11
1/18/2021 5:45:00 AM 4.78 40.604 0.392 7.54 1.41 1.97
1/18/2021 6:00:00 AM 4.78 40.604 0.392 7.55 1.31 1.56
1/18/2021 6:15:00 AM 4.76 40.568 0.392 7.56 1.22 2.11
1/18/2021 6:30:00 AM 4.75 40.55 0.392 7.55 1.5 1.76
1/18/2021 6:45:00 AM 4.75 40.55 0.392 7.55 1.43 2.29
1/18/2021 7:00:00 AM 4.73 40.514 0.392 7.55 1.39 2
1/18/2021 7:15:00 AM 4.7 40.46 0.392 7.54 1.23 1.81
1/18/2021 7:30:00 AM 4.73 40.514 0.392 7.55 1.16 2.03
1/18/2021 7:45:00 AM 4.72 40.496 0.392 7.55 1.51 1.78
1/18/2021 8:00:00 AM 4.69 40.442 0.392 7.56 1.23 1.97
1/18/2021 8:15:00 AM 4.72 40.496 0.392 7.55 1.25 2.44
1/18/2021 8:30:00 AM 4.75 40.55 0.391 7.55 1.38 3.16
1/18/2021 8:45:00 AM 4.7 40.46 0.392 7.54 1.39 3.99
1/18/2021 9:00:00 AM 4.7 40.46 0.392 7.55 1.27 5.49
1/18/2021 9:15:00 AM 4.68 40.424 0.392 7.55 1.22 5.04
1/18/2021 9:30:00 AM 4.71 40.478 0.391 7.56 1.62 4.79
1/18/2021 9:45:00 AM 4.67 40.406 0.392 7.56 1.28 5.43
1/18/2021 10:00:00 AM 4.69 40.442 0.392 7.56 1.27 4.95
1/18/2021 10:15:00 AM 4.68 40.424 0.392 7.55 1.07 4.43
1/18/2021 10:30:00 AM 4.74 40.532 0.392 7.55 1.3 3.65
1/18/2021 10:45:00 AM 4.76 40.568 0.391 7.55 1.24 3.6
1/18/2021 11:00:00 AM 4.75 40.55 0.392 7.56 1.02 3.58
1/18/2021 11:15:00 AM 4.79 40.622 0.391 7.56 1 3.85
1/18/2021 11:30:00 AM 4.8 40.64 0.391 7.56 1.3 3.77
1/18/2021 11:45:00 AM 4.85 40.73 0.391 7.55 1.51 3.56
1/18/2021 12:00:00 PM 4.83 40.694 0.391 7.56 1.37 3.8
1/18/2021 12:15:00 PM 4.87 40.766 0.39 7.56 1.38 3.79
1/18/2021 12:30:00 PM 4.85 40.73 0.391 7.56 1.25 2.83
1/18/2021 12:45:00 PM 4.88 40.784 0.39 7.56 1.18 3.66
1/18/2021 1:00:00 PM 4.9 40.82 0.39 7.55 1.29 5.88
1/18/2021 1:15:00 PM 4.93 40.874 0.39 7.56 1.24 3.39
1/18/2021 1:30:00 PM 4.95 40.91 0.39 7.56 1.19 6.13
1/18/2021 1:45:00 PM 4.98 40.964 0.391 7.55 1.25 4.09
1/18/2021 2:00:00 PM 5.01 41.018 0.39 7.55 1.35 5.7
1/18/2021 2:15:00 PM 5.03 41.054 0.39 7.55 1.24 6.27
1/18/2021 2:30:00 PM 5.03 41.054 0.39 7.55 1.08 6.91
1/18/2021 2:45:00 PM 5.05 41.09 0.39 7.54 1.22 5.97
1/18/2021 3:00:00 PM 5.08 41.144 0.39 7.55 1.79 7.78
1/18/2021 3:15:00 PM 5.06 41.108 0.39 7.55 1.54 8.04
1/18/2021 3:30:00 PM 5.04 41.072 0.389 7.55 1.31 7.36
1/18/2021 3:45:00 PM 5.02 41.036 0.389 7.56 2.33 7.49
1/18/2021 4:00:00 PM 4.99 40.982 0.389 7.55 1.19 6.76
1/18/2021 4:15:00 PM 4.98 40.964 0.388 7.55 1.24 6.7
1/18/2021 4:30:00 PM 4.92 40.856 0.388 7.54 1.21 7.26
1/18/2021 4:45:00 PM 4.93 40.874 0.388 7.56 1.5 6.29
1/18/2021 5:00:00 PM 4.87 40.766 0.388 7.56 1.28 3.15
1/18/2021 5:15:00 PM 4.89 40.802 0.387 7.56 1.97 4.1
1/18/2021 5:30:00 PM 4.89 40.802 0.387 7.56 1.25 4.13
1/18/2021 5:45:00 PM 4.83 40.694 0.387 7.56 1.51 6.68
1/18/2021 6:00:00 PM 4.78 40.604 0.387 7.55 1.33 7.07
1/18/2021 6:15:00 PM 4.83 40.694 0.386 7.55 1.33 4.89
1/18/2021 6:30:00 PM 4.78 40.604 0.387 7.54 1.23 5.58
1/18/2021 6:45:00 PM 4.76 40.568 0.386 7.54 2.1 6.24
1/18/2021 7:00:00 PM 4.73 40.514 0.387 7.54 1.26 5.62
1/18/2021 7:15:00 PM 4.69 40.442 0.387 7.53 1.22 4.72
1/18/2021 7:30:00 PM 4.71 40.478 0.387 7.53 1.25 3.26
1/18/2021 7:45:00 PM 4.72 40.496 0.387 7.53 1.24 5.66
1/18/2021 8:00:00 PM 4.69 40.442 0.387 7.53 1.38 6.06
1/18/2021 8:15:00 PM 4.72 40.496 0.386 7.53 1.62 7.9
1/18/2021 8:30:00 PM 4.69 40.442 0.387 7.53 1.54 7.12
1/18/2021 8:45:00 PM 4.74 40.532 0.386 7.53 2.08 5.13
1/18/2021 9:00:00 PM 4.68 40.424 0.387 7.53 1.56 6.17
1/18/2021 9:15:00 PM 4.69 40.442 0.387 7.55 1.57 5.94
1/18/2021 9:30:00 PM 4.79 40.622 0.387 7.55 1.72 3.47
1/18/2021 9:45:00 PM 4.75 40.55 0.387 7.54 1.17 3.21
1/18/2021 10:00:00 PM 4.79 40.622 0.387 7.55 1.26 2.48
1/18/2021 10:15:00 PM 4.79 40.622 0.387 7.55 1.24 4
1/18/2021 10:30:00 PM 4.78 40.604 0.387 7.56 1.27 5.23
1/18/2021 10:45:00 PM 4.76 40.568 0.387 7.55 1.25 4.12
1/18/2021 11:00:00 PM 4.77 40.586 0.387 7.55 1.23 3.17
1/18/2021 11:15:00 PM 4.85 40.73 0.386 7.55 2.6 2.92
1/18/2021 11:30:00 PM 4.83 40.694 0.387 7.56 1.42 1.95
1/18/2021 11:45:00 PM 4.85 40.73 0.387 7.56 1.13 2.21
1/19/2021 12:00:00 AM 4.84 40.712 0.387 7.56 1.46 2.52
1/19/2021 12:15:00 AM 4.89 40.802 0.387 7.57 1.28 1.47
1/19/2021 12:30:00 AM 4.84 40.712 0.387 7.57 1.35 1.72
1/19/2021 12:45:00 AM 4.85 40.73 0.387 7.57 1.27 4.38
1/19/2021 1:00:00 AM 4.84 40.712 0.387 7.57 1.32 2.71
1/19/2021 1:15:00 AM 4.91 40.838 0.386 7.57 1.37 1.52
1/19/2021 1:30:00 AM 4.87 40.766 0.387 7.57 1.22 3.79
1/19/2021 1:45:00 AM 4.88 40.784 0.387 7.57 3.33 2.87
1/19/2021 2:00:00 AM 4.86 40.748 0.387 7.58 1.19 3.44
1/19/2021 2:15:00 AM 4.85 40.73 0.387 7.58 1.67 2.53
1/19/2021 2:30:00 AM 4.82 40.676 0.387 7.57 11.42 3.35
1/19/2021 2:45:00 AM 4.82 40.676 0.387 7.57 1.38 4.17
1/19/2021 3:00:00 AM 4.79 40.622 0.387 7.58 1.31 4.34
1/19/2021 3:15:00 AM 4.76 40.568 0.388 7.57 1.4 4.51
1/19/2021 3:30:00 AM 4.75 40.55 0.387 7.58 1.4 4.05
1/19/2021 3:45:00 AM 4.78 40.604 0.387 7.58 1.5 5.61
1/19/2021 4:00:00 AM 4.76 40.568 0.387 7.58 1.42 5.66
1/19/2021 4:15:00 AM 4.71 40.478 0.388 7.57 1.43 6.42
1/19/2021 4:30:00 AM 4.76 40.568 0.387 7.57 1.28 7.24
1/19/2021 4:45:00 AM 4.72 40.496 0.387 7.58 1.25 7.34
1/19/2021 5:00:00 AM 4.65 40.37 0.387 7.58 1.18 7.92
1/19/2021 5:15:00 AM 4.64 40.352 0.387 7.57 1.34 7.46
1/19/2021 5:30:00 AM 4.66 40.388 0.387 7.57 1.24 7.42
1/19/2021 5:45:00 AM 4.59 40.262 0.388 7.56 1.32 7.92
1/19/2021 6:00:00 AM 4.6 40.28 0.387 7.55 1.33 8.03
1/19/2021 6:15:00 AM 4.57 40.226 0.387 7.55 1.16 7.4
1/19/2021 6:30:00 AM 4.6 40.28 0.386 7.54 1.04 6.88
1/19/2021 6:45:00 AM 4.55 40.19 0.387 7.54 1.41 7.02
1/19/2021 7:00:00 AM 4.53 40.154 0.387 7.55 1.31 7.08
1/19/2021 7:15:00 AM 4.52 40.136 0.387 7.54 1.13 6.51
1/19/2021 7:30:00 AM 4.56 40.208 0.386 7.54 2.04 7.66
1/19/2021 7:45:00 AM 4.45 40.01 0.387 7.53 1.17 7.78
1/19/2021 8:00:00 AM 4.43 39.974 0.388 7.54 1.64 7.94
1/19/2021 8:15:00 AM 4.44 39.992 0.387 7.54 1.23 7.38
1/19/2021 8:30:00 AM 4.48 40.064 0.387 7.53 1.13 6.67
1/19/2021 8:45:00 AM 4.45 40.01 0.388 7.54 1.24 7.23
1/19/2021 9:00:00 AM 4.44 39.992 0.388 7.53 1.3 7.51
1/19/2021 9:15:00 AM 4.42 39.956 0.388 7.53 1.1 7.95
1/19/2021 9:30:00 AM 4.42 39.956 0.388 7.52 1.09 7.76
1/19/2021 9:45:00 AM 4.45 40.01 0.387 7.53 1.25 7.79
1/19/2021 10:00:00 AM 4.46 40.028 0.388 7.53 1.17 7.28
1/19/2021 10:15:00 AM 4.5 40.1 0.388 7.54 1.35 6.29
1/19/2021 10:30:00 AM 4.49 40.082 0.388 7.53 1.23 7.4
1/19/2021 10:45:00 AM 4.55 40.19 0.388 7.54 1.4 7.05
1/19/2021 11:00:00 AM 4.52 40.136 0.389 7.54 1.21 8.47
1/19/2021 11:15:00 AM 4.51 40.118 0.389 7.53 1.16 9.2
1/19/2021 11:30:00 AM 4.56 40.208 0.389 7.53 1.06 8.62
1/19/2021 11:45:00 AM 4.59 40.262 0.389 7.53 1.32 8.77
1/19/2021 12:00:00 PM 4.57 40.226 0.39 7.53 1.19 9.71
1/19/2021 12:15:00 PM 4.65 40.37 0.389 7.54 1.11 9.59
1/19/2021 12:30:00 PM 4.73 40.514 0.389 7.54 1.24 9.33
1/19/2021 12:45:00 PM 4.8 40.64 0.39 7.54 2.19 9.44
1/19/2021 1:00:00 PM 4.87 40.766 0.39 7.54 1.6 9.03
1/19/2021 1:15:00 PM 4.96 40.928 0.39 7.54 17.53 8.93
1/19/2021 1:30:00 PM 5.02 41.036 0.391 7.53 10.17 8.07
1/19/2021 1:45:00 PM 5.11 41.198 0.393 7.53 1.34 10.5
1/19/2021 2:00:00 PM 5.15 41.27 0.391 7.53 1.42 9.62
1/19/2021 2:15:00 PM 5.18 41.324 0.391 7.53 2.14 9.81
1/19/2021 2:30:00 PM 5.19 41.342 0.391 7.54 2.13 9.51
1/19/2021 2:45:00 PM 5.18 41.324 0.392 7.53 2.81 9.81
1/19/2021 3:00:00 PM 5.17 41.306 0.392 7.54 1.74 9.36
1/19/2021 3:15:00 PM 5.13 41.234 0.392 7.54 2.02 9.1
1/19/2021 3:30:00 PM 5.06 41.108 0.392 7.54 2 9.3
1/19/2021 3:45:00 PM 5.01 41.018 0.392 7.54 1.67 9.46
1/19/2021 4:00:00 PM 4.98 40.964 0.391 7.54 2.1 9.17
1/19/2021 4:15:00 PM 4.91 40.838 0.391 7.52 1.64 9.81
1/19/2021 4:30:00 PM 4.86 40.748 0.391 7.54 1.34 9.52
1/19/2021 4:45:00 PM 4.78 40.604 0.391 7.54 1.89 9.79
1/19/2021 5:00:00 PM 4.7 40.46 0.392 7.53 3.42 9.91
1/19/2021 5:15:00 PM 4.64 40.352 0.392 7.53 5.31 10.06
1/19/2021 5:30:00 PM 4.63 40.334 0.392 7.52 2.73 10.07
1/19/2021 5:45:00 PM 4.59 40.262 0.392 7.53 1.53 10.15
1/19/2021 6:00:00 PM 4.58 40.244 0.392 7.52 1.31 10.06
1/19/2021 6:15:00 PM 4.54 40.172 0.392 7.52 1.76 10.19
1/19/2021 6:30:00 PM 4.51 40.118 0.393 7.52 1.37 9.91
1/19/2021 6:45:00 PM 4.47 40.046 0.393 7.52 1.64 10.09
1/19/2021 7:00:00 PM 4.47 40.046 0.393 7.51 1.29 9.94
1/19/2021 7:15:00 PM 4.47 40.046 0.393 7.51 1.33 10.19
1/19/2021 7:30:00 PM 4.44 39.992 0.393 7.52 1.33 9.94
1/19/2021 7:45:00 PM 4.47 40.046 0.393 7.51 1.49 10.26
1/19/2021 8:00:00 PM 4.44 39.992 0.393 7.52 2.45 10.2
1/19/2021 8:15:00 PM 4.46 40.028 0.393 7.51 2.87 9.9
1/19/2021 8:30:00 PM 4.43 39.974 0.394 7.51 2.96 10.16
1/19/2021 8:45:00 PM 4.43 39.974 0.394 7.5 1.12 10.16
1/19/2021 9:00:00 PM 4.45 40.01 0.394 7.5 1.15 10.22
1/19/2021 9:15:00 PM 4.42 39.956 0.395 7.5 1.97 10.08
1/19/2021 9:30:00 PM 4.4 39.92 0.396 7.51 1.36 10.41
1/19/2021 9:45:00 PM 4.43 39.974 0.396 7.49 1.16 10.21
1/19/2021 10:00:00 PM 4.44 39.992 0.396 7.51 1.07 10.25
1/19/2021 10:15:00 PM 4.41 39.938 0.397 7.51 1.05 9.88
1/19/2021 10:30:00 PM 4.45 40.01 0.396 7.51 1.83 10
1/19/2021 10:45:00 PM 4.43 39.974 0.397 7.51 1.43 10.4
1/19/2021 11:00:00 PM 4.46 40.028 0.397 7.52 1.4 10.13
1/19/2021 11:15:00 PM 4.45 40.01 0.397 7.52 1.23 9.78
1/19/2021 11:30:00 PM 4.46 40.028 0.397 7.51 1.33 9.98
1/19/2021 11:45:00 PM 4.48 40.064 0.397 7.52 1.13 9.84
1/20/2021 12:00:00 AM 4.5 40.1 0.397 7.53 1.55 9.78
1/20/2021 12:15:00 AM 4.57 40.226 0.397 7.52 1.37 9.47
1/20/2021 12:30:00 AM 4.52 40.136 0.398 7.53 1.38 9.63
1/20/2021 12:45:00 AM 4.54 40.172 0.398 7.52 1.54 9.63
1/20/2021 1:00:00 AM 4.55 40.19 0.398 7.52 1.79 9.66
1/20/2021 1:15:00 AM 4.56 40.208 0.398 7.53 1.3 9.92
1/20/2021 1:30:00 AM 4.52 40.136 0.399 7.53 1.06 10.07
1/20/2021 1:45:00 AM 4.53 40.154 0.399 7.53 1.34 9.92
1/20/2021 2:00:00 AM 4.54 40.172 0.399 7.52 2.09 9.63
1/20/2021 2:15:00 AM 4.54 40.172 0.399 7.52 1.47 10
1/20/2021 2:30:00 AM 4.53 40.154 0.399 7.52 1 10.02
1/20/2021 2:45:00 AM 4.55 40.19 0.399 7.52 1.26 9.69
1/20/2021 3:00:00 AM 4.57 40.226 0.399 7.53 1.3 9.88
1/20/2021 3:15:00 AM 4.57 40.226 0.399 7.53 1.2 9.94
1/20/2021 3:30:00 AM 4.52 40.136 0.4 7.53 1.02 9.89
1/20/2021 3:45:00 AM 4.52 40.136 0.4 7.53 1.23 10.07
1/20/2021 4:00:00 AM 4.54 40.172 0.4 7.53 1.09 9.92
1/20/2021 4:15:00 AM 4.52 40.136 0.4 7.54 1.4 10.04
1/20/2021 4:30:00 AM 4.45 40.01 0.401 7.53 1.18 9.87
1/20/2021 4:45:00 AM 4.45 40.01 0.401 7.53 1.21 9.92
1/20/2021 5:00:00 AM 4.44 39.992 0.401 7.52 1.19 9.48
1/20/2021 5:15:00 AM 4.43 39.974 0.401 7.52 1.11 9.51
1/20/2021 5:30:00 AM 4.45 40.01 0.4 7.52 1.18 9.3
1/20/2021 5:45:00 AM 4.45 40.01 0.4 7.51 1.13 9.41
1/20/2021 6:00:00 AM 4.38 39.884 0.401 7.49 1.08 9.64
1/20/2021 6:15:00 AM 4.33 39.794 0.401 7.51 1.23 9.65
1/20/2021 6:30:00 AM 4.34 39.812 0.401 7.51 1.3 9.63
1/20/2021 6:45:00 AM 4.31 39.758 0.401 7.51 1.05 9.82
1/20/2021 7:00:00 AM 4.27 39.686 0.402 7.51 1.31 9.71
1/20/2021 7:15:00 AM 4.24 39.632 0.402 7.5 1.04 9.48
1/20/2021 7:30:00 AM 4.23 39.614 0.402 7.5 1.16 9.22
1/20/2021 7:45:00 AM 4.23 39.614 0.401 7.5 1.14 9.28
1/20/2021 8:00:00 AM 4.16 39.488 0.402 7.5 1 9.95
1/20/2021 8:15:00 AM 4.15 39.47 0.402 7.5 2.46 9.39
1/20/2021 8:30:00 AM 4.15 39.47 0.402 7.5 1.15 9.79
1/20/2021 8:45:00 AM 4.2 39.56 0.401 7.5 1.14 9.84
1/20/2021 9:00:00 AM 4.12 39.416 0.402 7.5 1.1 9.6
1/20/2021 9:15:00 AM 4.08 39.344 0.402 7.5 1.22 9.99
1/20/2021 9:30:00 AM 4.07 39.326 0.402 7.5 1.39 10.07
1/20/2021 9:45:00 AM 4.07 39.326 0.402 7.5 1.03 9.83
1/20/2021 10:00:00 AM 4.09 39.362 0.402 7.5 1.03 10.02
1/20/2021 10:15:00 AM 4.13 39.434 0.402 7.51 1.05 9.77
1/20/2021 10:30:00 AM 4.17 39.506 0.402 7.51 1.44 9.96
1/20/2021 10:45:00 AM 4.21 39.578 0.402 7.51 1.22 10.25
1/20/2021 11:00:00 AM 4.19 39.542 0.403 7.51 1.14 10.31
1/20/2021 11:15:00 AM 4.18 39.524 0.403 7.51 1.14 10.13
1/20/2021 11:30:00 AM 4.22 39.596 0.403 7.52 1.25 10.33
1/20/2021 11:45:00 AM 4.12 39.416 0.404 7.52 1.01 10.26
1/20/2021 12:00:00 PM 4.16 39.488 0.404 7.53 1.15 10.53
1/20/2021 12:15:00 PM 4.28 39.704 0.403 7.52 1.04 10.25
1/20/2021 12:30:00 PM 4.28 39.704 0.404 7.53 1.01 9.86
1/20/2021 12:45:00 PM 4.4 39.92 0.404 7.53 1.01 9.78
1/20/2021 1:00:00 PM 4.5 40.1 0.404 7.54 0.9 9.82
1/20/2021 1:15:00 PM 4.61 40.298 0.405 7.53 1.37 9.96
1/20/2021 1:30:00 PM 4.72 40.496 0.405 7.53 1.26 9.91
1/20/2021 1:45:00 PM 4.74 40.532 0.406 7.55 1.11 9.64
1/20/2021 2:00:00 PM 4.7 40.46 0.406 7.55 1.16 9.18
1/20/2021 2:15:00 PM 4.67 40.406 0.406 7.54 1.21 9.96
1/20/2021 2:30:00 PM 4.66 40.388 0.406 7.54 1.57 9.93
1/20/2021 2:45:00 PM 4.62 40.316 0.406 7.55 1.27 10.22
1/20/2021 3:00:00 PM 4.59 40.262 0.406 7.55 1.93 10.22
1/20/2021 3:15:00 PM 4.56 40.208 0.406 7.54 1.12 10.04
1/20/2021 3:30:00 PM 4.5 40.1 0.406 7.56 1.38 9.98
1/20/2021 3:45:00 PM 4.42 39.956 0.406 7.55 1.1 9.93
1/20/2021 4:00:00 PM 4.35 39.83 0.406 7.57 1.13 10.27
1/20/2021 4:15:00 PM 4.32 39.776 0.405 7.56 1.17 9.94
1/20/2021 4:30:00 PM 4.21 39.578 0.406 7.57 1.14 9.96
1/20/2021 4:45:00 PM 4.15 39.47 0.406 7.57 1.28 10.28
1/20/2021 5:00:00 PM 4.09 39.362 0.406 7.57 1.33 9.9
1/20/2021 5:15:00 PM 4.04 39.272 0.406 7.56 1.21 9.95
1/20/2021 5:30:00 PM 3.98 39.164 0.407 7.55 1.12 10.15
1/20/2021 5:45:00 PM 4 39.2 0.406 7.54 1.13 9.58
1/20/2021 6:00:00 PM 3.9 39.02 0.407 7.54 1 9.43
1/20/2021 6:15:00 PM 3.89 39.002 0.407 7.55 1.32 9.73
1/20/2021 6:30:00 PM 3.88 38.984 0.407 7.55 1.12 9.57
1/20/2021 6:45:00 PM 3.82 38.876 0.408 7.55 1.18 9.46
1/20/2021 7:00:00 PM 3.82 38.876 0.408 7.54 1.11 9.63
1/20/2021 7:15:00 PM 3.81 38.858 0.407 7.54 1.13 9.6
1/20/2021 7:30:00 PM 3.77 38.786 0.407 7.53 1.12 9.01
1/20/2021 7:45:00 PM 3.73 38.714 0.408 7.54 1.22 9.44
1/20/2021 8:00:00 PM 3.74 38.732 0.407 7.53 2.25 9.11
1/20/2021 8:15:00 PM 3.75 38.75 0.407 7.53 1 8.76
1/20/2021 8:30:00 PM 3.74 38.732 0.408 7.53 1.02 8.77
1/20/2021 8:45:00 PM 3.74 38.732 0.408 7.53 1.2 9.36
1/20/2021 9:00:00 PM 3.71 38.678 0.409 7.54 1.12 9.24
1/20/2021 9:15:00 PM 3.69 38.642 0.41 7.54 1.81 9.58
1/20/2021 9:30:00 PM 3.75 38.75 0.409 7.53 1.14 9.27
1/20/2021 9:45:00 PM 3.68 38.624 0.41 7.54 1.14 9.76
1/20/2021 10:00:00 PM 3.63 38.534 0.41 7.54 1.02 9.56
1/20/2021 10:15:00 PM 3.62 38.516 0.41 7.54 1.47 9.3
1/20/2021 10:30:00 PM 3.58 38.444 0.411 7.54 2.2 9.38
1/20/2021 10:45:00 PM 3.61 38.498 0.41 7.55 1.1 9.53
1/20/2021 11:00:00 PM 3.6 38.48 0.41 7.54 1.09 9.88
1/20/2021 11:15:00 PM 3.59 38.462 0.41 7.54 0.95 9.14
1/20/2021 11:30:00 PM 3.6 38.48 0.41 7.54 1.39 9.58
1/20/2021 11:45:00 PM 3.61 38.498 0.41 7.54 1.33 9.67
1/21/2021 12:00:00 AM 3.57 38.426 0.411 7.54 1.32 9.35
1/21/2021 12:15:00 AM 3.56 38.408 0.411 7.53 1.01 9.09
1/21/2021 12:30:00 AM 3.54 38.372 0.411 7.54 1.16 9.56
1/21/2021 12:45:00 AM 3.54 38.372 0.411 7.54 1.68 10.47
1/21/2021 1:00:00 AM 3.47 38.246 0.412 7.55 0.92 9.99
1/21/2021 1:15:00 AM 3.49 38.282 0.412 7.55 1.14 9.31
1/21/2021 1:30:00 AM 3.49 38.282 0.412 7.55 1.63 9.93
1/21/2021 1:45:00 AM 3.46 38.228 0.412 7.55 1.08 10.13
1/21/2021 2:00:00 AM 3.46 38.228 0.412 7.55 1.34 9.52
1/21/2021 2:15:00 AM 3.46 38.228 0.412 7.55 1.18 9.58
1/21/2021 2:30:00 AM 3.48 38.264 0.412 7.54 2.53 9.32
1/21/2021 2:45:00 AM 3.46 38.228 0.412 7.54 1.17 9.19
1/21/2021 3:00:00 AM 3.4 38.12 0.412 7.54 1.2 9.03
1/21/2021 3:15:00 AM 3.45 38.21 0.412 7.55 2.32 8.9
1/21/2021 3:30:00 AM 3.48 38.264 0.411 7.56 1.18 9.72
1/21/2021 3:45:00 AM 3.38 38.084 0.412 7.55 1.02 9.59
1/21/2021 4:00:00 AM 3.4 38.12 0.412 7.55 1.3 9.44
1/21/2021 4:15:00 AM 3.33 37.994 0.412 7.55 1.14 9.67
1/21/2021 4:30:00 AM 3.36 38.048 0.412 7.55 1.02 9.52
1/21/2021 4:45:00 AM 3.34 38.012 0.411 7.55 0.83 9.3
1/21/2021 5:00:00 AM 3.35 38.03 0.411 7.57 1.04 9.54
1/21/2021 5:15:00 AM 3.34 38.012 0.411 7.56 1.12 8.98
1/21/2021 5:30:00 AM 3.3 37.94 0.411 7.56 1.22 9.41
1/21/2021 5:45:00 AM 3.3 37.94 0.411 7.57 0.98 9.5
1/21/2021 6:00:00 AM 3.29 37.922 0.411 7.55 1.26 9.28
1/21/2021 6:15:00 AM 3.32 37.976 0.411 7.55 0.99 9.38
1/21/2021 6:30:00 AM 3.29 37.922 0.411 7.54 1.57 9.26
1/21/2021 6:45:00 AM 3.31 37.958 0.411 7.55 1.21 9.33
1/21/2021 7:00:00 AM 3.31 37.958 0.411 7.54 0.84 9.45
1/21/2021 7:15:00 AM 3.27 37.886 0.411 7.56 0.93 9.4
1/21/2021 7:30:00 AM 3.24 37.832 0.412 7.55 1.01 9.7
1/21/2021 7:45:00 AM 3.24 37.832 0.412 7.54 1.17 9.87
1/21/2021 8:00:00 AM 3.19 37.742 0.412 7.55 0.92 9.34
1/21/2021 8:15:00 AM 3.18 37.724 0.413 7.55 1.48 9.4
1/21/2021 8:30:00 AM 3.25 37.85 0.411 7.55 1.12 9.21
1/21/2021 8:45:00 AM 3.15 37.67 0.412 7.55 1.92 9.46
1/21/2021 9:00:00 AM 3.15 37.67 0.412 7.55 1.88 9.42
1/21/2021 9:15:00 AM 3.18 37.724 0.411 7.54 1.09 9.58
1/21/2021 9:30:00 AM 3.13 37.634 0.412 7.55 0.98 9.8
1/21/2021 9:45:00 AM 3.21 37.778 0.411 7.54 0.93 9.52
1/21/2021 10:00:00 AM 3.15 37.67 0.412 7.55 1.28 9.71
1/21/2021 10:15:00 AM 3.18 37.724 0.412 7.56 1.57 9.49
1/21/2021 10:30:00 AM 3.23 37.814 0.412 7.57 0.8 9.2
1/21/2021 10:45:00 AM 3.28 37.904 0.412 7.57 1.34 9.5
1/21/2021 11:00:00 AM 3.26 37.868 0.413 7.58 0.93 9.94
1/21/2021 11:15:00 AM 3.33 37.994 0.413 7.58 1.08 9.95
1/21/2021 11:30:00 AM 3.4 38.12 0.413 7.58 0.83 9.83
1/21/2021 11:45:00 AM 3.46 38.228 0.414 7.58 0.92 9.94
1/21/2021 12:00:00 PM 3.58 38.444 0.414 7.58 0.92 9.52
1/21/2021 12:15:00 PM 3.61 38.498 0.414 7.56 1.02 9.68
1/21/2021 12:30:00 PM 3.68 38.624 0.415 7.57 1.02 9.35
1/21/2021 12:45:00 PM 3.77 38.786 0.415 7.57 1.07 9.42
1/21/2021 1:00:00 PM 3.85 38.93 0.415 7.56 0.92 9.54
1/21/2021 1:15:00 PM 3.92 39.056 0.416 7.55 1.02 9.45
1/21/2021 1:30:00 PM 3.97 39.146 0.416 7.56 1.02 9.8
1/21/2021 1:45:00 PM 4.03 39.254 0.417 7.56 0.94 9.86
1/21/2021 2:00:00 PM 4.08 39.344 0.417 7.56 1.5 9.93
1/21/2021 2:15:00 PM 4.09 39.362 0.418 7.56 0.94 9.95
1/21/2021 2:30:00 PM 4.12 39.416 0.418 7.56 0.86 10.04
1/21/2021 2:45:00 PM 4.11 39.398 0.419 7.55 1.35 9.96
1/21/2021 3:00:00 PM 4.1 39.38 0.419 7.56 1.09 9.37
1/21/2021 3:15:00 PM 4.06 39.308 0.419 7.55 1.16 9.92
1/21/2021 3:30:00 PM 4 39.2 0.42 7.56 1.07 10.34
1/21/2021 3:45:00 PM 3.91 39.038 0.42 7.58 1.08 10.22
1/21/2021 4:00:00 PM 3.85 38.93 0.42 7.58 0.74 10.27
1/21/2021 4:15:00 PM 3.81 38.858 0.42 7.59 0.95 10.17
1/21/2021 4:30:00 PM 3.69 38.642 0.42 7.6 0.97 10.01
1/21/2021 4:45:00 PM 3.62 38.516 0.42 7.6 0.96 10.36
1/21/2021 5:00:00 PM 3.54 38.372 0.421 7.61 0.82 10.22
1/21/2021 5:15:00 PM 3.52 38.336 0.42 7.61 1.18 9.99
1/21/2021 5:30:00 PM 3.47 38.246 0.42 7.62 1.01 9.96
1/21/2021 5:45:00 PM 3.44 38.192 0.42 7.61 1.25 9.99
1/21/2021 6:00:00 PM 3.34 38.012 0.421 7.61 1.22 9.73
1/21/2021 6:15:00 PM 3.31 37.958 0.421 7.61 2.35 9.79
1/21/2021 6:30:00 PM 3.31 37.958 0.42 7.6 1 9.75
1/21/2021 6:45:00 PM 3.31 37.958 0.42 7.59 1.16 9.78
1/21/2021 7:00:00 PM 3.22 37.796 0.421 7.59 1.22 9.94
1/21/2021 7:15:00 PM 3.23 37.814 0.421 7.58 0.92 9.99
1/21/2021 7:30:00 PM 3.17 37.706 0.421 7.58 0.88 10.04
1/21/2021 7:45:00 PM 3.12 37.616 0.422 7.58 0.82 9.8
1/21/2021 8:00:00 PM 3.17 37.706 0.421 7.57 1.71 10.09
1/21/2021 8:15:00 PM 3.15 37.67 0.421 7.56 0.85 10.38
1/21/2021 8:30:00 PM 3.2 37.76 0.421 7.55 0.89 10.02
1/21/2021 8:45:00 PM 3.11 37.598 0.422 7.55 1.02 10.12
1/21/2021 9:00:00 PM 3.11 37.598 0.422 7.55 1.84 9.9
1/21/2021 9:15:00 PM 3.07 37.526 0.422 7.55 0.82 9.8
1/21/2021 9:30:00 PM 3.05 37.49 0.422 7.54 1.03 10.09
1/21/2021 9:45:00 PM 3.04 37.472 0.422 7.54 0.95 9.88
1/21/2021 10:00:00 PM 2.93 37.274 0.423 7.54 1.53 9.82
1/21/2021 10:15:00 PM 3.05 37.49 0.422 7.54 0.97 10.57
1/21/2021 10:30:00 PM 3 37.4 0.422 7.54 1.63 10.43
1/21/2021 10:45:00 PM 2.97 37.346 0.423 7.55 1.29 10.67
1/21/2021 11:00:00 PM 3.01 37.418 0.422 7.54 0.83 10.58
1/21/2021 11:15:00 PM 3.05 37.49 0.422 7.54 0.96 10.25
1/21/2021 11:30:00 PM 3.1 37.58 0.422 7.56 0.81 9.74
1/21/2021 11:45:00 PM 3.16 37.688 0.422 7.55 0.88 9.38
1/22/2021 12:00:00 AM 3.23 37.814 0.421 7.55 0.78 9.14
1/22/2021 12:15:00 AM 3.26 37.868 0.422 7.55 0.99 9.51
1/22/2021 12:30:00 AM 3.24 37.832 0.423 7.55 0.92 9.38
1/22/2021 12:45:00 AM 3.3 37.94 0.422 7.56 1.01 9.22
1/22/2021 1:00:00 AM 3.3 37.94 0.423 7.55 0.89 9.56
1/22/2021 1:15:00 AM 3.37 38.066 0.423 7.52 0.97 9.59
1/22/2021 1:30:00 AM 3.36 38.048 0.423 7.54 1.12 9.67
1/22/2021 1:45:00 AM 3.39 38.102 0.423 7.54 0.98 9.35
1/22/2021 2:00:00 AM 3.38 38.084 0.424 7.54 0.93 9.7
1/22/2021 2:15:00 AM 3.39 38.102 0.424 7.56 1.03 9.47
1/22/2021 2:30:00 AM 3.38 38.084 0.424 7.56 0.95 9.6
1/22/2021 2:45:00 AM 3.38 38.084 0.424 7.56 1.41 9.47
1/22/2021 3:00:00 AM 3.35 38.03 0.425 7.57 0.96 9.38
1/22/2021 3:15:00 AM 3.39 38.102 0.424 7.59 0.91 9.84
1/22/2021 3:30:00 AM 3.39 38.102 0.424 7.61 0.85 9.41
1/22/2021 3:45:00 AM 3.38 38.084 0.425 7.62 1.01 9.08
1/22/2021 4:00:00 AM 3.38 38.084 0.425 7.61 0.83 9.38
1/22/2021 4:15:00 AM 3.35 38.03 0.425 7.61 0.81 9.36
1/22/2021 4:30:00 AM 3.4 38.12 0.425 7.6 1.02 8.98
1/22/2021 4:45:00 AM 3.42 38.156 0.424 7.6 1.06 8.73
1/22/2021 5:00:00 AM 3.43 38.174 0.424 7.6 0.97 8.56
1/22/2021 5:15:00 AM 3.41 38.138 0.425 7.59 0.95 8.63
1/22/2021 5:30:00 AM 3.41 38.138 0.425 7.59 0.78 8.58
1/22/2021 5:45:00 AM 3.43 38.174 0.425 7.59 0.94 8.71
1/22/2021 6:00:00 AM 3.45 38.21 0.425 7.59 0.9 9.17
1/22/2021 6:15:00 AM 3.47 38.246 0.425 7.58 0.8 8.76
1/22/2021 6:30:00 AM 3.47 38.246 0.425 7.59 0.74 8.55
1/22/2021 6:45:00 AM 3.45 38.21 0.425 7.58 0.93 9.04
1/22/2021 7:00:00 AM 3.4 38.12 0.426 7.57 0.9 9.17
1/22/2021 7:15:00 AM 3.43 38.174 0.426 7.58 1 9.04
1/22/2021 7:30:00 AM 3.39 38.102 0.426 7.58 0.78 8.71
1/22/2021 7:45:00 AM 3.36 38.048 0.427 7.57 0.85 8.39
1/22/2021 8:00:00 AM 3.39 38.102 0.426 7.57 0.81 8.61
1/22/2021 8:15:00 AM 3.31 37.958 0.427 7.57 1.26 8.62
1/22/2021 8:30:00 AM 3.33 37.994 0.427 7.57 0.92 8.78
1/22/2021 8:45:00 AM 3.33 37.994 0.426 7.57 0.92 8.3
1/22/2021 9:00:00 AM 3.3 37.94 0.427 7.57 0.83 8.41
1/22/2021 9:15:00 AM 3.26 37.868 0.427 7.57 0.81 9
1/22/2021 9:30:00 AM 3.24 37.832 0.427 7.57 0.85 9
1/22/2021 9:45:00 AM 3.24 37.832 0.427 7.57 0.89 8.64
1/22/2021 10:00:00 AM 3.27 37.886 0.427 7.57 0.86 8.68
1/22/2021 10:15:00 AM 3.32 37.976 0.426 7.58 1.05 8.59
1/22/2021 10:30:00 AM 3.3 37.94 0.427 7.57 0.76 9.14
1/22/2021 10:45:00 AM 3.36 38.048 0.427 7.57 0.99 8.81
1/22/2021 11:00:00 AM 3.34 38.012 0.427 7.58 0.8 8.89
1/22/2021 11:15:00 AM 3.37 38.066 0.427 7.59 0.99 8.48
1/22/2021 11:30:00 AM 3.34 38.012 0.428 7.59 1.07 8.89
1/22/2021 11:45:00 AM 3.37 38.066 0.428 7.59 0.91 8.16
1/22/2021 12:00:00 PM 3.37 38.066 0.428 7.59 0.84 8.9
1/22/2021 12:15:00 PM 3.41 38.138 0.427 7.59 0.85 9.06
1/22/2021 12:30:00 PM 3.34 38.012 0.428 7.59 1.97 8.83
1/22/2021 12:45:00 PM 3.42 38.156 0.427 7.58 1.7 9.06
1/22/2021 1:00:00 PM 3.35 38.03 0.428 7.58 0.77 8.92
1/22/2021 1:15:00 PM 3.36 38.048 0.429 7.57 0.75 9.45
1/22/2021 1:30:00 PM 3.42 38.156 0.429 7.57 0.98 9.35
1/22/2021 1:45:00 PM 3.55 38.39 0.429 7.54 1.22 9.57
1/22/2021 2:00:00 PM 3.61 38.498 0.429 7.55 1.04 9.99
1/22/2021 2:15:00 PM 3.62 38.516 0.429 7.54 0.95 9.88
1/22/2021 2:30:00 PM 3.64 38.552 0.429 7.54 0.99 9.54
1/22/2021 2:45:00 PM 3.66 38.588 0.429 7.54 0.88 9.81
1/22/2021 3:00:00 PM 3.7 38.66 0.429 7.53 0.96 9.64
1/22/2021 3:15:00 PM 3.68 38.624 0.429 7.53 1.11 9.78
1/22/2021 3:30:00 PM 3.66 38.588 0.429 7.54 0.62 9.29
1/22/2021 3:45:00 PM 3.62 38.516 0.429 7.54 0.72 9.41
1/22/2021 4:00:00 PM 3.57 38.426 0.429 7.53 0.69 9.26
1/22/2021 4:15:00 PM 3.53 38.354 0.429 7.53 0.89 9.46
1/22/2021 4:30:00 PM 3.51 38.318 0.429 7.53 1.56 9.76
1/22/2021 4:45:00 PM 3.46 38.228 0.429 7.53 0.79 9.78
1/22/2021 5:00:00 PM 3.47 38.246 0.428 7.52 0.88 9.3
1/22/2021 5:15:00 PM 3.42 38.156 0.428 7.52 0.75 9.8
1/22/2021 5:30:00 PM 3.39 38.102 0.429 7.52 1.07 9.49
1/22/2021 5:45:00 PM 3.36 38.048 0.429 7.51 0.84 9.49
1/22/2021 6:00:00 PM 3.32 37.976 0.429 7.51 0.78 9.15
1/22/2021 6:15:00 PM 3.28 37.904 0.43 7.5 0.89 9.19
1/22/2021 6:30:00 PM 3.35 38.03 0.429 7.51 0.84 9.51
1/22/2021 6:45:00 PM 3.32 37.976 0.43 7.51 0.88 9.11
1/22/2021 7:00:00 PM 3.36 38.048 0.43 7.5 0.9 9.46
1/22/2021 7:15:00 PM 3.32 37.976 0.43 7.49 0.83 9.32
1/22/2021 7:30:00 PM 3.33 37.994 0.43 7.5 1.14 9.09
1/22/2021 7:45:00 PM 3.35 38.03 0.43 7.49 0.81 9.21
1/22/2021 8:00:00 PM 3.34 38.012 0.431 7.49 0.89 8.85
1/22/2021 8:15:00 PM 3.34 38.012 0.431 7.49 0.82 9.22
1/22/2021 8:30:00 PM 3.33 37.994 0.431 7.5 0.86 9.17
1/22/2021 8:45:00 PM 3.34 38.012 0.431 7.49 0.86 9.58
1/22/2021 9:00:00 PM 3.39 38.102 0.431 7.5 1.15 9.48
1/22/2021 9:15:00 PM 3.33 37.994 0.432 7.5 1.09 9.55
1/22/2021 9:30:00 PM 3.36 38.048 0.432 7.5 0.86 9.83
1/22/2021 9:45:00 PM 3.38 38.084 0.432 7.5 0.79 9.8
1/22/2021 10:00:00 PM 3.33 37.994 0.433 7.51 0.84 9.43
1/22/2021 10:15:00 PM 3.32 37.976 0.433 7.51 0.92 9.52
1/22/2021 10:30:00 PM 3.31 37.958 0.433 7.52 0.69 9.43
1/22/2021 10:45:00 PM 3.33 37.994 0.433 7.51 0.82 9.68
1/22/2021 11:00:00 PM 3.37 38.066 0.432 7.52 0.85 9.32
1/22/2021 11:15:00 PM 3.3 37.94 0.433 7.52 0.91 9.11
1/22/2021 11:30:00 PM 3.26 37.868 0.433 7.52 0.64 9.1
1/22/2021 11:45:00 PM 3.35 38.03 0.432 7.53 0.78 9.18
1/23/2021 12:00:00 AM 3.29 37.922 0.433 7.54 0.87 9.42
1/23/2021 12:15:00 AM 3.34 38.012 0.432 7.54 0.85 9.21
1/23/2021 12:30:00 AM 3.24 37.832 0.434 7.53 0.71 9.22
1/23/2021 12:45:00 AM 3.28 37.904 0.433 7.55 0.88 9.54
1/23/2021 1:00:00 AM 3.33 37.994 0.432 7.55 0.78 8.93
1/23/2021 1:15:00 AM 3.29 37.922 0.433 7.56 0.82 9.34
1/23/2021 1:30:00 AM 3.31 37.958 0.433 7.56 0.8 9.63
1/23/2021 1:45:00 AM 3.35 38.03 0.432 7.56 0.73 9.55
1/23/2021 2:00:00 AM 3.38 38.084 0.432 7.56 0.71 9.55
1/23/2021 2:15:00 AM 3.33 37.994 0.432 7.56 0.95 9.57
1/23/2021 2:30:00 AM 3.31 37.958 0.432 7.56 0.8 9.63
1/23/2021 2:45:00 AM 3.33 37.994 0.431 7.56 0.87 9.6
1/23/2021 3:00:00 AM 3.38 38.084 0.43 7.57 1.18 9.28
1/23/2021 3:15:00 AM 3.35 38.03 0.43 7.57 0.69 9.41
1/23/2021 3:30:00 AM 3.4 38.12 0.43 7.56 0.65 9.29
1/23/2021 3:45:00 AM 3.33 37.994 0.431 7.57 0.69 9.22
1/23/2021 4:00:00 AM 3.38 38.084 0.43 7.57 0.78 9.31
1/23/2021 4:15:00 AM 3.38 38.084 0.43 7.56 0.66 9.07
1/23/2021 4:30:00 AM 3.32 37.976 0.43 7.57 1.01 9.2
1/23/2021 4:45:00 AM 3.42 38.156 0.429 7.58 1.17 8.91
1/23/2021 5:00:00 AM 3.36 38.048 0.429 7.57 0.9 9.38
1/23/2021 5:15:00 AM 3.33 37.994 0.429 7.57 0.9 8.73
1/23/2021 5:30:00 AM 3.21 37.778 0.43 7.58 2.68 9.03
1/23/2021 5:45:00 AM 3.17 37.706 0.43 7.57 1.14 9.3
1/23/2021 6:00:00 AM 3.29 37.922 0.428 7.57 0.69 9.14
1/23/2021 6:15:00 AM 3.31 37.958 0.428 7.57 0.83 9.5
1/23/2021 6:30:00 AM 3.31 37.958 0.427 7.57 0.89 9.33
1/23/2021 6:45:00 AM 3.19 37.742 0.429 7.58 0.75 9.78
1/23/2021 7:00:00 AM 3.32 37.976 0.427 7.58 0.95 9.23
1/23/2021 7:15:00 AM 3.11 37.598 0.429 7.58 1.09 9.34
1/23/2021 7:30:00 AM 3.26 37.868 0.426 7.57 0.85 9.55
1/23/2021 7:45:00 AM 2.95 37.31 0.43 7.56 0.92 9.66
1/23/2021 8:00:00 AM 3.03 37.454 0.429 7.57 0.74 9
1/23/2021 8:15:00 AM 3.02 37.436 0.429 7.57 1.27 8.8
1/23/2021 8:30:00 AM 3.02 37.436 0.429 7.56 1.1 9.09
1/23/2021 8:45:00 AM 3.02 37.436 0.429 7.55 0.82 8.81
1/23/2021 9:00:00 AM 3.04 37.472 0.429 7.56 0.97 9.1
1/23/2021 9:15:00 AM 3 37.4 0.429 7.57 0.83 9.44
1/23/2021 9:30:00 AM 2.96 37.328 0.429 7.56 1.04 9.4
1/23/2021 9:45:00 AM 2.99 37.382 0.429 7.58 0.94 9.44
1/23/2021 10:00:00 AM 3 37.4 0.429 7.59 0.95 9.84
1/23/2021 10:15:00 AM 2.99 37.382 0.429 7.58 0.91 10.18
1/23/2021 10:30:00 AM 2.99 37.382 0.429 7.59 0.96 9.96
1/23/2021 10:45:00 AM 3.05 37.49 0.428 7.59 0.8 9.87
1/23/2021 11:00:00 AM 3.01 37.418 0.429 7.59 1.07 9.94
1/23/2021 11:15:00 AM 3 37.4 0.429 7.58 3.53 10.1
1/23/2021 11:30:00 AM 3 37.4 0.43 7.58 0.88 9.99
1/23/2021 11:45:00 AM 3.02 37.436 0.43 7.59 0.88 9.95
1/23/2021 12:00:00 PM 2.96 37.328 0.43 7.58 1.08 9.94
1/23/2021 12:15:00 PM 2.98 37.364 0.43 7.59 1.01 9.52
1/23/2021 12:30:00 PM 2.94 37.292 0.43 7.59 0.9 9.65
1/23/2021 12:45:00 PM 2.96 37.328 0.43 7.59 0.92 10.02
1/23/2021 1:00:00 PM 3.04 37.472 0.429 7.59 1.15 10.2
1/23/2021 1:15:00 PM 3.07 37.526 0.429 7.58 1.19 10.33
1/23/2021 1:30:00 PM 3 37.4 0.431 7.59 0.95 10.27
1/23/2021 1:45:00 PM 3.03 37.454 0.43 7.59 0.89 9.77
1/23/2021 2:00:00 PM 3.08 37.544 0.43 7.58 0.81 9.57
1/23/2021 2:15:00 PM 3.07 37.526 0.43 7.57 0.94 9.82
1/23/2021 2:30:00 PM 3.04 37.472 0.43 7.59 1.51 9.95
1/23/2021 2:45:00 PM 2.95 37.31 0.431 7.58 0.83 9.91
1/23/2021 3:00:00 PM 3.07 37.526 0.429 7.58 1.07 9.99
1/23/2021 3:15:00 PM 2.98 37.364 0.43 7.58 0.8 10.23
1/23/2021 3:30:00 PM 2.98 37.364 0.43 7.58 0.81 10.46
1/23/2021 3:45:00 PM 2.99 37.382 0.429 7.58 1 10.6
1/23/2021 4:00:00 PM 2.91 37.238 0.43 7.59 1.01 10.28
1/23/2021 4:15:00 PM 2.91 37.238 0.429 7.6 1.42 10.07
1/23/2021 4:30:00 PM 2.81 37.058 0.429 7.59 0.88 10.21
1/23/2021 4:45:00 PM 2.76 36.968 0.429 7.59 0.91 9.7
1/23/2021 5:00:00 PM 2.78 37.004 0.429 7.59 0.81 9.8
1/23/2021 5:15:00 PM 2.8 37.04 0.428 7.59 1.12 9.55
1/23/2021 5:30:00 PM 2.81 37.058 0.428 7.58 1.16 10.22
1/23/2021 5:45:00 PM 2.78 37.004 0.428 7.59 1.05 9.89
1/23/2021 6:00:00 PM 2.63 36.734 0.429 7.57 0.97 10
1/23/2021 6:15:00 PM 2.59 36.662 0.429 7.58 0.82 9.59
1/23/2021 6:30:00 PM 2.58 36.644 0.429 7.56 0.96 9.68
1/23/2021 6:45:00 PM 2.56 36.608 0.429 7.55 0.83 9.99
1/23/2021 7:00:00 PM 2.54 36.572 0.429 7.56 0.86 9.89
1/23/2021 7:15:00 PM 2.53 36.554 0.429 7.56 0.78 9.61
1/23/2021 7:30:00 PM 2.53 36.554 0.428 7.56 0.96 9.32
1/23/2021 7:45:00 PM 2.47 36.446 0.429 7.55 1.02 9.81
1/23/2021 8:00:00 PM 2.51 36.518 0.428 7.55 0.9 9.35
1/23/2021 8:15:00 PM 2.47 36.446 0.428 7.55 1.08 9.74
1/23/2021 8:30:00 PM 2.5 36.5 0.428 7.55 0.73 9.1
1/23/2021 8:45:00 PM 2.47 36.446 0.428 7.54 0.9 9.19
1/23/2021 9:00:00 PM 2.42 36.356 0.429 7.54 0.79 9.28
1/23/2021 9:15:00 PM 2.37 36.266 0.43 7.55 0.75 9.55
1/23/2021 9:30:00 PM 2.4 36.32 0.429 7.55 0.71 9.59
1/23/2021 9:45:00 PM 2.4 36.32 0.43 7.55 1.08 9.73
1/23/2021 10:00:00 PM 2.27 36.086 0.431 7.55 0.73 9.28
1/23/2021 10:15:00 PM 2.31 36.158 0.431 7.55 0.67 9.64
1/23/2021 10:30:00 PM 2.27 36.086 0.431 7.55 0.76 9.88
1/23/2021 10:45:00 PM 2.26 36.068 0.431 7.55 0.83 10.08
1/23/2021 11:00:00 PM 2.28 36.104 0.431 7.55 0.76 9.37
1/23/2021 11:15:00 PM 2.17 35.906 0.433 7.56 0.75 9.53
1/23/2021 11:30:00 PM 2.21 35.978 0.432 7.55 0.66 9.44
1/23/2021 11:45:00 PM 2.21 35.978 0.432 7.55 0.78 9.44
1/24/2021 12:00:00 AM 2.14 35.852 0.433 7.55 0.7 9.49
1/24/2021 12:15:00 AM 2.17 35.906 0.433 7.55 0.62 9.93
1/24/2021 12:30:00 AM 2.18 35.924 0.433 7.55 0.83 10.07
1/24/2021 12:45:00 AM 2.14 35.852 0.433 7.55 0.69 10.44
1/24/2021 1:00:00 AM 2.23 36.014 0.432 7.56 0.87 9.75
1/24/2021 1:15:00 AM 2.14 35.852 0.433 7.56 0.71 9.98
1/24/2021 1:30:00 AM 2.15 35.87 0.433 7.57 0.78 9.69
1/24/2021 1:45:00 AM 2.17 35.906 0.433 7.56 0.75 9.56
1/24/2021 2:00:00 AM 2.18 35.924 0.433 7.57 0.78 9.59
1/24/2021 2:15:00 AM 2.18 35.924 0.433 7.57 0.79 9.75
1/24/2021 2:30:00 AM 2.14 35.852 0.433 7.56 0.67 9.82
1/24/2021 2:45:00 AM 2.09 35.762 0.434 7.57 0.79 10.36
1/24/2021 3:00:00 AM 2.11 35.798 0.433 7.57 0.96 10.55
1/24/2021 3:15:00 AM 2.04 35.672 0.434 7.56 1.51 10.42
1/24/2021 3:30:00 AM 2.13 35.834 0.433 7.56 0.74 9.95
1/24/2021 3:45:00 AM 2.13 35.834 0.433 7.56 0.55 9.81
1/24/2021 4:00:00 AM 2.01 35.618 0.434 7.57 0.75 9.93
1/24/2021 4:15:00 AM 2.04 35.672 0.433 7.56 0.63 10.17
1/24/2021 4:30:00 AM 2.06 35.708 0.433 7.57 0.62 9.82
1/24/2021 4:45:00 AM 2.04 35.672 0.433 7.57 0.81 9.75
1/24/2021 5:00:00 AM 2.02 35.636 0.433 7.56 0.59 9.89
1/24/2021 5:15:00 AM 2.05 35.69 0.433 7.56 0.8 9.85
1/24/2021 5:30:00 AM 2 35.6 0.433 7.56 0.53 9.95
1/24/2021 5:45:00 AM 1.99 35.582 0.433 7.55 0.5 10.05
1/24/2021 6:00:00 AM 1.96 35.528 0.433 7.56 0.56 10.01
1/24/2021 6:15:00 AM 1.96 35.528 0.433 7.56 0.62 9.86
1/24/2021 6:30:00 AM 2 35.6 0.432 7.55 0.62 9.68
1/24/2021 6:45:00 AM 2 35.6 0.431 7.55 0.57 9.55
1/24/2021 7:00:00 AM 1.96 35.528 0.432 7.54 0.7 9.62
1/24/2021 7:15:00 AM 1.97 35.546 0.431 7.54 0.56 9.26
1/24/2021 7:30:00 AM 1.91 35.438 0.432 7.54 0.86 10.22
1/24/2021 7:45:00 AM 1.88 35.384 0.431 7.54 0.58 10.45
1/24/2021 8:00:00 AM 1.96 35.528 0.43 7.55 0.74 9.69
1/24/2021 8:15:00 AM 1.85 35.33 0.431 7.56 0.98 9.16
1/24/2021 8:30:00 AM 1.83 35.294 0.432 7.55 0.67 8.95
1/24/2021 8:45:00 AM 1.83 35.294 0.431 7.56 0.87 9.42
1/24/2021 9:00:00 AM 1.94 35.492 0.43 7.56 0.89 9.93
1/24/2021 9:15:00 AM 1.82 35.276 0.431 7.56 0.73 9.54
1/24/2021 9:30:00 AM 1.88 35.384 0.43 7.56 0.72 8.88
1/24/2021 9:45:00 AM 1.91 35.438 0.43 7.56 0.66 10.63
1/24/2021 10:00:00 AM 1.91 35.438 0.43 7.57 0.54 10.9
1/24/2021 10:15:00 AM 1.89 35.402 0.43 7.57 0.88 10.12
1/24/2021 10:30:00 AM 1.82 35.276 0.432 7.57 0.56 10.18
1/24/2021 10:45:00 AM 1.92 35.456 0.431 7.57 0.66 10.24
1/24/2021 11:00:00 AM 1.88 35.384 0.432 7.57 0.63 10.34
1/24/2021 11:15:00 AM 1.95 35.51 0.432 7.58 0.49 10.4
1/24/2021 11:30:00 AM 2.03 35.654 0.432 7.58 0.56 9.95
1/24/2021 11:45:00 AM 2.01 35.618 0.433 7.57 0.58 10.02
1/24/2021 12:00:00 PM 2.09 35.762 0.433 7.57 0.63 10.13
1/24/2021 12:15:00 PM 2.14 35.852 0.434 7.57 0.53 10.51
1/24/2021 12:30:00 PM 2.22 35.996 0.434 7.58 0.53 10.37
1/24/2021 12:45:00 PM 2.29 36.122 0.433 7.59 0.73 10.34
1/24/2021 1:00:00 PM 2.38 36.284 0.434 7.58 0.73 10.45
1/24/2021 1:15:00 PM 2.41 36.338 0.434 7.59 0.66 10.36
1/24/2021 1:30:00 PM 2.46 36.428 0.434 7.59 0.6 10.84
1/24/2021 1:45:00 PM 2.53 36.554 0.434 7.6 0.72 11.47
1/24/2021 2:00:00 PM 2.54 36.572 0.435 7.58 0.72 11.23
1/24/2021 2:15:00 PM 2.57 36.626 0.435 7.58 0.57 11
1/24/2021 2:30:00 PM 2.62 36.716 0.435 7.59 0.62 11.41
1/24/2021 2:45:00 PM 2.63 36.734 0.435 7.59 0.61 11.27
1/24/2021 3:00:00 PM 2.62 36.716 0.435 7.58 0.59 10.73
1/24/2021 3:15:00 PM 2.52 36.536 0.436 7.58 0.57 10.92
1/24/2021 3:30:00 PM 2.5 36.5 0.436 7.57 0.7 10.66
1/24/2021 3:45:00 PM 2.46 36.428 0.436 7.58 0.57 10.84
1/24/2021 4:00:00 PM 2.42 36.356 0.436 7.58 0.6 10.99
1/24/2021 4:15:00 PM 2.35 36.23 0.436 7.57 0.56 10.77
1/24/2021 4:30:00 PM 2.37 36.266 0.435 7.58 1.01 10.51
1/24/2021 4:45:00 PM 2.26 36.068 0.436 7.57 0.61 10.88
1/24/2021 5:00:00 PM 2.29 36.122 0.435 7.57 0.59 10.86
1/24/2021 5:15:00 PM 2.21 35.978 0.436 7.56 367.4 10.47
1/24/2021 5:30:00 PM 2.23 36.014 0.435 7.57 0.58 10.39
1/24/2021 5:45:00 PM 2.17 35.906 0.435 7.57 0.49 10.51
1/24/2021 6:00:00 PM 2.16 35.888 0.435 7.56 0.56 10.58
1/24/2021 6:15:00 PM 2.12 35.816 0.436 7.56 0.55 10.56
1/24/2021 6:30:00 PM 2.11 35.798 0.435 7.55 0.66 10.3
1/24/2021 6:45:00 PM 2.12 35.816 0.435 7.54 0.89 10.78
1/24/2021 7:00:00 PM 2.08 35.744 0.436 7.54 0.75 10.85
1/24/2021 7:15:00 PM 2.12 35.816 0.435 7.54 0.67 10.73
1/24/2021 7:30:00 PM 2.1 35.78 0.435 7.53 0.72 10.36
1/24/2021 7:45:00 PM 2.08 35.744 0.435 7.53 0.5 10.36
1/24/2021 8:00:00 PM 2.03 35.654 0.436 7.53 0.68 10.77
1/24/2021 8:15:00 PM 2.07 35.726 0.436 7.52 0.65 10.65
1/24/2021 8:30:00 PM 2.03 35.654 0.436 7.52 0.6 10.6
1/24/2021 8:45:00 PM 2.04 35.672 0.436 7.52 0.65 10.82
1/24/2021 9:00:00 PM 2.06 35.708 0.436 7.52 0.54 10.4
1/24/2021 9:15:00 PM 2.04 35.672 0.436 7.52 0.96 10.49
1/24/2021 9:30:00 PM 2.05 35.69 0.436 7.51 0.54 10.61
1/24/2021 9:45:00 PM 2.05 35.69 0.436 7.52 0.62 10.28
1/24/2021 10:00:00 PM 2.08 35.744 0.436 7.51 0.63 10.24
1/24/2021 10:15:00 PM 2.02 35.636 0.437 7.53 0.72 10.58
1/24/2021 10:30:00 PM 2.06 35.708 0.436 7.53 0.69 10.95
1/24/2021 10:45:00 PM 2.01 35.618 0.437 7.53 0.57 11.21
1/24/2021 11:00:00 PM 2.06 35.708 0.436 7.53 0.56 10.74
1/24/2021 11:15:00 PM 2.02 35.636 0.437 7.52 0.55 10.39
1/24/2021 11:30:00 PM 2.08 35.744 0.436 7.53 0.58 10.51
1/24/2021 11:45:00 PM 2.05 35.69 0.437 7.52 0.62 10.63
1/25/2021 12:00:00 AM 2.07 35.726 0.436 7.53 0.65 10.53
1/25/2021 12:15:00 AM 2.09 35.762 0.436 7.52 0.61 10.71
1/25/2021 12:30:00 AM 2.08 35.744 0.437 7.53 0.72 10.67
1/25/2021 12:45:00 AM 2.08 35.744 0.437 7.53 0.52 10.78
1/25/2021 1:00:00 AM 2.08 35.744 0.437 7.53 0.84 11.2
1/25/2021 1:15:00 AM 2.13 35.834 0.436 7.53 0.9 10.78
1/25/2021 1:30:00 AM 2.13 35.834 0.437 7.54 0.63 10.72
1/25/2021 1:45:00 AM 2.08 35.744 0.437 7.54 0.78 11.19
1/25/2021 2:00:00 AM 2.13 35.834 0.437 7.55 0.6 11.2
1/25/2021 2:15:00 AM 2.16 35.888 0.437 7.55 0.53 10.99
1/25/2021 2:30:00 AM 2.16 35.888 0.437 7.52 0.57 10.77
1/25/2021 2:45:00 AM 2.21 35.978 0.437 7.53 0.59 10.81
1/25/2021 3:00:00 AM 2.18 35.924 0.437 7.52 1 11.34
1/25/2021 3:15:00 AM 2.21 35.978 0.437 7.53 0.82 11.38
1/25/2021 3:30:00 AM 2.21 35.978 0.438 7.54 0.6 10.78
1/25/2021 3:45:00 AM 2.23 36.014 0.437 7.54 0.64 10.78
1/25/2021 4:00:00 AM 2.22 35.996 0.438 7.53 0.62 10.93
1/25/2021 4:15:00 AM 2.26 36.068 0.438 7.54 0.79 10.9
1/25/2021 4:30:00 AM 2.27 36.086 0.438 7.54 1.24 10.84
1/25/2021 4:45:00 AM 2.28 36.104 0.438 7.55 0.64 10.13
1/25/2021 5:00:00 AM 2.34 36.212 0.438 7.55 0.56 10.77
1/25/2021 5:15:00 AM 2.32 36.176 0.438 7.55 0.51 10.56
1/25/2021 5:30:00 AM 2.33 36.194 0.438 7.55 0.51 10.21
1/25/2021 5:45:00 AM 2.31 36.158 0.439 7.54 0.48 10.49
1/25/2021 6:00:00 AM 2.37 36.266 0.438 7.55 0.6 10.45
1/25/2021 6:15:00 AM 2.36 36.248 0.439 7.55 0.59 10.73
1/25/2021 6:30:00 AM 2.37 36.266 0.439 7.55 0.67 10.72
1/25/2021 6:45:00 AM 2.37 36.266 0.439 7.55 0.75 10.18
1/25/2021 7:00:00 AM 2.42 36.356 0.438 7.55 0.64 10.57
1/25/2021 7:15:00 AM 2.37 36.266 0.439 7.55 1.2 10.77
1/25/2021 7:30:00 AM 2.43 36.374 0.439 7.56 0.53 10.35
1/25/2021 7:45:00 AM 2.41 36.338 0.439 7.55 0.57 10.54
1/25/2021 8:00:00 AM 2.4 36.32 0.439 7.55 1.6 10.28
1/25/2021 8:15:00 AM 2.4 36.32 0.44 7.56 0.56 9.94
1/25/2021 8:30:00 AM 2.41 36.338 0.44 7.56 0.67 9.89
1/25/2021 8:45:00 AM 2.43 36.374 0.44 7.56 0.69 10.32
1/25/2021 9:00:00 AM 2.43 36.374 0.44 7.55 0.55 9.74
1/25/2021 9:15:00 AM 2.45 36.41 0.44 7.55 0.6 10
1/25/2021 9:30:00 AM 2.44 36.392 0.44 7.56 0.66 9.37
1/25/2021 9:45:00 AM 2.46 36.428 0.44 7.55 0.51 9.65
1/25/2021 10:00:00 AM 2.5 36.5 0.44 7.55 0.61 10.08
1/25/2021 10:15:00 AM 2.52 36.536 0.441 7.55 0.54 9.34
1/25/2021 10:30:00 AM 2.57 36.626 0.44 7.55 0.63 10.04
1/25/2021 10:45:00 AM 2.62 36.716 0.44 7.56 1.18 10.42
1/25/2021 11:00:00 AM 2.67 36.806 0.44 7.56 0.55 10.09
1/25/2021 11:15:00 AM 2.71 36.878 0.44 7.56 0.61 10.27
1/25/2021 11:30:00 AM 2.74 36.932 0.44 7.56 0.49 10.25
1/25/2021 11:45:00 AM 2.77 36.986 0.441 7.57 0.77 10.52
1/25/2021 12:00:00 PM 2.79 37.022 0.441 7.57 0.62 10.26
1/25/2021 12:15:00 PM 2.8 37.04 0.441 7.57 0.56 10.48
1/25/2021 12:30:00 PM 2.81 37.058 0.441 7.57 0.48 10.41
1/25/2021 12:45:00 PM 2.82 37.076 0.441 7.57 0.65 10.24
1/25/2021 1:00:00 PM 2.82 37.076 0.441 7.57 0.59 10.74
1/25/2021 1:15:00 PM 2.85 37.13 0.441 7.57 0.52 10.39
1/25/2021 1:30:00 PM 2.84 37.112 0.441 7.57 0.66 10.45
1/25/2021 1:45:00 PM 2.84 37.112 0.441 7.58 0.72 10.1
1/25/2021 2:00:00 PM 2.83 37.094 0.441 7.57 1.02 10.13
1/25/2021 2:15:00 PM 2.82 37.076 0.442 7.57 0.67 9.66
1/25/2021 2:30:00 PM 2.84 37.112 0.441 7.57 0.47 10.32
1/25/2021 2:45:00 PM 2.82 37.076 0.442 7.57 0.59 10.42
1/25/2021 3:00:00 PM 2.84 37.112 0.441 7.58 0.54 10.12
1/25/2021 3:15:00 PM 2.83 37.094 0.442 7.57 0.52 10.09
1/25/2021 3:30:00 PM 2.84 37.112 0.442 7.57 0.6 9.51
1/25/2021 3:45:00 PM 2.84 37.112 0.442 7.56 0.6 9.57
1/25/2021 4:00:00 PM 2.8 37.04 0.442 7.56 0.57 9.51
1/25/2021 4:15:00 PM 2.84 37.112 0.442 7.56 0.75 9.13
1/25/2021 4:30:00 PM 2.84 37.112 0.442 7.55 0.54 9.47
1/25/2021 4:45:00 PM 2.83 37.094 0.442 7.55 0.67 9.53
1/25/2021 5:00:00 PM 2.83 37.094 0.442 7.56 0.67 9.2
1/25/2021 5:15:00 PM 2.79 37.022 0.443 7.55 0.75 9.24
1/25/2021 5:30:00 PM 2.82 37.076 0.442 7.56 1.11 8.8
1/25/2021 5:45:00 PM 2.78 37.004 0.443 7.56 0.71 8.89
1/25/2021 6:00:00 PM 2.79 37.022 0.443 7.55 0.67 8.63
1/25/2021 6:15:00 PM 2.78 37.004 0.443 7.55 0.47 9.42
1/25/2021 6:30:00 PM 2.78 37.004 0.443 7.55 1.22 9.24
1/25/2021 6:45:00 PM 2.75 36.95 0.444 7.55 0.73 9.7
1/25/2021 7:00:00 PM 2.76 36.968 0.444 7.54 2.07 9.45
1/25/2021 7:15:00 PM 2.72 36.896 0.445 7.53 0.69 9.95
1/25/2021 7:30:00 PM 2.76 36.968 0.444 7.54 0.62 9.44
1/25/2021 7:45:00 PM 2.73 36.914 0.445 7.54 0.88 9.77
1/25/2021 8:00:00 PM 2.74 36.932 0.445 7.54 0.59 9.48
1/25/2021 8:15:00 PM 2.75 36.95 0.445 7.54 0.64 9.66
1/25/2021 8:30:00 PM 2.76 36.968 0.445 7.53 0.7 9.6
1/25/2021 8:45:00 PM 2.77 36.986 0.445 7.53 0.61 9.7
1/25/2021 9:00:00 PM 2.74 36.932 0.443 7.54 0.78 9.91
1/25/2021 9:15:00 PM 2.73 36.914 0.446 7.53 0.79 9.02
1/25/2021 9:30:00 PM 2.72 36.896 0.446 7.53 0.42 9.31
1/25/2021 9:45:00 PM 2.72 36.896 0.446 7.53 3.42 9.31
1/25/2021 10:00:00 PM 2.7 36.86 0.447 7.53 0.86 9.62
1/25/2021 10:15:00 PM 2.71 36.878 0.446 7.54 0.92 9.52
1/25/2021 10:30:00 PM 2.71 36.878 0.447 7.53 0.82 10.04
1/25/2021 10:45:00 PM 2.69 36.842 0.447 7.53 0.67 10.16
1/25/2021 11:00:00 PM 2.72 36.896 0.446 7.53 0.65 9.26
1/25/2021 11:15:00 PM 2.69 36.842 0.447 7.52 0.69 9.49
1/25/2021 11:30:00 PM 2.7 36.86 0.447 7.54 0.84 9.74
1/25/2021 11:45:00 PM 2.71 36.878 0.447 7.54 0.58 9.65
1/26/2021 12:00:00 AM 2.7 36.86 0.447 7.52 0.62 9.71
1/26/2021 12:15:00 AM 2.69 36.842 0.447 7.54 0.66 9.85
1/26/2021 12:30:00 AM 2.7 36.86 0.446 7.54 0.78 9.61
1/26/2021 12:45:00 AM 2.72 36.896 0.446 7.54 0.79 9.75
1/26/2021 1:00:00 AM 2.72 36.896 0.446 7.53 0.75 10.26
1/26/2021 1:15:00 AM 2.71 36.878 0.446 7.52 0.66 10.07
1/26/2021 1:30:00 AM 2.73 36.914 0.446 7.53 0.63 10.05
1/26/2021 1:45:00 AM 2.72 36.896 0.447 7.54 0.66 10.13
1/26/2021 2:00:00 AM 2.74 36.932 0.446 7.54 1.1 10
1/26/2021 2:15:00 AM 2.74 36.932 0.447 7.54 0.66 9.74
1/26/2021 2:30:00 AM 2.76 36.968 0.447 7.54 0.68 9.71
1/26/2021 2:45:00 AM 2.77 36.986 0.447 7.55 0.62 9.6
1/26/2021 3:00:00 AM 2.79 37.022 0.447 7.56 0.66 9.82
1/26/2021 3:15:00 AM 2.81 37.058 0.447 7.56 0.64 9.35
1/26/2021 3:30:00 AM 2.8 37.04 0.447 7.56 0.46 9.13
1/26/2021 3:45:00 AM 2.82 37.076 0.447 7.57 0.66 9.16
1/26/2021 4:00:00 AM 2.82 37.076 0.447 7.57 1.25 9.27
1/26/2021 4:15:00 AM 2.85 37.13 0.446 7.57 0.61 9
1/26/2021 4:30:00 AM 2.82 37.076 0.447 7.58 0.88 9.19
1/26/2021 4:45:00 AM 2.83 37.094 0.446 7.57 0.88 9.48
1/26/2021 5:00:00 AM 2.85 37.13 0.446 7.57 0.68 9.48
1/26/2021 5:15:00 AM 2.85 37.13 0.446 7.57 0.55 9.34
1/26/2021 5:30:00 AM 2.83 37.094 0.447 7.56 0.71 9.39
1/26/2021 5:45:00 AM 2.84 37.112 0.447 7.56 1.25 9.78
1/26/2021 6:00:00 AM 2.84 37.112 0.447 7.56 0.8 9.58
1/26/2021 6:15:00 AM 2.87 37.166 0.445 7.56 0.66 9.79
1/26/2021 6:30:00 AM 2.87 37.166 0.446 7.57 1.17 9.56
1/26/2021 6:45:00 AM 2.85 37.13 0.446 7.57 0.84 9.24
1/26/2021 7:00:00 AM 2.87 37.166 0.446 7.58 0.83 9.17
1/26/2021 7:15:00 AM 2.93 37.274 0.445 7.58 0.75 8.37
1/26/2021 7:30:00 AM 2.89 37.202 0.445 7.57 1.33 9.04
1/26/2021 7:45:00 AM 2.88 37.184 0.445 7.58 0.84 8.51
1/26/2021 8:00:00 AM 2.82 37.076 0.446 7.58 0.99 8.48
1/26/2021 8:15:00 AM 2.86 37.148 0.446 7.57 1.15 9.1
1/26/2021 8:30:00 AM 2.84 37.112 0.446 7.57 1.14 8.54
1/26/2021 8:45:00 AM 2.84 37.112 0.445 7.57 1.3 8.89
1/26/2021 9:00:00 AM 2.85 37.13 0.445 7.58 0.68 8.9
1/26/2021 9:15:00 AM 2.9 37.22 0.444 7.58 3.31 8.81
1/26/2021 9:30:00 AM 2.84 37.112 0.444 7.58 0.88 9.96
1/26/2021 9:45:00 AM 2.85 37.13 0.444 7.58 0.93 9.56
1/26/2021 10:00:00 AM 2.86 37.148 0.444 7.58 1.1 9.58
1/26/2021 10:15:00 AM 2.86 37.148 0.444 7.57 0.82 10.25
1/26/2021 10:30:00 AM 2.9 37.22 0.444 7.58 0.8 9.96
1/26/2021 10:45:00 AM 2.9 37.22 0.444 7.59 1.56 9.45
1/26/2021 11:00:00 AM 2.91 37.238 0.443 7.59 0.76 9.82
1/26/2021 11:15:00 AM 2.93 37.274 0.443 7.59 1.13 9.73
1/26/2021 11:30:00 AM 2.94 37.292 0.443 7.59 0.8 10.08
1/26/2021 11:45:00 AM 2.94 37.292 0.444 7.59 0.89 9.63
1/26/2021 12:00:00 PM 2.93 37.274 0.444 7.59 0.99 9.98
1/26/2021 12:15:00 PM 2.96 37.328 0.443 7.58 0.6 9.99
1/26/2021 12:30:00 PM 2.96 37.328 0.444 7.58 0.72 9.97
1/26/2021 12:45:00 PM 2.94 37.292 0.444 7.59 0.79 9.44
1/26/2021 1:00:00 PM 2.95 37.31 0.444 7.59 0.75 9.8
1/26/2021 1:15:00 PM 2.96 37.328 0.444 7.59 0.96 10.01
1/26/2021 1:30:00 PM 2.95 37.31 0.444 7.59 0.72 10.3
1/26/2021 1:45:00 PM 2.96 37.328 0.444 7.59 0.66 10.25
1/26/2021 2:00:00 PM 2.95 37.31 0.444 7.59 0.55 10.12
1/26/2021 2:15:00 PM 2.96 37.328 0.445 7.59 0.74 9.91
1/26/2021 2:30:00 PM 2.97 37.346 0.444 7.59 0.61 10.04
1/26/2021 2:45:00 PM 2.93 37.274 0.445 7.59 0.7 9.9
1/26/2021 3:00:00 PM 2.94 37.292 0.445 7.59 0.74 10.02
1/26/2021 3:15:00 PM 2.96 37.328 0.445 7.59 0.65 9.71
1/26/2021 3:30:00 PM 2.96 37.328 0.445 7.59 0.8 9.85
1/26/2021 3:45:00 PM 2.97 37.346 0.445 7.59 0.63 9.72
1/26/2021 4:00:00 PM 2.95 37.31 0.445 7.59 0.68 9.67
1/26/2021 4:15:00 PM 2.96 37.328 0.445 7.59 0.71 10.04
1/26/2021 4:30:00 PM 2.95 37.31 0.445 7.58 0.71 9.58
1/26/2021 4:45:00 PM 2.95 37.31 0.445 7.58 0.59 9.42
1/26/2021 5:00:00 PM 2.93 37.274 0.446 7.58 1.19 9.44
1/26/2021 5:15:00 PM 2.91 37.238 0.446 7.58 1.08 9.4
1/26/2021 5:30:00 PM 2.93 37.274 0.446 7.57 0.87 9.4
1/26/2021 5:45:00 PM 2.88 37.184 0.446 7.57 0.68 9.67
1/26/2021 6:00:00 PM 2.89 37.202 0.446 7.57 0.99 9.45
1/26/2021 6:15:00 PM 2.9 37.22 0.446 7.56 0.68 9.93
1/26/2021 6:30:00 PM 2.91 37.238 0.446 7.56 0.73 10.18
1/26/2021 6:45:00 PM 2.9 37.22 0.446 7.55 0.73 10.26
1/26/2021 7:00:00 PM 2.88 37.184 0.446 7.54 1.2 9.93
1/26/2021 7:15:00 PM 2.88 37.184 0.446 7.54 0.66 10.07
1/26/2021 7:30:00 PM 2.89 37.202 0.446 7.54 1.1 9.69
1/26/2021 7:45:00 PM 2.92 37.256 0.445 7.53 1.03 9.93
1/26/2021 8:00:00 PM 2.91 37.238 0.445 7.54 0.72 9.76
1/26/2021 8:15:00 PM 2.92 37.256 0.445 7.55 1.62 9.67
1/26/2021 8:30:00 PM 2.91 37.238 0.445 7.55 0.93 9.76
1/26/2021 8:45:00 PM 2.91 37.238 0.445 7.55 1.33 9.64
1/26/2021 9:00:00 PM 2.89 37.202 0.445 7.54 0.63 9.7
1/26/2021 9:15:00 PM 2.9 37.22 0.445 7.54 0.73 9.94
1/26/2021 9:30:00 PM 2.89 37.202 0.445 7.54 1.33 10.07
1/26/2021 9:45:00 PM 2.92 37.256 0.444 7.54 0.67 9.9
1/26/2021 10:00:00 PM 2.91 37.238 0.444 7.55 1.56 9.67
1/26/2021 10:15:00 PM 2.91 37.238 0.444 7.55 1.01 10.19
1/26/2021 10:30:00 PM 2.91 37.238 0.444 7.55 0.61 10.15
1/26/2021 10:45:00 PM 2.91 37.238 0.444 7.55 0.58 9.72
1/26/2021 11:00:00 PM 2.93 37.274 0.444 7.55 0.83 9.44
1/26/2021 11:15:00 PM 2.91 37.238 0.444 7.55 0.67 9.48
1/26/2021 11:30:00 PM 2.93 37.274 0.444 7.55 0.55 9.54
1/26/2021 11:45:00 PM 2.96 37.328 0.443 7.55 0.54 9.23
1/27/2021 12:00:00 AM 2.93 37.274 0.444 7.54 0.91 9.23
1/27/2021 12:15:00 AM 2.94 37.292 0.444 7.55 0.6 8.98
1/27/2021 12:30:00 AM 2.97 37.346 0.444 7.55 1.1 9.1
1/27/2021 12:45:00 AM 2.98 37.364 0.443 7.54 0.58 9.05
1/27/2021 1:00:00 AM 2.97 37.346 0.443 7.53 0.57 8.98
1/27/2021 1:15:00 AM 2.97 37.346 0.444 7.54 0.56 9.16
1/27/2021 1:30:00 AM 2.98 37.364 0.444 7.53 0.7 8.86
1/27/2021 1:45:00 AM 2.99 37.382 0.444 7.54 0.77 8.82
1/27/2021 2:00:00 AM 2.97 37.346 0.444 7.55 0.8 8.94
1/27/2021 2:15:00 AM 2.98 37.364 0.444 7.54 0.92 8.77
1/27/2021 2:30:00 AM 2.99 37.382 0.445 7.53 0.82 8.72
1/27/2021 2:45:00 AM 2.96 37.328 0.445 7.54 0.92 8.27
1/27/2021 3:00:00 AM 2.98 37.364 0.445 7.54 0.77 8.71
1/27/2021 3:15:00 AM 2.97 37.346 0.446 7.55 0.49 8.96
1/27/2021 3:30:00 AM 2.98 37.364 0.446 7.55 0.86 9.93
1/27/2021 3:45:00 AM 2.95 37.31 0.446 7.55 0.65 8.68
1/27/2021 4:00:00 AM 2.96 37.328 0.447 7.55 0.69 9.31
1/27/2021 4:15:00 AM 2.98 37.364 0.447 7.56 0.58 10.03
1/27/2021 4:30:00 AM 3 37.4 0.447 7.55 0.86 10.25
1/27/2021 4:45:00 AM 2.97 37.346 0.448 7.56 0.5 10.01
1/27/2021 5:00:00 AM 3.02 37.436 0.448 7.56 0.81 9.69
1/27/2021 5:15:00 AM 2.99 37.382 0.448 7.56 0.56 10.39
1/27/2021 5:30:00 AM 3.02 37.436 0.448 7.56 0.65 9.75
1/27/2021 5:45:00 AM 2.98 37.364 0.45 7.56 0.55 10.28
1/27/2021 6:00:00 AM 2.98 37.364 0.45 7.56 0.71 10.46
1/27/2021 6:15:00 AM 3.02 37.436 0.45 7.56 0.68 9.6
1/27/2021 6:30:00 AM 3.01 37.418 0.451 7.56 1.02 10.04
1/27/2021 6:45:00 AM 2.99 37.382 0.451 7.56 0.82 10.17
1/27/2021 7:00:00 AM 3.02 37.436 0.451 7.57 0.72 10.61
1/27/2021 7:15:00 AM 2.99 37.382 0.452 7.57 0.55 10.56
1/27/2021 7:30:00 AM 3.01 37.418 0.452 7.57 0.58 10.43
1/27/2021 7:45:00 AM 3.01 37.418 0.453 7.56 0.81 10.16
1/27/2021 8:00:00 AM 3 37.4 0.453 7.55 0.71 10.31
1/27/2021 8:15:00 AM 3.01 37.418 0.453 7.55 1.38 10.2
1/27/2021 8:30:00 AM 3 37.4 0.453 7.55 0.9 10.13
1/27/2021 8:45:00 AM 3.04 37.472 0.452 7.55 1.08 10
1/27/2021 9:00:00 AM 3.05 37.49 0.453 7.54 0.84 10.19
1/27/2021 9:15:00 AM 3.06 37.508 0.453 7.55 1 10.21
1/27/2021 9:30:00 AM 3.09 37.562 0.453 7.55 0.96 10.15
1/27/2021 9:45:00 AM 3.1 37.58 0.452 7.56 0.6 10.3
1/27/2021 10:00:00 AM 3.14 37.652 0.452 7.56 0.72 10.13
1/27/2021 10:15:00 AM 3.16 37.688 0.452 7.56 0.65 10.26
1/27/2021 10:30:00 AM 3.18 37.724 0.452 7.57 0.78 9.76
1/27/2021 10:45:00 AM 3.23 37.814 0.452 7.57 0.61 9.57
1/27/2021 11:00:00 AM 3.26 37.868 0.452 7.57 0.66 10.01
1/27/2021 11:15:00 AM 3.27 37.886 0.451 7.57 0.89 9.8
1/27/2021 11:30:00 AM 3.33 37.994 0.451 7.57 1.11 10.6
1/27/2021 11:45:00 AM 3.39 38.102 0.45 7.58 0.83 10.34
1/27/2021 12:00:00 PM 3.44 38.192 0.45 7.58 0.78 10.13
1/27/2021 12:15:00 PM 3.51 38.318 0.45 7.59 0.67 10.16
1/27/2021 12:30:00 PM 3.55 38.39 0.45 7.59 0.57 10.38
1/27/2021 12:45:00 PM 3.59 38.462 0.451 7.59 0.77 10.6
1/27/2021 1:00:00 PM 3.61 38.498 0.451 7.59 0.66 10.47
1/27/2021 1:15:00 PM 3.64 38.552 0.45 7.59 0.74 10.68
1/27/2021 1:30:00 PM 3.65 38.57 0.45 7.59 0.57 10.2
1/27/2021 1:45:00 PM 3.78 38.804 0.449 7.59 0.99 9.88
1/27/2021 2:00:00 PM 3.86 38.948 0.449 7.58 0.53 10.43
1/27/2021 2:15:00 PM 3.84 38.912 0.448 7.59 0.57 10.2
1/27/2021 2:30:00 PM 3.85 38.93 0.449 7.59 0.8 9.9
1/27/2021 2:45:00 PM 3.83 38.894 0.449 7.59 0.98 9.98
1/27/2021 3:00:00 PM 3.81 38.858 0.448 7.58 1.17 10.11
1/27/2021 3:15:00 PM 3.8 38.84 0.448 7.59 0.64 10.14
1/27/2021 3:30:00 PM 3.78 38.804 0.448 7.59 0.86 10.16
1/27/2021 3:45:00 PM 3.76 38.768 0.447 7.6 0.71 9.43
1/27/2021 4:00:00 PM 3.72 38.696 0.447 7.6 0.72 9.81
1/27/2021 4:15:00 PM 3.67 38.606 0.447 7.59 0.92 9.8
1/27/2021 4:30:00 PM 3.63 38.534 0.447 7.58 0.63 9.73
1/27/2021 4:45:00 PM 3.6 38.48 0.447 7.58 0.86 10.4
1/27/2021 5:00:00 PM 3.56 38.408 0.447 7.58 1.03 10.17
1/27/2021 5:15:00 PM 3.51 38.318 0.446 7.58 0.89 9.86
1/27/2021 5:30:00 PM 3.45 38.21 0.446 7.59 0.76 10.11
1/27/2021 5:45:00 PM 3.41 38.138 0.446 7.56 0.72 9.49
1/27/2021 6:00:00 PM 3.39 38.102 0.445 7.55 1.14 10.19
1/27/2021 6:15:00 PM 3.4 38.12 0.445 7.56 0.7 9.91
1/27/2021 6:30:00 PM 3.35 38.03 0.445 7.55 0.93 9.35
1/27/2021 6:45:00 PM 3.37 38.066 0.445 7.55 0.74 8.84
1/27/2021 7:00:00 PM 3.39 38.102 0.444 7.55 2.28 8.88
1/27/2021 7:15:00 PM 3.36 38.048 0.444 7.54 1.07 9.21
1/27/2021 7:30:00 PM 3.35 38.03 0.444 7.53 0.88 9.43
1/27/2021 7:45:00 PM 3.34 38.012 0.444 7.53 0.77 9.54
1/27/2021 8:00:00 PM 3.32 37.976 0.444 7.53 0.62 9.77
1/27/2021 8:15:00 PM 3.31 37.958 0.444 7.53 1 9.09
1/27/2021 8:30:00 PM 3.3 37.94 0.444 7.54 0.74 9.67
1/27/2021 8:45:00 PM 3.31 37.958 0.444 7.54 0.76 9.32
1/27/2021 9:00:00 PM 3.34 38.012 0.443 7.54 0.82 9.59
1/27/2021 9:15:00 PM 3.33 37.994 0.443 7.54 0.82 9.52
1/27/2021 9:30:00 PM 3.31 37.958 0.443 7.55 0.97 9.39
1/27/2021 9:45:00 PM 3.32 37.976 0.443 7.55 1.18 9.33
1/27/2021 10:00:00 PM 3.32 37.976 0.443 7.54 0.75 9.52
1/27/2021 10:15:00 PM 3.33 37.994 0.442 7.55 0.76 9.27
1/27/2021 10:30:00 PM 3.34 38.012 0.442 7.55 0.66 8.66
1/27/2021 10:45:00 PM 3.33 37.994 0.442 7.55 0.68 9.48
1/27/2021 11:00:00 PM 3.33 37.994 0.442 7.55 0.76 9.35
1/27/2021 11:15:00 PM 3.3 37.94 0.443 7.55 1.02 9.12
1/27/2021 11:30:00 PM 3.34 38.012 0.442 7.55 0.67 9.04
1/27/2021 11:45:00 PM 3.35 38.03 0.442 7.55 0.61 9.25
1/28/2021 12:00:00 AM 3.36 38.048 0.442 7.56 0.86 8.91
1/28/2021 12:15:00 AM 3.36 38.048 0.442 7.56 0.64 9.18
1/28/2021 12:30:00 AM 3.38 38.084 0.442 7.56 0.72 9.07
1/28/2021 12:45:00 AM 3.38 38.084 0.442 7.57 0.84 9.44
1/28/2021 1:00:00 AM 3.39 38.102 0.442 7.56 0.73 9.65
1/28/2021 1:15:00 AM 3.4 38.12 0.442 7.57 0.61 9.61
1/28/2021 1:30:00 AM 3.43 38.174 0.441 7.57 0.73 9.41
1/28/2021 1:45:00 AM 3.44 38.192 0.441 7.58 0.62 9.24
1/28/2021 2:00:00 AM 3.42 38.156 0.442 7.58 0.66 9.78
1/28/2021 2:15:00 AM 3.44 38.192 0.441 7.58 0.71 9.32
1/28/2021 2:30:00 AM 3.45 38.21 0.441 7.59 0.64 9.5
1/28/2021 2:45:00 AM 3.43 38.174 0.441 7.59 0.88 9.63
1/28/2021 3:00:00 AM 3.43 38.174 0.441 7.59 1.43 9.75
1/28/2021 3:15:00 AM 3.41 38.138 0.441 7.59 0.73 9.52
1/28/2021 3:30:00 AM 3.36 38.048 0.441 7.59 0.77 10.03
1/28/2021 3:45:00 AM 3.39 38.102 0.44 7.59 0.73 10.01
1/28/2021 4:00:00 AM 3.34 38.012 0.44 7.59 0.8 9.81
1/28/2021 4:15:00 AM 3.32 37.976 0.44 7.59 0.96 9.66
1/28/2021 4:30:00 AM 3.28 37.904 0.44 7.6 0.76 9.79
1/28/2021 4:45:00 AM 3.27 37.886 0.44 7.6 0.92 10.01
1/28/2021 5:00:00 AM 3.29 37.922 0.438 7.59 0.77 9.58
1/28/2021 5:15:00 AM 3.26 37.868 0.439 7.59 0.96 9.93
1/28/2021 5:30:00 AM 3.22 37.796 0.44 7.6 0.67 9.94
1/28/2021 5:45:00 AM 3.22 37.796 0.44 7.6 0.85 9.72
1/28/2021 6:00:00 AM 3.24 37.832 0.439 7.6 0.82 9.88
1/28/2021 6:15:00 AM 3.2 37.76 0.44 7.61 0.64 9.49
1/28/2021 6:30:00 AM 3.22 37.796 0.44 7.61 0.74 9.59
1/28/2021 6:45:00 AM 3.15 37.67 0.441 7.6 0.67 9.91
1/28/2021 7:00:00 AM 3.19 37.742 0.44 7.6 0.77 10.14
1/28/2021 7:15:00 AM 3.1 37.58 0.441 7.6 0.7 9.89
1/28/2021 7:30:00 AM 3.07 37.526 0.441 7.61 0.81 10.01
1/28/2021 7:45:00 AM 3.03 37.454 0.441 7.6 1 9.52
1/28/2021 8:00:00 AM 3.05 37.49 0.441 7.61 0.74 9.19
1/28/2021 8:15:00 AM 3.04 37.472 0.441 7.61 1.7 9.4
1/28/2021 8:30:00 AM 3.02 37.436 0.441 7.61 1.52 9.87
1/28/2021 8:45:00 AM 3.02 37.436 0.441 7.62 2.2 9.68
1/28/2021 9:00:00 AM 3.01 37.418 0.441 7.62 0.58 9.33
1/28/2021 9:15:00 AM 3.06 37.508 0.437 7.63 0.69 9.45
1/28/2021 9:30:00 AM 3.03 37.454 0.44 7.63 0.72 9.19
1/28/2021 9:45:00 AM 3.02 37.436 0.44 7.63 0.63 9.61
1/28/2021 10:00:00 AM 3.03 37.454 0.44 7.64 2.44 9.9
1/28/2021 10:15:00 AM 3.06 37.508 0.44 7.64 0.69 9.74
1/28/2021 10:30:00 AM 3.06 37.508 0.44 7.64 0.77 9.57
1/28/2021 10:45:00 AM 3.04 37.472 0.44 7.64 0.81 9.56
1/28/2021 11:00:00 AM 3.04 37.472 0.441 7.64 0.61 9.85
1/28/2021 11:15:00 AM 3.12 37.616 0.44 7.65 0.75 9.98
1/28/2021 11:30:00 AM 3.17 37.706 0.441 7.64 0.6 10.03
1/28/2021 11:45:00 AM 3.27 37.886 0.44 7.63 0.66 9.74
1/28/2021 12:00:00 PM 3.35 38.03 0.44 7.63 0.67 10.42
1/28/2021 12:15:00 PM 3.43 38.174 0.441 7.64 0.8 10.37
1/28/2021 12:30:00 PM 3.54 38.372 0.441 7.64 0.68 10.38
1/28/2021 12:45:00 PM 3.65 38.57 0.441 7.64 0.69 10.44
1/28/2021 1:00:00 PM 3.77 38.786 0.441 7.65 0.74 11.1
1/28/2021 1:15:00 PM 3.87 38.966 0.441 7.65 0.82 10.83
1/28/2021 1:30:00 PM 3.95 39.11 0.441 7.64 0.58 10.88
1/28/2021 1:45:00 PM 3.97 39.146 0.442 7.64 0.81 10.8
1/28/2021 2:00:00 PM 4.04 39.272 0.441 7.64 1 11.03
1/28/2021 2:15:00 PM 4.07 39.326 0.442 7.64 0.72 11.1
1/28/2021 2:30:00 PM 4.07 39.326 0.442 7.64 0.67 10.78
1/28/2021 2:45:00 PM 4.06 39.308 0.442 7.64 0.77 10.75
1/28/2021 3:00:00 PM 4.02 39.236 0.442 7.64 0.68 10.06
1/28/2021 3:15:00 PM 3.97 39.146 0.442 7.64 0.74 11.05
1/28/2021 3:30:00 PM 3.9 39.02 0.442 7.64 0.73 10.8
1/28/2021 3:45:00 PM 3.77 38.786 0.442 7.64 0.66 11.12
1/28/2021 4:00:00 PM 3.66 38.588 0.442 7.64 0.69 10.38
1/28/2021 4:15:00 PM 3.56 38.408 0.442 7.63 1.02 10.44
1/28/2021 4:30:00 PM 3.47 38.246 0.442 7.64 0.73 10.59
1/28/2021 4:45:00 PM 3.32 37.976 0.443 7.64 0.63 10.69
1/28/2021 5:00:00 PM 3.25 37.85 0.441 7.63 0.82 9.85
1/28/2021 5:15:00 PM 3.14 37.652 0.441 7.63 0.67 10.6
1/28/2021 5:30:00 PM 3.05 37.49 0.441 7.63 0.6 10.45
1/28/2021 5:45:00 PM 3.04 37.472 0.44 7.63 0.74 9.93
1/28/2021 6:00:00 PM 2.91 37.238 0.441 7.63 0.73 10.5
1/28/2021 6:15:00 PM 2.85 37.13 0.441 7.63 0.65 10.34
1/28/2021 6:30:00 PM 2.84 37.112 0.44 7.62 0.62 10.18
1/28/2021 6:45:00 PM 2.76 36.968 0.441 7.61 0.76 10.12
1/28/2021 7:00:00 PM 2.88 37.184 0.439 7.6 0.81 10.22
1/28/2021 7:15:00 PM 2.68 36.824 0.441 7.62 1.16 10.17
1/28/2021 7:30:00 PM 2.73 36.914 0.44 7.61 0.58 10.06
1/28/2021 7:45:00 PM 2.74 36.932 0.44 7.61 0.61 10.11
1/28/2021 8:00:00 PM 2.63 36.734 0.441 7.61 0.89 10.28
1/28/2021 8:15:00 PM 2.67 36.806 0.44 7.61 0.75 10.57
1/28/2021 8:30:00 PM 2.58 36.644 0.44 7.6 0.72 10.35
1/28/2021 8:45:00 PM 2.64 36.752 0.439 7.6 0.85 10.12
1/28/2021 9:00:00 PM 2.59 36.662 0.439 7.6 1.01 10.02
1/28/2021 9:15:00 PM 2.57 36.626 0.439 7.6 0.85 10.03
1/28/2021 9:30:00 PM 2.56 36.608 0.439 7.61 0.49 10.35
1/28/2021 9:45:00 PM 2.61 36.698 0.439 7.61 0.67 10.26
1/28/2021 10:00:00 PM 2.59 36.662 0.439 7.61 0.86 10.34
1/28/2021 10:15:00 PM 2.54 36.572 0.44 7.61 0.67 10.67
1/28/2021 10:30:00 PM 2.57 36.626 0.439 7.61 0.61 10.52
1/28/2021 10:45:00 PM 2.57 36.626 0.439 7.61 0.59 10.83
1/28/2021 11:00:00 PM 2.49 36.482 0.44 7.62 0.61 10.68
1/28/2021 11:15:00 PM 2.44 36.392 0.44 7.62 0.65 10.08
1/28/2021 11:30:00 PM 2.47 36.446 0.44 7.61 0.9 10.39
1/28/2021 11:45:00 PM 2.5 36.5 0.44 7.61 0.65 10.59
1/29/2021 12:00:00 AM 2.46 36.428 0.44 7.61 0.6 10.49
1/29/2021 12:15:00 AM 2.43 36.374 0.441 7.6 0.62 10.84
1/29/2021 12:30:00 AM 2.37 36.266 0.441 7.6 0.51 10.51
1/29/2021 12:45:00 AM 2.38 36.284 0.44 7.6 1.03 10.72
1/29/2021 1:00:00 AM 2.39 36.302 0.439 7.61 0.77 10.5
1/29/2021 1:15:00 AM 2.36 36.248 0.439 7.62 2.35 10.42
1/29/2021 1:30:00 AM 2.42 36.356 0.437 7.62 0.53 10.71
1/29/2021 1:45:00 AM 2.27 36.086 0.44 7.61 1.12 10.34
1/29/2021 2:00:00 AM 2.32 36.176 0.438 7.62 0.5 10.26
1/29/2021 2:15:00 AM 2.23 36.014 0.439 7.62 0.51 10.46
1/29/2021 2:30:00 AM 2.38 36.284 0.436 7.63 0.54 10.72
1/29/2021 2:45:00 AM 2.25 36.05 0.437 7.63 0.57 11.53
1/29/2021 3:00:00 AM 2.26 36.068 0.437 7.62 0.69 11.19
1/29/2021 3:15:00 AM 2.2 35.96 0.438 7.63 0.66 11.15
1/29/2021 3:30:00 AM 2.14 35.852 0.438 7.63 0.48 11
1/29/2021 3:45:00 AM 2.18 35.924 0.437 7.63 0.5 11.1
1/29/2021 4:00:00 AM 2.13 35.834 0.438 7.63 0.56 11.17
1/29/2021 4:15:00 AM 2.16 35.888 0.437 7.64 0.5 9.79
1/29/2021 4:30:00 AM 2.09 35.762 0.438 7.64 0.58 9.97
1/29/2021 4:45:00 AM 2.12 35.816 0.437 7.64 0.55 10.37
1/29/2021 5:00:00 AM 2.09 35.762 0.437 7.64 0.48 9.99
1/29/2021 5:15:00 AM 2.07 35.726 0.437 7.63 0.55 10.85
1/29/2021 5:30:00 AM 1.97 35.546 0.438 7.62 0.43 11.31
1/29/2021 5:45:00 AM 1.95 35.51 0.438 7.6 0.65 11.07
1/29/2021 6:00:00 AM 1.98 35.564 0.438 7.63 0.31 10.17
1/29/2021 6:15:00 AM 1.89 35.402 0.439 7.63 0.46 9.77
1/29/2021 6:30:00 AM 1.96 35.528 0.438 7.64 0.51 8.1
1/29/2021 6:45:00 AM 1.96 35.528 0.438 7.64 0.54 9.73
1/29/2021 7:00:00 AM 1.95 35.51 0.438 7.64 0.79 10.03
1/29/2021 7:15:00 AM 1.91 35.438 0.439 7.65 0.89 6.99
1/29/2021 7:30:00 AM 1.96 35.528 0.438 7.64 0.5 8.75
1/29/2021 7:45:00 AM 1.87 35.366 0.439 7.64 0.55 9.27
1/29/2021 8:00:00 AM 1.88 35.384 0.438 7.65 1.04 10.61
1/29/2021 8:15:00 AM 1.86 35.348 0.438 7.65 0.53 10.5
1/29/2021 8:30:00 AM 1.83 35.294 0.437 7.66 1.05 11.17
1/29/2021 8:45:00 AM 1.77 35.186 0.438 7.65 0.61 11.08
1/29/2021 9:00:00 AM 1.84 35.312 0.436 7.66 0.49 10.67
1/29/2021 9:15:00 AM 1.75 35.15 0.438 7.65 0.55 7.94
1/29/2021 9:30:00 AM 1.79 35.222 0.436 7.63 0.49 9.03
1/29/2021 9:45:00 AM 1.89 35.402 0.435 7.66 0.54 9.08
1/29/2021 10:00:00 AM 1.83 35.294 0.437 7.66 5.39 8.29
1/29/2021 10:15:00 AM 1.78 35.204 0.438 7.67 0.41 7.14
1/29/2021 10:30:00 AM 1.85 35.33 0.437 7.67 0.63 7.51
1/29/2021 10:45:00 AM 1.85 35.33 0.438 7.68 0.42 7.8
1/29/2021 11:00:00 AM 1.75 35.15 0.439 7.68 0.38 9.71
1/29/2021 11:15:00 AM 1.91 35.438 0.438 7.68 0.62 7.5
1/29/2021 11:30:00 AM 1.94 35.492 0.438 7.67 0.64 7.25
1/29/2021 11:45:00 AM 1.94 35.492 0.439 7.68 0.75 5.26
1/29/2021 12:00:00 PM 1.93 35.474 0.44 7.68 0.65 7.05
1/29/2021 12:15:00 PM 1.91 35.438 0.44 7.68 0.42 8.1
1/29/2021 12:30:00 PM 2.01 35.618 0.439 7.68 0.6 7.26
1/29/2021 12:45:00 PM 1.95 35.51 0.44 7.67 0.66 7.19
1/29/2021 1:00:00 PM 1.92 35.456 0.44 7.67 0.59 8.65
1/29/2021 1:15:00 PM 1.98 35.564 0.439 7.67 0.4 8.86
1/29/2021 1:30:00 PM 1.91 35.438 0.44 7.68 0.53 8.2
1/29/2021 1:45:00 PM 1.88 35.384 0.44 7.67 0.56 8.48
1/29/2021 2:00:00 PM 1.9 35.42 0.44 7.68 0.46 9.57
1/29/2021 2:15:00 PM 1.87 35.366 0.44 7.68 0.42 11.19
1/29/2021 2:30:00 PM 1.83 35.294 0.441 7.68 0.71 11.79
1/29/2021 2:45:00 PM 1.82 35.276 0.441 7.68 0.8 11.72
1/29/2021 3:00:00 PM 1.76 35.168 0.442 7.68 0.67 11.77
1/29/2021 3:15:00 PM 1.92 35.456 0.44 7.68 0.62 11.12
1/29/2021 3:30:00 PM 1.72 35.096 0.442 7.67 0.41 12.1
1/29/2021 3:45:00 PM 1.78 35.204 0.441 7.68 0.33 10.06
1/29/2021 4:00:00 PM 1.72 35.096 0.442 7.67 0.74 9.22
1/29/2021 4:15:00 PM 1.7 35.06 0.442 7.67 0.39 11.38
1/29/2021 4:30:00 PM 1.64 34.952 0.442 7.67 1.6 10.93
1/29/2021 4:45:00 PM 1.74 35.132 0.44 7.66 0.75 10.74
1/29/2021 5:00:00 PM 1.67 35.006 0.441 7.66 0.6 10.39
1/29/2021 5:15:00 PM 1.55 34.79 0.442 7.65 0.74 11.13
1/29/2021 5:30:00 PM 1.57 34.826 0.442 7.64 0.56 10.84
1/29/2021 5:45:00 PM 1.57 34.826 0.441 7.65 0.37 10.02
1/29/2021 6:00:00 PM 1.59 34.862 0.441 7.64 0.47 7.28
1/29/2021 6:15:00 PM 1.58 34.844 0.441 7.64 0.58 6.46
1/29/2021 6:30:00 PM 1.62 34.916 0.442 7.66 0.52 4.34
1/29/2021 6:45:00 PM 1.56 34.808 0.441 7.64 0.69 5.73
1/29/2021 7:00:00 PM 1.56 34.808 0.441 7.65 1.73 4.62
1/29/2021 7:15:00 PM 1.5 34.7 0.443 7.65 0.63 3.82
1/29/2021 7:30:00 PM 1.49 34.682 0.442 7.63 0.63 3.71
1/29/2021 7:45:00 PM 1.51 34.718 0.441 7.64 0.56 3.26
1/29/2021 8:00:00 PM 1.56 34.808 0.441 7.65 0.59 2.88
1/29/2021 8:15:00 PM 1.45 34.61 0.442 7.63 0.55 1.42
1/29/2021 8:30:00 PM 1.44 34.592 0.443 7.63 0.59 1.26
1/29/2021 8:45:00 PM 1.57 34.826 0.441 7.63 0.82 1.9
1/29/2021 9:00:00 PM 1.41 34.538 0.444 7.62 0.64 1.94
1/29/2021 9:15:00 PM 1.45 34.61 0.444 7.61 0.68 1.37
1/29/2021 9:30:00 PM 1.45 34.61 0.443 7.62 0.73 1.17
1/29/2021 9:45:00 PM 1.48 34.664 0.443 7.62 0.92 1.03
1/29/2021 10:00:00 PM 1.43 34.574 0.444 7.62 0.66 1.15
1/29/2021 10:15:00 PM 1.42 34.556 0.444 7.62 0.64 1.06
1/29/2021 10:30:00 PM 1.37 34.466 0.445 7.63 0.56 1.68
1/29/2021 10:45:00 PM 1.41 34.538 0.445 7.64 0.52 1.73
1/29/2021 11:00:00 PM 1.42 34.556 0.444 7.63 0.46 1.01
1/29/2021 11:15:00 PM 1.37 34.466 0.444 7.62 0.54 1.51
1/29/2021 11:30:00 PM 1.43 34.574 0.444 7.63 0.64 1.22
1/29/2021 11:45:00 PM 1.34 34.412 0.445 7.62 0.71 1.26
1/30/2021 12:00:00 AM 1.33 34.394 0.445 7.62 1.79 2.49
1/30/2021 12:15:00 AM 1.23 34.214 0.445 7.61 0.67 2.64
1/30/2021 12:30:00 AM 1.17 34.106 0.445 7.61 0.36 5.98
1/30/2021 12:45:00 AM 1.27 34.286 0.444 7.62 0.68 3.61
1/30/2021 1:00:00 AM 1.27 34.286 0.442 7.61 0.29 6.48
1/30/2021 1:15:00 AM 1.15 34.07 0.444 7.62 0.51 5.03
1/30/2021 1:30:00 AM 1.17 34.106 0.443 7.62 0.66 8.59
1/30/2021 1:45:00 AM 1.13 34.034 0.443 7.63 0.33 8.2
1/30/2021 2:00:00 AM 1.16 34.088 0.443 7.62 0.32 9.73
1/30/2021 2:15:00 AM 1 33.8 0.446 7.63 0.28 7.87
1/30/2021 2:30:00 AM 1.01 33.818 0.446 7.63 0.22 10.63
1/30/2021 2:45:00 AM 1.08 33.944 0.445 7.63 0.32 8.85
1/30/2021 3:00:00 AM 1.03 33.854 0.446 7.63 0.28 8.79
1/30/2021 3:15:00 AM 1.04 33.872 0.446 7.62 0.46 10.31
1/30/2021 3:30:00 AM 1.01 33.818 0.447 7.62 0.4 8.94
1/30/2021 3:45:00 AM 0.96 33.728 0.447 7.58 0.26 9
1/30/2021 4:00:00 AM 0.89 33.602 0.448 7.62 0.4 9.68
1/30/2021 4:15:00 AM 1.01 33.818 0.445 7.63 0.5 10.29
1/30/2021 4:30:00 AM 1 33.8 0.446 7.63 0.33 6.92
1/30/2021 4:45:00 AM 1.1 33.98 0.444 7.64 0.44 3.82
1/30/2021 5:00:00 AM 1.03 33.854 0.444 7.64 0.44 2.58
1/30/2021 5:15:00 AM 1.01 33.818 0.445 7.65 0.54 3.02
1/30/2021 5:30:00 AM 1 33.8 0.444 7.65 0.49 3.92
1/30/2021 5:45:00 AM 1.04 33.872 0.444 7.66 0.33 3.06
1/30/2021 6:00:00 AM 1.06 33.908 0.444 7.65 0.4 2.65
1/30/2021 6:15:00 AM 1.03 33.854 0.444 7.63 1.36 3.18
1/30/2021 6:30:00 AM 0.96 33.728 0.445 7.64 0.35 3.98
1/30/2021 6:45:00 AM 0.92 33.656 0.445 7.65 0.31 4.54
1/30/2021 7:00:00 AM 0.88 33.584 0.446 7.64 0.33 4.28
1/30/2021 7:15:00 AM 0.92 33.656 0.446 7.64 0.51 4.93
1/30/2021 7:30:00 AM 0.93 33.674 0.446 7.65 0.43 2.78
1/30/2021 7:45:00 AM 0.91 33.638 0.446 7.65 0.55 2.18
1/30/2021 8:00:00 AM 0.9 33.62 0.446 7.65 0.59 3.02
1/30/2021 8:15:00 AM 0.89 33.602 0.447 7.64 0.98 3.46
1/30/2021 8:30:00 AM 0.88 33.584 0.447 7.64 0.42 4.86
1/30/2021 8:45:00 AM 0.82 33.476 0.448 7.64 1.07 3.68
1/30/2021 9:00:00 AM 0.84 33.512 0.449 7.63 0.57 4.52
1/30/2021 9:15:00 AM 0.86 33.548 0.449 7.65 0.72 3.94
1/30/2021 9:30:00 AM 0.81 33.458 0.451 7.65 0.55 2.78
1/30/2021 9:45:00 AM 0.87 33.566 0.45 7.65 0.7 4.23
1/30/2021 10:00:00 AM 0.93 33.674 0.45 7.66 0.6 3.55
1/30/2021 10:15:00 AM 0.89 33.602 0.451 7.65 0.83 3.48
1/30/2021 10:30:00 AM 0.92 33.656 0.451 7.66 0.83 4.76
1/30/2021 10:45:00 AM 0.95 33.71 0.451 7.66 1.17 8.76
1/30/2021 11:00:00 AM 0.99 33.782 0.451 7.65 0.54 7.95
1/30/2021 11:15:00 AM 1.02 33.836 0.452 7.65 0.74 9.21
1/30/2021 11:30:00 AM 1.12 34.016 0.452 7.65 0.5 9.78
1/30/2021 11:45:00 AM 1.18 34.124 0.453 7.66 0.63 12.7
1/30/2021 12:00:00 PM 1.28 34.304 0.454 7.65 0.61 13.26
1/30/2021 12:15:00 PM 1.45 34.61 0.454 7.65 2.22 13.52
1/30/2021 12:30:00 PM 1.57 34.826 0.454 7.64 0.72 13.57
1/30/2021 12:45:00 PM 1.75 35.15 0.453 7.64 1.14 13.47
1/30/2021 1:00:00 PM 1.91 35.438 0.453 7.66 1.08 13.63
1/30/2021 1:15:00 PM 2.03 35.654 0.453 7.67 0.67 13.76
1/30/2021 1:30:00 PM 2.13 35.834 0.454 7.67 0.75 13.69
1/30/2021 1:45:00 PM 2.19 35.942 0.455 7.68 0.99 14.02
1/30/2021 2:00:00 PM 2.27 36.086 0.455 7.68 1.46 13.93
1/30/2021 2:15:00 PM 2.33 36.194 0.455 7.69 0.87 14.17
1/30/2021 2:30:00 PM 2.32 36.176 0.456 7.7 1.08 13.92
1/30/2021 2:45:00 PM 2.33 36.194 0.456 7.7 0.97 14.04
1/30/2021 3:00:00 PM 2.27 36.086 0.456 7.71 0.78 14.08
1/30/2021 3:15:00 PM 2.22 35.996 0.457 7.71 1.35 14.22
1/30/2021 3:30:00 PM 2.12 35.816 0.458 7.71 1.06 14.23
1/30/2021 3:45:00 PM 2.03 35.654 0.458 7.71 0.93 14.28
1/30/2021 4:00:00 PM 1.89 35.402 0.459 7.72 0.84 13.66
1/30/2021 4:15:00 PM 1.81 35.258 0.459 7.72 0.66 13.25
1/30/2021 4:30:00 PM 1.72 35.096 0.458 7.71 0.79 13.09
1/30/2021 4:45:00 PM 1.68 35.024 0.457 7.72 0.65 13.02
1/30/2021 5:00:00 PM 1.59 34.862 0.457 7.72 0.51 13.05
1/30/2021 5:15:00 PM 1.44 34.592 0.458 7.72 0.47 13.13
1/30/2021 5:30:00 PM 1.38 34.484 0.458 7.71 0.5 13.14
1/30/2021 5:45:00 PM 1.35 34.43 0.458 7.7 0.6 12.95
1/30/2021 6:00:00 PM 1.22 34.196 0.459 7.67 0.45 13
1/30/2021 6:15:00 PM 1.27 34.286 0.458 7.7 0.31 12.99
1/30/2021 6:30:00 PM 1.27 34.286 0.457 7.69 0.38 12.98
1/30/2021 6:45:00 PM 1.17 34.106 0.459 7.68 0.53 12.93
1/30/2021 7:00:00 PM 1.18 34.124 0.458 7.67 0.41 12.94
1/30/2021 7:15:00 PM 1.18 34.124 0.458 7.67 1.2 12.71
1/30/2021 7:30:00 PM 1.15 34.07 0.458 7.66 0.74 12.43
1/30/2021 7:45:00 PM 1.15 34.07 0.458 7.64 0.79 11.88
1/30/2021 8:00:00 PM 1.11 33.998 0.458 7.62 0.48 12.52
1/30/2021 8:15:00 PM 1.11 33.998 0.458 7.59 0.36 12.09
1/30/2021 8:30:00 PM 1.05 33.89 0.459 7.6 0.41 12.31
1/30/2021 8:45:00 PM 1.07 33.926 0.459 7.62 0.3 12.2
1/30/2021 9:00:00 PM 1.1 33.98 0.458 7.61 0.83 11.97
1/30/2021 9:15:00 PM 1.04 33.872 0.459 7.6 0.32 12.67
1/30/2021 9:30:00 PM 1.02 33.836 0.46 7.6 0.43 12.75
1/30/2021 9:45:00 PM 1.04 33.872 0.46 7.59 0.29 12.38
1/30/2021 10:00:00 PM 1.01 33.818 0.46 7.58 0.4 11.8
1/30/2021 10:15:00 PM 1.04 33.872 0.46 7.58 0.45 12.44
1/30/2021 10:30:00 PM 1.03 33.854 0.461 7.56 1.12 12.66
1/30/2021 10:45:00 PM 0.99 33.782 0.461 7.54 0.33 12.85
1/30/2021 11:00:00 PM 1 33.8 0.462 7.57 0.39 12.66
1/30/2021 11:15:00 PM 1.01 33.818 0.462 7.56 0.35 12.83
1/30/2021 11:30:00 PM 1.03 33.854 0.462 7.56 0.86 12.67
1/30/2021 11:45:00 PM 0.99 33.782 0.463 7.57 0.31 12.65
1/31/2021 12:00:00 AM 1 33.8 0.463 7.57 0.33 12.73
1/31/2021 12:15:00 AM 0.98 33.764 0.464 7.57 0.42 12.79
1/31/2021 12:30:00 AM 1.02 33.836 0.464 7.57 1 12.45
1/31/2021 12:45:00 AM 1 33.8 0.464 7.57 0.39 12.63
1/31/2021 1:00:00 AM 1.01 33.818 0.464 7.57 0.33 12.65
1/31/2021 1:15:00 AM 1.01 33.818 0.464 7.57 0.25 12.45
1/31/2021 1:30:00 AM 1 33.8 0.465 7.57 0.37 12.56
1/31/2021 1:45:00 AM 1 33.8 0.464 7.57 0.42 12.42
1/31/2021 2:00:00 AM 0.99 33.782 0.465 7.55 0.36 12.17
1/31/2021 2:15:00 AM 0.95 33.71 0.466 7.58 0.45 12.53
1/31/2021 2:30:00 AM 1 33.8 0.465 7.59 0.39 12.31
1/31/2021 2:45:00 AM 0.98 33.764 0.465 7.59 0.4 12.52
1/31/2021 3:00:00 AM 1 33.8 0.465 7.59 0.34 12.51
1/31/2021 3:15:00 AM 1.04 33.872 0.465 7.6 0.26 12.57
1/31/2021 3:30:00 AM 1.05 33.89 0.465 7.61 0.34 12.47
1/31/2021 3:45:00 AM 1.06 33.908 0.465 7.61 0.28 12.64
1/31/2021 4:00:00 AM 1.08 33.944 0.465 7.61 0.36 12.62
1/31/2021 4:15:00 AM 1.09 33.962 0.465 7.62 0.46 12.65
1/31/2021 4:30:00 AM 1.11 33.998 0.465 7.61 0.5 12.87
1/31/2021 4:45:00 AM 1.13 34.034 0.466 7.62 0.58 12.66
1/31/2021 5:00:00 AM 1.13 34.034 0.466 7.62 0.51 12.68
1/31/2021 5:15:00 AM 1.15 34.07 0.466 7.62 0.54 12.9
1/31/2021 5:30:00 AM 1.15 34.07 0.467 7.62 0.8 12.87
1/31/2021 5:45:00 AM 1.2 34.16 0.466 7.62 1.06 13.05
1/31/2021 6:00:00 AM 1.2 34.16 0.467 7.62 0.47 11.82
1/31/2021 6:15:00 AM 1.24 34.232 0.467 7.61 0.55 13.03
1/31/2021 6:30:00 AM 1.27 34.286 0.466 7.63 0.43 12.9
1/31/2021 6:45:00 AM 1.28 34.304 0.467 7.63 0.25 13.07
1/31/2021 7:00:00 AM 1.27 34.286 0.467 7.64 0.95 13.2
1/31/2021 7:15:00 AM 1.25 34.25 0.467 7.63 0.91 13.25
1/31/2021 7:30:00 AM 1.26 34.268 0.467 7.64 0.26 13.2
1/31/2021 7:45:00 AM 1.29 34.322 0.467 7.64 0.29 13.17
1/31/2021 8:00:00 AM 1.3 34.34 0.467 7.64 0.3 13.17
1/31/2021 8:15:00 AM 1.29 34.322 0.467 7.63 0.6 13.22
1/31/2021 8:30:00 AM 1.32 34.376 0.467 7.64 0.44 13.12
1/31/2021 8:45:00 AM 1.31 34.358 0.467 7.63 0.58 13.22
1/31/2021 9:00:00 AM 1.3 34.34 0.467 7.64 0.63 13.05
1/31/2021 9:15:00 AM 1.31 34.358 0.467 7.63 0.4 13.22
1/31/2021 9:30:00 AM 1.31 34.358 0.467 7.64 0.96 13.18
1/31/2021 9:45:00 AM 1.28 34.304 0.467 7.63 0.56 13.29
1/31/2021 10:00:00 AM 1.27 34.286 0.467 7.63 0.95 13.31
1/31/2021 10:15:00 AM 1.25 34.25 0.467 7.64 0.44 13.32
1/31/2021 10:30:00 AM 1.25 34.25 0.467 7.63 0.5 13.39
1/31/2021 10:45:00 AM 1.27 34.286 0.466 7.64 0.77 13.43
1/31/2021 11:00:00 AM 1.24 34.232 0.466 7.63 0.69 13.44
1/31/2021 11:15:00 AM 1.23 34.214 0.466 7.64 0.49 13.53
1/31/2021 11:30:00 AM 1.24 34.232 0.466 7.64 0.53 13.61
1/31/2021 11:45:00 AM 1.26 34.268 0.466 7.63 0.45 13.63
1/31/2021 12:00:00 PM 1.27 34.286 0.467 7.64 0.67 13.63
1/31/2021 12:15:00 PM 1.3 34.34 0.467 7.65 1.01 13.64
1/31/2021 12:30:00 PM 1.31 34.358 0.467 7.66 0.81 13.79
1/31/2021 12:45:00 PM 1.34 34.412 0.467 7.65 0.73 14
1/31/2021 1:00:00 PM 1.39 34.502 0.467 7.66 0.71 13.79
1/31/2021 1:15:00 PM 1.39 34.502 0.468 7.66 0.7 13.7
1/31/2021 1:30:00 PM 1.39 34.502 0.468 7.66 1.1 13.77
1/31/2021 1:45:00 PM 1.4 34.52 0.468 7.66 0.52 13.81
1/31/2021 2:00:00 PM 1.41 34.538 0.469 7.67 0.83 13.79
1/31/2021 2:15:00 PM 1.44 34.592 0.468 7.67 0.57 13.79
1/31/2021 2:30:00 PM 1.47 34.646 0.468 7.67 0.76 13.86
1/31/2021 2:45:00 PM 1.41 34.538 0.468 7.66 0.76 13.77
1/31/2021 3:00:00 PM 1.39 34.502 0.468 7.67 0.76 13.88
1/31/2021 3:15:00 PM 1.36 34.448 0.468 7.67 0.45 13.72
1/31/2021 3:30:00 PM 1.33 34.394 0.467 7.67 0.43 13.58
1/31/2021 3:45:00 PM 1.31 34.358 0.467 7.67 0.38 13.53
1/31/2021 4:00:00 PM 1.27 34.286 0.466 7.66 1.33 13.6
1/31/2021 4:15:00 PM 1.27 34.286 0.465 7.66 0.3 13.57
1/31/2021 4:30:00 PM 1.24 34.232 0.465 7.66 0.25 13.32
1/31/2021 4:45:00 PM 1.24 34.232 0.464 7.65 0.58 13.07
1/31/2021 5:00:00 PM 1.16 34.088 0.464 7.65 0.34 13.16
1/31/2021 5:15:00 PM 1.15 34.07 0.463 7.65 0.22 12.61
1/31/2021 5:30:00 PM 1.15 34.07 0.462 7.65 0.42 12.69
1/31/2021 5:45:00 PM 1.08 33.944 0.463 7.64 0.27 12.9
1/31/2021 6:00:00 PM 1.1 33.98 0.462 7.64 0.51 12.83
1/31/2021 6:15:00 PM 1.04 33.872 0.462 7.63 0.45 12.64
1/31/2021 6:30:00 PM 1.05 33.89 0.461 7.61 0.43 12.69
1/31/2021 6:45:00 PM 1.03 33.854 0.461 7.62 0.5 12.7
1/31/2021 7:00:00 PM 1.05 33.89 0.461 7.62 0.27 12.57
1/31/2021 7:15:00 PM 1.05 33.89 0.461 7.62 0.53 12.62
1/31/2021 7:30:00 PM 1 33.8 0.461 7.63 2.76 12.68
1/31/2021 7:45:00 PM 1.03 33.854 0.46 7.62 0.65 12.46
1/31/2021 8:00:00 PM 0.99 33.782 0.461 7.62 0.32 12.5
1/31/2021 8:15:00 PM 1.04 33.872 0.459 7.62 0.34 12.54
1/31/2021 8:30:00 PM 0.99 33.782 0.46 7.61 0.88 12.73
1/31/2021 8:45:00 PM 1 33.8 0.459 7.61 0.26 12.24
1/31/2021 9:00:00 PM 1 33.8 0.459 7.61 0.65 12.56
1/31/2021 9:15:00 PM 0.94 33.692 0.459 7.61 0.47 12.58
1/31/2021 9:30:00 PM 0.97 33.746 0.459 7.61 5.51 12.57
1/31/2021 9:45:00 PM 0.96 33.728 0.459 7.61 1.37 12.59
1/31/2021 10:00:00 PM 0.96 33.728 0.459 7.59 0.35 12.41
1/31/2021 10:15:00 PM 0.96 33.728 0.458 7.58 0.36 12.49
1/31/2021 10:30:00 PM 0.94 33.692 0.458 7.58 0.45 12.68
1/31/2021 10:45:00 PM 0.95 33.71 0.458 7.57 0.2 12.57
1/31/2021 11:00:00 PM 0.94 33.692 0.457 7.58 0.32 12.78
1/31/2021 11:15:00 PM 0.91 33.638 0.458 7.57 0.41 12.62
1/31/2021 11:30:00 PM 0.89 33.602 0.457 7.56 0.35 12.41
1/31/2021 11:45:00 PM 0.82 33.476 0.458 7.56 0.26 12.74
2/1/2021 12:00:00 AM 0.83 33.494 0.457 7.56 0.32 12.85
2/1/2021 12:15:00 AM 0.8 33.44 0.457 7.55 0.3 12.74
2/1/2021 12:30:00 AM 0.84 33.512 0.457 7.56 0.47 12.74
2/1/2021 12:45:00 AM 0.81 33.458 0.457 7.56 0.38 12.8
2/1/2021 1:00:00 AM 0.8 33.44 0.457 7.56 0.35 12.71
2/1/2021 1:15:00 AM 0.8 33.44 0.457 7.56 0.26 12.8
2/1/2021 1:30:00 AM 0.79 33.422 0.457 7.56 0.24 12.88
2/1/2021 1:45:00 AM 0.81 33.458 0.457 7.56 0.25 12.71
2/1/2021 2:00:00 AM 0.8 33.44 0.457 7.56 0.46 12.73
2/1/2021 2:15:00 AM 0.78 33.404 0.457 7.57 1.21 12.67
2/1/2021 2:30:00 AM 0.83 33.494 0.457 7.57 1.21 12.66
2/1/2021 2:45:00 AM 0.8 33.44 0.458 7.57 0.4 12.83
2/1/2021 3:00:00 AM 0.81 33.458 0.458 7.57 0.66 12.85
2/1/2021 3:15:00 AM 0.82 33.476 0.458 7.56 0.26 12.79
2/1/2021 3:30:00 AM 0.81 33.458 0.458 7.56 0.24 12.94
2/1/2021 3:45:00 AM 0.85 33.53 0.458 7.56 0.55 13.09
2/1/2021 4:00:00 AM 0.89 33.602 0.457 7.57 0.29 12.78
2/1/2021 4:15:00 AM 0.85 33.53 0.458 7.56 0.39 12.9
2/1/2021 4:30:00 AM 0.84 33.512 0.458 7.56 0.53 13.1
2/1/2021 4:45:00 AM 0.84 33.512 0.458 7.56 0.34 12.84
2/1/2021 5:00:00 AM 0.84 33.512 0.458 7.56 0.29 13.01
2/1/2021 5:15:00 AM 0.83 33.494 0.458 7.58 0.28 12.8
2/1/2021 5:30:00 AM 0.85 33.53 0.458 7.58 0.26 12.96
2/1/2021 5:45:00 AM 0.86 33.548 0.458 7.58 0.2 13.2
2/1/2021 6:00:00 AM 0.85 33.53 0.458 7.59 0.52 13.19
2/1/2021 6:15:00 AM 0.86 33.548 0.457 7.58 0.48 13.12
2/1/2021 6:30:00 AM 0.83 33.494 0.458 7.59 0.47 13.16
2/1/2021 6:45:00 AM 0.83 33.494 0.457 7.59 0.29 13.03
2/1/2021 7:00:00 AM 0.83 33.494 0.457 7.59 0.31 12.97
2/1/2021 7:15:00 AM 0.81 33.458 0.457 7.58 0.29 12.77
2/1/2021 7:30:00 AM 0.82 33.476 0.457 7.57 0.18 12.7
2/1/2021 7:45:00 AM 0.79 33.422 0.457 7.58 0.5 12.73
2/1/2021 8:00:00 AM 0.8 33.44 0.457 7.59 0.31 12.7
2/1/2021 8:15:00 AM 0.77 33.386 0.458 7.58 0.39 12.8
2/1/2021 8:30:00 AM 0.79 33.422 0.458 7.58 0.24 12.88
2/1/2021 8:45:00 AM 0.79 33.422 0.459 7.59 0.2 12.74
2/1/2021 9:00:00 AM 0.81 33.458 0.459 7.59 0.71 12.9
2/1/2021 9:15:00 AM 0.79 33.422 0.46 7.6 1.44 13.09
2/1/2021 9:30:00 AM 0.81 33.458 0.46 7.6 0.3 12.92
2/1/2021 9:45:00 AM 0.84 33.512 0.46 7.6 0.18 12.99
2/1/2021 10:00:00 AM 0.81 33.458 0.46 7.6 0.24 13.34
2/1/2021 10:15:00 AM 0.84 33.512 0.46 7.6 0.36 13.14
2/1/2021 10:30:00 AM 0.83 33.494 0.461 7.6 0.26 13.2
2/1/2021 10:45:00 AM 0.83 33.494 0.461 7.62 0.4 13.09
2/1/2021 11:00:00 AM 0.8 33.44 0.462 7.63 0.33 12.85
2/1/2021 11:15:00 AM 0.81 33.458 0.462 7.64 0.34 13.1
2/1/2021 11:30:00 AM 0.83 33.494 0.462 7.63 0.44 13.07
2/1/2021 11:45:00 AM 0.87 33.566 0.462 7.64 0.31 12.99
2/1/2021 12:00:00 PM 0.88 33.584 0.462 7.64 0.09 12.68
2/1/2021 12:15:00 PM 0.9 33.62 0.462 7.64 0.42 12.72
2/1/2021 12:30:00 PM 0.88 33.584 0.463 7.64 0.22 12.95
2/1/2021 12:45:00 PM 0.87 33.566 0.463 7.65 0.21 13.13
2/1/2021 1:00:00 PM 0.87 33.566 0.463 7.65 0.18 12.87
2/1/2021 1:15:00 PM 0.87 33.566 0.463 7.65 0.2 12.99
2/1/2021 1:30:00 PM 0.87 33.566 0.463 7.64 0.28 12.77
2/1/2021 1:45:00 PM 0.85 33.53 0.463 7.64 0.19 12.58
2/1/2021 2:00:00 PM 0.86 33.548 0.463 7.65 0.4 12.6
2/1/2021 2:15:00 PM 0.88 33.584 0.463 7.66 0.24 13.04
2/1/2021 2:30:00 PM 0.85 33.53 0.463 7.65 0.18 12.81
2/1/2021 2:45:00 PM 0.81 33.458 0.463 7.65 0.2 12.72
2/1/2021 3:00:00 PM 0.75 33.35 0.462 7.65 0.36 13.02
2/1/2021 3:15:00 PM 0.73 33.314 0.461 7.65 0.15 13.14
2/1/2021 3:30:00 PM 0.65 33.17 0.461 7.64 1.1 12.96
2/1/2021 3:45:00 PM 0.66 33.188 0.459 7.64 0.47 13.22
2/1/2021 4:00:00 PM 0.62 33.116 0.46 7.63 0.19 12.97
2/1/2021 4:15:00 PM 0.61 33.098 0.46 7.62 0.21 13.03
2/1/2021 4:30:00 PM 0.62 33.116 0.46 7.62 0.27 13.07
2/1/2021 4:45:00 PM 0.63 33.134 0.46 7.63 0.24 12.76
2/1/2021 5:00:00 PM 0.56 33.008 0.462 7.63 12.65 12.84
2/1/2021 5:15:00 PM 0.57 33.026 0.463 7.63 0.38 12.66
2/1/2021 5:30:00 PM 0.62 33.116 0.463 7.63 0.21 12.83
2/1/2021 5:45:00 PM 0.59 33.062 0.464 7.62 0.26 12.57
2/1/2021 6:00:00 PM 0.65 33.17 0.464 7.62 0.29 12.65
2/1/2021 6:15:00 PM 0.53 32.954 0.466 7.6 0.3 12.94
2/1/2021 6:30:00 PM 0.59 33.062 0.465 7.6 0.43 12.62
2/1/2021 6:45:00 PM 0.59 33.062 0.466 7.59 0.54 12.51
2/1/2021 7:00:00 PM 0.65 33.17 0.465 7.59 0.32 12.78
2/1/2021 7:15:00 PM 0.59 33.062 0.466 7.58 0.18 12.71
2/1/2021 7:30:00 PM 0.62 33.116 0.466 7.58 0.16 12.64
2/1/2021 7:45:00 PM 0.61 33.098 0.467 7.58 0.22 12.73
2/1/2021 8:00:00 PM 0.61 33.098 0.467 7.57 0.64 12.81
2/1/2021 8:15:00 PM 0.61 33.098 0.467 7.56 0.44 12.88
2/1/2021 8:30:00 PM 0.64 33.152 0.467 7.56 0.2 12.83
2/1/2021 8:45:00 PM 0.63 33.134 0.468 7.55 0.17 12.83
2/1/2021 9:00:00 PM 0.59 33.062 0.469 7.55 0.53 12.85
2/1/2021 9:15:00 PM 0.63 33.134 0.468 7.54 0.34 12.8
2/1/2021 9:30:00 PM 0.6 33.08 0.469 7.52 0.18 12.77
2/1/2021 9:45:00 PM 0.58 33.044 0.469 7.53 0.39 12.85
2/1/2021 10:00:00 PM 0.61 33.098 0.469 7.55 0.26 12.73
2/1/2021 10:15:00 PM 0.59 33.062 0.469 7.55 0.29 12.73
2/1/2021 10:30:00 PM 0.6 33.08 0.469 7.56 0.25 12.7
2/1/2021 10:45:00 PM 0.62 33.116 0.468 7.56 0.6 12.7
2/1/2021 11:00:00 PM 0.57 33.026 0.469 7.56 0.38 12.72
2/1/2021 11:15:00 PM 0.62 33.116 0.468 7.56 0.2 12.74
2/1/2021 11:30:00 PM 0.61 33.098 0.469 7.57 0.35 12.77
2/1/2021 11:45:00 PM 0.63 33.134 0.468 7.57 0.42 12.78
2/2/2021 12:00:00 AM 0.64 33.152 0.468 7.58 1.09 12.86
2/2/2021 12:15:00 AM 0.58 33.044 0.469 7.59 0.23 12.16
2/2/2021 12:30:00 AM 0.63 33.134 0.468 7.59 0.33 12.73
2/2/2021 12:45:00 AM 0.61 33.098 0.468 7.6 0.28 12.63
2/2/2021 1:00:00 AM 0.57 33.026 0.468 7.6 0.33 12.94
2/2/2021 1:15:00 AM 0.58 33.044 0.468 7.61 0.46 12.64
2/2/2021 1:30:00 AM 0.58 33.044 0.468 7.61 0.18 12.49
2/2/2021 1:45:00 AM 0.57 33.026 0.467 7.62 0.39 12.68
2/2/2021 2:00:00 AM 0.57 33.026 0.468 7.62 0.26 12.88
2/2/2021 2:15:00 AM 0.61 33.098 0.467 7.62 0.36 13.02
2/2/2021 2:30:00 AM 0.59 33.062 0.467 7.61 0.37 12.8
2/2/2021 2:45:00 AM 0.58 33.044 0.466 7.6 0.74 12.72
2/2/2021 3:00:00 AM 0.55 32.99 0.467 7.61 0.37 12.89
2/2/2021 3:15:00 AM 0.52 32.936 0.467 7.61 0.48 13.09
2/2/2021 3:30:00 AM 0.58 33.044 0.466 7.61 1.2 12.97
2/2/2021 3:45:00 AM 0.55 32.99 0.466 7.61 0.34 13.13
2/2/2021 4:00:00 AM 0.6 33.08 0.465 7.61 0.75 12.87
2/2/2021 4:15:00 AM 0.54 32.972 0.465 7.6 0.33 13.04
2/2/2021 4:30:00 AM 0.57 33.026 0.465 7.6 0.31 13.08
2/2/2021 4:45:00 AM 0.56 33.008 0.464 7.6 0.67 13.1
2/2/2021 5:00:00 AM 0.55 32.99 0.464 7.62 0.82 12.93
2/2/2021 5:15:00 AM 0.54 32.972 0.464 7.61 0.43 12.97
2/2/2021 5:30:00 AM 0.53 32.954 0.464 7.6 0.48 13.05
2/2/2021 5:45:00 AM 0.56 33.008 0.464 7.6 0.65 12.33
2/2/2021 6:00:00 AM 0.53 32.954 0.463 7.59 0.91 12.77
2/2/2021 6:15:00 AM 0.54 32.972 0.463 7.6 0.67 12.73
2/2/2021 6:30:00 AM 0.54 32.972 0.462 7.59 1.34 12.94
2/2/2021 6:45:00 AM 0.51 32.918 0.463 7.59 0.4 12.63
2/2/2021 7:00:00 AM 0.5 32.9 0.462 7.58 0.5 12.84
2/2/2021 7:15:00 AM 0.56 33.008 0.461 7.59 0.93 11.86
2/2/2021 7:30:00 AM 0.55 32.99 0.461 7.58 0.52 12.25
2/2/2021 7:45:00 AM 0.52 32.936 0.461 7.56 0.72 11.59
2/2/2021 8:00:00 AM 0.54 32.972 0.46 7.6 0.48 11.26
2/2/2021 8:15:00 AM 0.56 33.008 0.46 7.61 0.7 9.71
2/2/2021 8:30:00 AM 0.54 32.972 0.459 7.61 0.35 12.2
2/2/2021 8:45:00 AM 0.49 32.882 0.46 7.62 0.33 12.9
2/2/2021 9:00:00 AM 0.53 32.954 0.459 7.63 0.26 12.95
2/2/2021 9:15:00 AM 0.48 32.864 0.46 7.64 0.96 12.72
2/2/2021 9:30:00 AM 0.51 32.918 0.46 7.64 0.53 13.32
2/2/2021 9:45:00 AM 0.56 33.008 0.459 7.65 0.39 12.78
2/2/2021 10:00:00 AM 0.56 33.008 0.46 7.65 0.6 12.98
2/2/2021 10:15:00 AM 0.6 33.08 0.46 7.66 0.47 12.8
2/2/2021 10:30:00 AM 0.64 33.152 0.459 7.67 0.57 13.23
2/2/2021 10:45:00 AM 0.67 33.206 0.46 7.68 1.03 13.38
2/2/2021 11:00:00 AM 0.71 33.278 0.459 7.69 0.52 13.64
2/2/2021 11:15:00 AM 0.75 33.35 0.46 7.7 0.82 13.37
2/2/2021 11:30:00 AM 0.8 33.44 0.46 7.7 0.9 13.69
2/2/2021 11:45:00 AM 0.85 33.53 0.46 7.69 0.83 14
2/2/2021 12:00:00 PM 0.88 33.584 0.46 7.7 0.91 13.9
2/2/2021 12:15:00 PM 0.9 33.62 0.46 7.69 0.69 13.92
2/2/2021 12:30:00 PM 0.94 33.692 0.46 7.7 1.15 13.81
2/2/2021 12:45:00 PM 0.96 33.728 0.46 7.69 0.69 13.9
2/2/2021 1:00:00 PM 0.99 33.782 0.46 7.7 0.67 13.88
2/2/2021 1:15:00 PM 1 33.8 0.46 7.71 0.72 13.89
2/2/2021 1:30:00 PM 1.01 33.818 0.46 7.72 0.81 13.97
2/2/2021 1:45:00 PM 1.01 33.818 0.46 7.73 1.23 13.74
2/2/2021 2:00:00 PM 1.02 33.836 0.46 7.73 0.67 13.75
2/2/2021 2:15:00 PM 1 33.8 0.46 7.73 0.36 13.78
2/2/2021 2:30:00 PM 1 33.8 0.46 7.73 0.74 13.52
2/2/2021 2:45:00 PM 1 33.8 0.46 7.73 0.68 13.73
2/2/2021 3:00:00 PM 1.01 33.818 0.46 7.72 0.39 13.65
2/2/2021 3:15:00 PM 0.98 33.764 0.461 7.72 0.66 13.31
2/2/2021 3:30:00 PM 0.96 33.728 0.461 7.71 0.71 13.5
2/2/2021 3:45:00 PM 0.97 33.746 0.461 7.68 1.24 13.54
2/2/2021 4:00:00 PM 1.01 33.818 0.461 7.68 0.92 13.41
2/2/2021 4:15:00 PM 0.98 33.764 0.461 7.69 0.59 13.31
2/2/2021 4:30:00 PM 0.96 33.728 0.462 7.69 0.84 13.39
2/2/2021 4:45:00 PM 0.97 33.746 0.462 7.7 0.76 13.15
2/2/2021 5:00:00 PM 0.95 33.71 0.461 7.69 0.54 13.18
2/2/2021 5:15:00 PM 0.9 33.62 0.462 7.7 0.55 13.17
2/2/2021 5:30:00 PM 0.88 33.584 0.462 7.69 2.95 13.11
2/2/2021 5:45:00 PM 0.87 33.566 0.461 7.68 4.09 12.89
2/2/2021 6:00:00 PM 0.83 33.494 0.462 7.68 0.52 12.82
2/2/2021 6:15:00 PM 0.81 33.458 0.462 7.67 1.38 12.8
2/2/2021 6:30:00 PM 0.72 33.296 0.463 7.65 0.63 12.71
2/2/2021 6:45:00 PM 0.71 33.278 0.462 7.64 0.61 12.61
2/2/2021 7:00:00 PM 0.73 33.314 0.462 7.65 0.39 12.37
2/2/2021 7:15:00 PM 0.69 33.242 0.462 7.64 0.89 12.55
2/2/2021 7:30:00 PM 0.68 33.224 0.462 7.64 0.39 12.47
2/2/2021 7:45:00 PM 0.64 33.152 0.463 7.63 0.58 12.35
2/2/2021 8:00:00 PM 0.63 33.134 0.463 7.63 0.39 12.44
2/2/2021 8:15:00 PM 0.62 33.116 0.463 7.64 0.61 12.57
2/2/2021 8:30:00 PM 0.63 33.134 0.463 7.65 0.37 12.27
2/2/2021 8:45:00 PM 0.64 33.152 0.463 7.65 0.42 12.35
2/2/2021 9:00:00 PM 0.58 33.044 0.464 7.65 0.64 12.67
2/2/2021 9:15:00 PM 0.62 33.116 0.464 7.65 0.76 12.45
2/2/2021 9:30:00 PM 0.58 33.044 0.465 7.64 0.49 12.76
2/2/2021 9:45:00 PM 0.6 33.08 0.465 7.64 0.45 12.71
2/2/2021 10:00:00 PM 0.61 33.098 0.465 7.64 0.29 12.84
2/2/2021 10:15:00 PM 0.6 33.08 0.466 7.63 0.63 13
2/2/2021 10:30:00 PM 0.58 33.044 0.466 7.62 0.61 12.98
2/2/2021 10:45:00 PM 0.54 32.972 0.467 7.62 0.76 13.22
2/2/2021 11:00:00 PM 0.56 33.008 0.467 7.62 0.69 13.3
2/2/2021 11:15:00 PM 0.55 32.99 0.468 7.62 0.89 13.34
2/2/2021 11:30:00 PM 0.58 33.044 0.468 7.61 1.17 13.25
2/2/2021 11:45:00 PM 0.58 33.044 0.469 7.61 0.81 13.35
2/3/2021 12:00:00 AM 0.61 33.098 0.469 7.6 0.89 13.39
2/3/2021 12:15:00 AM 0.6 33.08 0.47 7.59 0.69 13.27
2/3/2021 12:30:00 AM 0.62 33.116 0.47 7.63 0.94 13.42
2/3/2021 12:45:00 AM 0.62 33.116 0.471 7.64 0.98 13.29
2/3/2021 1:00:00 AM 0.64 33.152 0.471 7.63 0.83 13.32
2/3/2021 1:15:00 AM 0.65 33.17 0.471 7.62 0.73 13.05
2/3/2021 1:30:00 AM 0.67 33.206 0.472 7.63 0.6 12.77
2/3/2021 1:45:00 AM 0.68 33.224 0.472 7.63 0.97 12.75
2/3/2021 2:00:00 AM 0.71 33.278 0.461 7.63 1.01 12.99
2/3/2021 2:15:00 AM 0.72 33.296 0.471 7.62 0.72 12.82
2/3/2021 2:30:00 AM 0.74 33.332 0.473 7.63 0.77 12.56
2/3/2021 2:45:00 AM 0.75 33.35 0.473 7.63 0.82 12.6
2/3/2021 3:00:00 AM 0.79 33.422 0.474 7.62 0.88 11.84
2/3/2021 3:15:00 AM 0.8 33.44 0.474 7.63 0.62 11.75
2/3/2021 3:30:00 AM 0.83 33.494 0.475 7.63 0.79 11.48
2/3/2021 3:45:00 AM 0.85 33.53 0.475 7.61 0.76 11.72
2/3/2021 4:00:00 AM 0.87 33.566 0.476 7.61 0.81 12.19
2/3/2021 4:15:00 AM 0.92 33.656 0.476 7.61 0.84 11.79
2/3/2021 4:30:00 AM 0.93 33.674 0.476 7.61 0.62 11.15
2/3/2021 4:45:00 AM 0.97 33.746 0.477 7.62 0.64 10.78
2/3/2021 5:00:00 AM 1 33.8 0.477 7.62 0.65 10.72
2/3/2021 5:15:00 AM 1.01 33.818 0.477 7.62 0.78 11.02
2/3/2021 5:30:00 AM 1.04 33.872 0.478 7.62 0.77 10.64
2/3/2021 5:45:00 AM 1.06 33.908 0.478 7.61 0.47 10.85
2/3/2021 6:00:00 AM 1.08 33.944 0.479 7.6 0.74 11.21
2/3/2021 6:15:00 AM 1.11 33.998 0.48 7.6 0.74 11.22
2/3/2021 6:30:00 AM 1.14 34.052 0.48 7.59 0.65 11.37
2/3/2021 6:45:00 AM 1.15 34.07 0.481 7.6 0.5 11.67
2/3/2021 7:00:00 AM 1.17 34.106 0.482 7.59 0.6 11.21
2/3/2021 7:15:00 AM 1.18 34.124 0.482 7.59 0.89 11.37
2/3/2021 7:30:00 AM 1.2 34.16 0.483 7.58 0.75 11.38
2/3/2021 7:45:00 AM 1.21 34.178 0.484 7.6 0.95 11.4
2/3/2021 8:00:00 AM 1.22 34.196 0.484 7.6 0.59 11.4
2/3/2021 8:15:00 AM 1.24 34.232 0.485 7.6 1.78 11.36
2/3/2021 8:30:00 AM 1.27 34.286 0.486 7.6 0.88 10.87
2/3/2021 8:45:00 AM 1.29 34.322 0.486 7.61 0.61 10.66
2/3/2021 9:00:00 AM 1.31 34.358 0.487 7.6 0.71 10.87
2/3/2021 9:15:00 AM 1.33 34.394 0.488 7.61 0.94 11
2/3/2021 9:30:00 AM 1.35 34.43 0.489 7.61 0.97 11.33
2/3/2021 9:45:00 AM 1.37 34.466 0.49 7.6 1.1 11.69
2/3/2021 10:00:00 AM 1.38 34.484 0.491 7.6 0.55 11.68
2/3/2021 10:15:00 AM 1.39 34.502 0.492 7.6 0.74 11.31
2/3/2021 10:30:00 AM 1.4 34.52 0.493 7.6 0.53 11.18
2/3/2021 10:45:00 AM 1.42 34.556 0.494 7.6 0.73 11.36
2/3/2021 11:00:00 AM 1.44 34.592 0.495 7.6 0.85 11.22
2/3/2021 11:15:00 AM 1.47 34.646 0.496 7.61 1.04 11.54
2/3/2021 11:30:00 AM 1.5 34.7 0.497 7.6 1.06 12.26
2/3/2021 11:45:00 AM 1.53 34.754 0.498 7.6 0.83 12.24
2/3/2021 12:00:00 PM 1.57 34.826 0.499 7.6 0.8 12.18
2/3/2021 12:15:00 PM 1.62 34.916 0.5 7.59 0.79 12.22
2/3/2021 12:30:00 PM 1.67 35.006 0.502 7.59 0.99 12.2
2/3/2021 12:45:00 PM 1.71 35.078 0.503 7.59 0.92 12.52
2/3/2021 1:00:00 PM 1.74 35.132 0.504 7.59 1.21 12.63
2/3/2021 1:15:00 PM 1.76 35.168 0.506 7.57 2.12 12.54
2/3/2021 1:30:00 PM 1.8 35.24 0.507 7.59 2.19 12.58
2/3/2021 1:45:00 PM 1.81 35.258 0.508 7.59 21.62 12.42
2/3/2021 2:00:00 PM 1.83 35.294 0.51 7.58 2.47 12.23
2/3/2021 2:15:00 PM 1.83 35.294 0.511 7.58 1.27 12.41
2/3/2021 2:30:00 PM 1.83 35.294 0.512 7.56 1.41 12.38
2/3/2021 2:45:00 PM 1.84 35.312 0.514 7.56 1.11 12.36
2/3/2021 3:00:00 PM 1.9 35.42 0.514 7.56 1.49 12.42
2/3/2021 3:15:00 PM 1.98 35.564 0.515 7.57 1.31 12.51
2/3/2021 3:30:00 PM 2.01 35.618 0.516 7.57 1.04 12.51
2/3/2021 3:45:00 PM 2 35.6 0.518 7.57 1.32 12.52
2/3/2021 4:00:00 PM 1.98 35.564 0.519 7.57 1.73 12.56
2/3/2021 4:15:00 PM 1.93 35.474 0.521 7.57 3.31 12.59
2/3/2021 4:30:00 PM 1.87 35.366 0.522 7.56 0.98 12.55
2/3/2021 4:45:00 PM 1.83 35.294 0.523 7.56 1.14 12.6
2/3/2021 5:00:00 PM 1.79 35.222 0.524 7.56 1.52 12.81
2/3/2021 5:15:00 PM 1.77 35.186 0.524 7.56 1.22 12.32
2/3/2021 5:30:00 PM 1.71 35.078 0.525 7.55 1.02 11.94
2/3/2021 5:45:00 PM 1.7 35.06 0.526 7.55 1.16 12.18
2/3/2021 6:00:00 PM 1.67 35.006 0.526 7.55 0.79 12.11
2/3/2021 6:15:00 PM 1.63 34.934 0.527 7.55 0.78 12.3
2/3/2021 6:30:00 PM 1.62 34.916 0.528 7.55 1.1 12.37
2/3/2021 6:45:00 PM 1.62 34.916 0.528 7.54 0.9 12.22
2/3/2021 7:00:00 PM 1.61 34.898 0.528 7.55 1.18 11.98
2/3/2021 7:15:00 PM 1.6 34.88 0.528 7.54 3.34 11.68
2/3/2021 7:30:00 PM 1.6 34.88 0.529 7.55 0.69 11.28
2/3/2021 7:45:00 PM 1.6 34.88 0.53 7.55 0.83 10.83
2/3/2021 8:00:00 PM 1.59 34.862 0.53 7.54 0.69 11.07
2/3/2021 8:15:00 PM 1.59 34.862 0.53 7.55 1.17 11.85
2/3/2021 8:30:00 PM 1.6 34.88 0.53 7.54 0.92 11.91
2/3/2021 8:45:00 PM 1.6 34.88 0.53 7.53 1.01 12.13
2/3/2021 9:00:00 PM 1.6 34.88 0.53 7.52 1.24 12.09
2/3/2021 9:15:00 PM 1.61 34.898 0.53 7.51 0.73 11.67
2/3/2021 9:30:00 PM 1.6 34.88 0.53 7.51 0.93 11.72
2/3/2021 9:45:00 PM 1.59 34.862 0.53 7.5 0.64 11.92
2/3/2021 10:00:00 PM 1.59 34.862 0.53 7.51 1.07 11.38
2/3/2021 10:15:00 PM 1.59 34.862 0.53 7.53 0.79 11.83
2/3/2021 10:30:00 PM 1.62 34.916 0.53 7.55 1.19 11.48
2/3/2021 10:45:00 PM 1.59 34.862 0.53 7.56 1.26 12.05
2/3/2021 11:00:00 PM 1.61 34.898 0.53 7.56 0.82 11.82
2/3/2021 11:15:00 PM 1.59 34.862 0.529 7.54 0.92 11.45
2/3/2021 11:30:00 PM 1.61 34.898 0.529 7.53 1.43 11.56
2/3/2021 11:45:00 PM 1.58 34.844 0.529 7.52 0.52 11.99
2/4/2021 12:00:00 AM 1.58 34.844 0.529 7.52 1.26 11.76
2/4/2021 12:15:00 AM 1.58 34.844 0.528 7.5 0.91 11.74
2/4/2021 12:30:00 AM 1.61 34.898 0.528 7.52 0.76 11.73
2/4/2021 12:45:00 AM 1.62 34.916 0.527 7.55 1.04 11.66
2/4/2021 1:00:00 AM 1.6 34.88 0.527 7.57 1.15 11.88
2/4/2021 1:15:00 AM 1.62 34.916 0.526 7.58 0.81 11.74
2/4/2021 1:30:00 AM 1.6 34.88 0.526 7.59 0.99 12.05
2/4/2021 1:45:00 AM 1.62 34.916 0.525 7.6 0.87 11.88
2/4/2021 2:00:00 AM 1.63 34.934 0.525 7.59 0.98 11.72
2/4/2021 2:15:00 AM 1.63 34.934 0.524 7.59 1.06 12.1
2/4/2021 2:30:00 AM 1.61 34.898 0.524 7.59 1.01 12.1
2/4/2021 2:45:00 AM 1.64 34.952 0.522 7.59 1.07 12.41
2/4/2021 3:00:00 AM 1.65 34.97 0.522 7.6 1.06 12.52
2/4/2021 3:15:00 AM 1.65 34.97 0.521 7.6 0.99 12.48
2/4/2021 3:30:00 AM 1.67 35.006 0.52 7.61 1.22 12
2/4/2021 3:45:00 AM 1.65 34.97 0.52 7.6 0.77 12.21
2/4/2021 4:00:00 AM 1.66 34.988 0.519 7.6 1.08 12.41
2/4/2021 4:15:00 AM 1.67 35.006 0.518 7.59 1.13 12.01
2/4/2021 4:30:00 AM 1.67 35.006 0.518 7.59 0.97 12.12
2/4/2021 4:45:00 AM 1.64 34.952 0.518 7.59 1.25 11.71
2/4/2021 5:00:00 AM 1.65 34.97 0.518 7.59 1.42 12.34
2/4/2021 5:15:00 AM 1.66 34.988 0.517 7.58 0.86 12.27
2/4/2021 5:30:00 AM 1.63 34.934 0.517 7.58 1.23 12.08
2/4/2021 5:45:00 AM 1.63 34.934 0.516 7.59 1.45 12.14
2/4/2021 6:00:00 AM 1.6 34.88 0.516 7.58 1.38 12.02
2/4/2021 6:15:00 AM 1.62 34.916 0.515 7.57 0.76 11.86
2/4/2021 6:30:00 AM 1.6 34.88 0.514 7.55 1 11.68
2/4/2021 6:45:00 AM 1.54 34.772 0.515 7.55 1.65 11.65
2/4/2021 7:00:00 AM 1.56 34.808 0.514 7.54 1.24 12.22
2/4/2021 7:15:00 AM 1.56 34.808 0.513 7.53 0.97 12.04
2/4/2021 7:30:00 AM 1.54 34.772 0.513 7.54 1.39 11.7
2/4/2021 7:45:00 AM 1.53 34.754 0.513 7.54 0.62 11.85
2/4/2021 8:00:00 AM 1.55 34.79 0.512 7.55 0.82 11.83
2/4/2021 8:15:00 AM 1.53 34.754 0.513 7.55 0.95 11.89
2/4/2021 8:30:00 AM 1.54 34.772 0.513 7.56 0.94 12.1
2/4/2021 8:45:00 AM 1.52 34.736 0.513 7.56 0.85 12.2
2/4/2021 9:00:00 AM 1.51 34.718 0.514 7.56 1.95 12.14
2/4/2021 9:15:00 AM 1.55 34.79 0.514 7.57 1.74 12.24
2/4/2021 9:30:00 AM 1.59 34.862 0.514 7.58 0.98 12.42
2/4/2021 9:45:00 AM 1.61 34.898 0.515 7.58 1.1 12.27
2/4/2021 10:00:00 AM 1.63 34.934 0.516 7.58 1.16 12.63
2/4/2021 10:15:00 AM 1.69 35.042 0.516 7.59 0.86 12.52
2/4/2021 10:30:00 AM 1.74 35.132 0.516 7.61 0.71 12.51
2/4/2021 10:45:00 AM 1.79 35.222 0.516 7.6 1.64 12.74
2/4/2021 11:00:00 AM 1.85 35.33 0.517 7.6 0.84 12.95
2/4/2021 11:15:00 AM 1.93 35.474 0.517 7.59 1.19 12.91
2/4/2021 11:30:00 AM 2.01 35.618 0.518 7.59 1.38 12.78
2/4/2021 11:45:00 AM 2.14 35.852 0.518 7.59 1.04 12.91
2/4/2021 12:00:00 PM 2.26 36.068 0.519 7.58 1.21 13.26
2/4/2021 12:15:00 PM 2.39 36.302 0.519 7.57 1.03 13.25
2/4/2021 12:30:00 PM 2.5 36.5 0.52 7.56 1.15 13.08
2/4/2021 12:45:00 PM 2.65 36.77 0.52 7.55 1.35 13.14
2/4/2021 1:00:00 PM 2.81 37.058 0.52 7.55 1.24 13.14
2/4/2021 1:15:00 PM 2.9 37.22 0.521 7.54 1.83 13.11
2/4/2021 1:30:00 PM 3.03 37.454 0.521 7.52 1.08 13.12
2/4/2021 1:45:00 PM 3.11 37.598 0.523 7.52 1.22 13
2/4/2021 2:00:00 PM 3.12 37.616 0.525 7.51 1.36 13.03
2/4/2021 2:15:00 PM 3.26 37.868 0.524 7.51 1.18 12.7
2/4/2021 2:30:00 PM 3.29 37.922 0.525 7.51 1.4 13.07
2/4/2021 2:45:00 PM 3.28 37.904 0.526 7.51 1.71 12.69
2/4/2021 3:00:00 PM 3.29 37.922 0.527 7.5 1.38 12.77
2/4/2021 3:15:00 PM 3.2 37.76 0.529 7.5 1.37 13.01
2/4/2021 3:30:00 PM 3.14 37.652 0.529 7.51 1.5 13.05
2/4/2021 3:45:00 PM 3.08 37.544 0.53 7.51 1.64 13.18
2/4/2021 4:00:00 PM 2.96 37.328 0.531 7.52 1.26 13.09
2/4/2021 4:15:00 PM 2.83 37.094 0.532 7.52 2.07 13
2/4/2021 4:30:00 PM 2.71 36.878 0.533 7.53 1.27 13.06
2/4/2021 4:45:00 PM 2.58 36.644 0.534 7.53 1.25 13.1
2/4/2021 5:00:00 PM 2.52 36.536 0.534 7.52 1.72 13.01
2/4/2021 5:15:00 PM 2.43 36.374 0.534 7.52 1.38 12.91
2/4/2021 5:30:00 PM 2.36 36.248 0.535 7.54 1.83 12.68
2/4/2021 5:45:00 PM 2.31 36.158 0.535 7.54 1.64 12.74
2/4/2021 6:00:00 PM 2.27 36.086 0.535 7.54 1.26 12.55
2/4/2021 6:15:00 PM 2.21 35.978 0.536 7.54 1.51 12.36
2/4/2021 6:30:00 PM 2.19 35.942 0.537 7.54 1.36 12.14
2/4/2021 6:45:00 PM 2.15 35.87 0.537 7.54 1.31 12.24
2/4/2021 7:00:00 PM 2.12 35.816 0.537 7.53 1.06 12.19
2/4/2021 7:15:00 PM 2.13 35.834 0.537 7.51 0.8 12.22
2/4/2021 7:30:00 PM 2.08 35.744 0.539 7.5 0.9 12.12
2/4/2021 7:45:00 PM 2.07 35.726 0.539 7.5 1.24 12.07
2/4/2021 8:00:00 PM 2.05 35.69 0.54 7.5 1.22 12.21
2/4/2021 8:15:00 PM 2.07 35.726 0.54 7.51 1.13 12.11
2/4/2021 8:30:00 PM 2.04 35.672 0.541 7.51 1.27 12.01
2/4/2021 8:45:00 PM 2.05 35.69 0.541 7.51 0.72 12.07
2/4/2021 9:00:00 PM 2.03 35.654 0.542 7.5 1.67 12.16
2/4/2021 9:15:00 PM 2.03 35.654 0.543 7.5 1 12.05
2/4/2021 9:30:00 PM 2 35.6 0.544 7.5 0.72 11.96
2/4/2021 9:45:00 PM 2.03 35.654 0.543 7.5 1.02 11.97
2/4/2021 10:00:00 PM 2.03 35.654 0.544 7.49 0.6 11.83
2/4/2021 10:15:00 PM 2.04 35.672 0.544 7.49 0.84 11.75
2/4/2021 10:30:00 PM 2.03 35.654 0.545 7.49 0.76 11.75
2/4/2021 10:45:00 PM 2.06 35.708 0.545 7.49 0.88 11.65
2/4/2021 11:00:00 PM 2.06 35.708 0.545 7.5 0.82 11.8
2/4/2021 11:15:00 PM 2.06 35.708 0.546 7.5 1.22 12.01
2/4/2021 11:30:00 PM 2.08 35.744 0.546 7.49 1.81 12
2/4/2021 11:45:00 PM 2.08 35.744 0.546 7.5 1.12 11.94
2/5/2021 12:00:00 AM 2.09 35.762 0.546 7.51 1.24 11.98
2/5/2021 12:15:00 AM 2.12 35.816 0.546 7.51 1.08 11.98
2/5/2021 12:30:00 AM 2.14 35.852 0.546 7.51 0.95 12.14
2/5/2021 12:45:00 AM 2.17 35.906 0.546 7.52 0.98 12.1
2/5/2021 1:00:00 AM 2.19 35.942 0.546 7.52 1.9 11.92
2/5/2021 1:15:00 AM 2.2 35.96 0.547 7.52 1.37 12.02
2/5/2021 1:30:00 AM 2.25 36.05 0.547 7.53 1.06 12.13
2/5/2021 1:45:00 AM 2.27 36.086 0.547 7.54 1.32 12.23
2/5/2021 2:00:00 AM 2.3 36.14 0.547 7.54 0.8 12.18
2/5/2021 2:15:00 AM 2.34 36.212 0.547 7.53 1.24 12.21
2/5/2021 2:30:00 AM 2.37 36.266 0.547 7.54 1.34 12.28
2/5/2021 2:45:00 AM 2.41 36.338 0.547 7.54 1.8 12.21
2/5/2021 3:00:00 AM 2.44 36.392 0.547 7.54 1.13 12.29
2/5/2021 3:15:00 AM 2.48 36.464 0.547 7.54 1.15 12.26
2/5/2021 3:30:00 AM 2.51 36.518 0.548 7.54 1.24 12.27
2/5/2021 3:45:00 AM 2.53 36.554 0.548 7.54 1.32 12.12
2/5/2021 4:00:00 AM 2.55 36.59 0.548 7.55 1.38 12.29
2/5/2021 4:15:00 AM 2.56 36.608 0.548 7.54 2.1 12.32
2/5/2021 4:30:00 AM 2.59 36.662 0.548 7.55 1.91 12.24
2/5/2021 4:45:00 AM 2.61 36.698 0.548 7.56 0.93 12.13
2/5/2021 5:00:00 AM 2.63 36.734 0.549 7.55 1.06 11.85
2/5/2021 5:15:00 AM 2.65 36.77 0.549 7.55 0.9 12.03
2/5/2021 5:30:00 AM 2.67 36.806 0.549 7.56 0.95 12.07
2/5/2021 5:45:00 AM 2.69 36.842 0.549 7.56 0.99 12.17
2/5/2021 6:00:00 AM 2.71 36.878 0.549 7.55 0.94 12.29
2/5/2021 6:15:00 AM 2.72 36.896 0.549 7.56 1.07 12.01
2/5/2021 6:30:00 AM 2.73 36.914 0.549 7.58 1.07 12.23
2/5/2021 6:45:00 AM 2.75 36.95 0.549 7.59 1.16 12.31
2/5/2021 7:00:00 AM 2.76 36.968 0.549 7.59 1.16 12.31
2/5/2021 7:15:00 AM 2.76 36.968 0.549 7.58 1.38 12.19
2/5/2021 7:30:00 AM 2.76 36.968 0.55 7.59 0.95 12.39
2/5/2021 7:45:00 AM 2.76 36.968 0.55 7.58 1.85 12.44
2/5/2021 8:00:00 AM 2.75 36.95 0.55 7.58 1.6 12.44
2/5/2021 8:15:00 AM 2.75 36.95 0.55 7.57 1.94 12.39
2/5/2021 8:30:00 AM 2.77 36.986 0.55 7.58 1.7 12.38
2/5/2021 8:45:00 AM 2.79 37.022 0.551 7.58 1.27 12.45
2/5/2021 9:00:00 AM 2.8 37.04 0.551 7.58 1.06 12.44
2/5/2021 9:15:00 AM 2.83 37.094 0.551 7.58 1.27 12.47
2/5/2021 9:30:00 AM 2.86 37.148 0.551 7.58 1.26 12.51
2/5/2021 9:45:00 AM 2.91 37.238 0.551 7.59 1.11 11.43
2/5/2021 10:00:00 AM 2.98 37.364 0.552 7.58 1.56 10.65
2/5/2021 10:15:00 AM 3.01 37.418 0.552 7.58 1.11 11.17
2/5/2021 10:30:00 AM 3.07 37.526 0.552 7.59 1.44 11.86
2/5/2021 10:45:00 AM 3.14 37.652 0.552 7.59 2.15 11.54
2/5/2021 11:00:00 AM 3.22 37.796 0.552 7.59 1.16 11.95
2/5/2021 11:15:00 AM 3.28 37.904 0.552 7.59 1.71 11.92
2/5/2021 11:30:00 AM 3.37 38.066 0.552 7.6 1.02 12.58